<?xml version="1.0" encoding="UTF-8" standalone="no" ?>
<gpx xmlns="http://www.topografix.com/GPX/1/1" xmlns:xsi="http://www.w3.org/2001/XMLSchema-instance" xsi:schemaLocation="http://www.topografix.com/GPX/1/1 http://www.topografix.com/GPX/1/1/gpx.xsd" version="1.1" creator="VisuGPX - https://www.visugpx.com">
  <metadata>
    <name>tour des laces de domenes</name>
    <desc><![CDATA[

]]></desc>
  </metadata>
  <trk>
    <name><![CDATA[11 janv. 2019 à 10:34:15]]></name>
    <cmt><![CDATA[11 janv. 2019 à 10:34:15]]></cmt>
    <trkseg>
      <trkpt lat="45.19459" lon="5.9309">
        <ele>1477</ele>
        <time>2019-01-11T09:34:15Z</time>
      </trkpt>
      <trkpt lat="45.19452" lon="5.93089">
        <ele>1480</ele>
        <time>2019-01-11T09:34:41Z</time>
      </trkpt>
      <trkpt lat="45.19446" lon="5.93093">
        <ele>1482</ele>
        <time>2019-01-11T09:34:45Z</time>
      </trkpt>
      <trkpt lat="45.19441" lon="5.93095">
        <ele>1481</ele>
        <time>2019-01-11T09:34:48Z</time>
      </trkpt>
      <trkpt lat="45.19436" lon="5.93095">
        <ele>1479</ele>
        <time>2019-01-11T09:34:52Z</time>
      </trkpt>
      <trkpt lat="45.1943" lon="5.93098">
        <ele>1479</ele>
        <time>2019-01-11T09:34:56Z</time>
      </trkpt>
      <trkpt lat="45.19424" lon="5.93098">
        <ele>1479</ele>
        <time>2019-01-11T09:34:59Z</time>
      </trkpt>
      <trkpt lat="45.19407" lon="5.93095">
        <ele>1479</ele>
        <time>2019-01-11T09:35:06Z</time>
      </trkpt>
      <trkpt lat="45.19402" lon="5.93092">
        <ele>1479</ele>
        <time>2019-01-11T09:35:09Z</time>
      </trkpt>
      <trkpt lat="45.19392" lon="5.93079">
        <ele>1481</ele>
        <time>2019-01-11T09:35:22Z</time>
      </trkpt>
      <trkpt lat="45.19391" lon="5.93071">
        <ele>1483</ele>
        <time>2019-01-11T09:35:27Z</time>
      </trkpt>
      <trkpt lat="45.1939" lon="5.93048">
        <ele>1487</ele>
        <time>2019-01-11T09:35:42Z</time>
      </trkpt>
      <trkpt lat="45.19388" lon="5.93042">
        <ele>1488</ele>
        <time>2019-01-11T09:35:46Z</time>
      </trkpt>
      <trkpt lat="45.19377" lon="5.93026">
        <ele>1492</ele>
        <time>2019-01-11T09:36:00Z</time>
      </trkpt>
      <trkpt lat="45.19367" lon="5.93025">
        <ele>1494</ele>
        <time>2019-01-11T09:36:08Z</time>
      </trkpt>
      <trkpt lat="45.19361" lon="5.93026">
        <ele>1489</ele>
        <time>2019-01-11T09:36:18Z</time>
      </trkpt>
      <trkpt lat="45.19357" lon="5.93025">
        <ele>1505</ele>
        <time>2019-01-11T09:36:21Z</time>
      </trkpt>
      <trkpt lat="45.19351" lon="5.93024">
        <ele>1503</ele>
        <time>2019-01-11T09:36:25Z</time>
      </trkpt>
      <trkpt lat="45.19341" lon="5.93025">
        <ele>1501</ele>
        <time>2019-01-11T09:36:32Z</time>
      </trkpt>
      <trkpt lat="45.19337" lon="5.93026">
        <ele>1500</ele>
        <time>2019-01-11T09:36:35Z</time>
      </trkpt>
      <trkpt lat="45.19328" lon="5.93029">
        <ele>1501</ele>
        <time>2019-01-11T09:36:41Z</time>
      </trkpt>
      <trkpt lat="45.19312" lon="5.93033">
        <ele>1502</ele>
        <time>2019-01-11T09:36:51Z</time>
      </trkpt>
      <trkpt lat="45.19271" lon="5.93038">
        <ele>1507</ele>
        <time>2019-01-11T09:37:18Z</time>
      </trkpt>
      <trkpt lat="45.19256" lon="5.93045">
        <ele>1509</ele>
        <time>2019-01-11T09:37:29Z</time>
      </trkpt>
      <trkpt lat="45.19251" lon="5.9305">
        <ele>1511</ele>
        <time>2019-01-11T09:37:33Z</time>
      </trkpt>
      <trkpt lat="45.19223" lon="5.9306">
        <ele>1516</ele>
        <time>2019-01-11T09:37:55Z</time>
      </trkpt>
      <trkpt lat="45.19213" lon="5.9306">
        <ele>1518</ele>
        <time>2019-01-11T09:38:03Z</time>
      </trkpt>
      <trkpt lat="45.19205" lon="5.93055">
        <ele>1522</ele>
        <time>2019-01-11T09:38:12Z</time>
      </trkpt>
      <trkpt lat="45.19186" lon="5.93051">
        <ele>1528</ele>
        <time>2019-01-11T09:38:32Z</time>
      </trkpt>
      <trkpt lat="45.19176" lon="5.93052">
        <ele>1532</ele>
        <time>2019-01-11T09:38:45Z</time>
      </trkpt>
      <trkpt lat="45.19144" lon="5.93049">
        <ele>1542</ele>
        <time>2019-01-11T09:39:16Z</time>
      </trkpt>
      <trkpt lat="45.19123" lon="5.93047">
        <ele>1546</ele>
        <time>2019-01-11T09:39:34Z</time>
      </trkpt>
      <trkpt lat="45.19119" lon="5.93049">
        <ele>1547</ele>
        <time>2019-01-11T09:39:38Z</time>
      </trkpt>
      <trkpt lat="45.19104" lon="5.93049">
        <ele>1550</ele>
        <time>2019-01-11T09:39:56Z</time>
      </trkpt>
      <trkpt lat="45.19079" lon="5.93057">
        <ele>1555</ele>
        <time>2019-01-11T09:40:16Z</time>
      </trkpt>
      <trkpt lat="45.19067" lon="5.93056">
        <ele>1557</ele>
        <time>2019-01-11T09:40:27Z</time>
      </trkpt>
      <trkpt lat="45.19047" lon="5.93066">
        <ele>1561</ele>
        <time>2019-01-11T09:40:43Z</time>
      </trkpt>
      <trkpt lat="45.19043" lon="5.93068">
        <ele>1561</ele>
        <time>2019-01-11T09:40:47Z</time>
      </trkpt>
      <trkpt lat="45.19039" lon="5.9307">
        <ele>1562</ele>
        <time>2019-01-11T09:40:51Z</time>
      </trkpt>
      <trkpt lat="45.19033" lon="5.93072">
        <ele>1563</ele>
        <time>2019-01-11T09:40:55Z</time>
      </trkpt>
      <trkpt lat="45.19011" lon="5.93087">
        <ele>1564</ele>
        <time>2019-01-11T09:41:10Z</time>
      </trkpt>
      <trkpt lat="45.18999" lon="5.93101">
        <ele>1566</ele>
        <time>2019-01-11T09:41:21Z</time>
      </trkpt>
      <trkpt lat="45.18987" lon="5.93125">
        <ele>1570</ele>
        <time>2019-01-11T09:41:39Z</time>
      </trkpt>
      <trkpt lat="45.18982" lon="5.93136">
        <ele>1573</ele>
        <time>2019-01-11T09:41:46Z</time>
      </trkpt>
      <trkpt lat="45.18974" lon="5.93149">
        <ele>1577</ele>
        <time>2019-01-11T09:42:00Z</time>
      </trkpt>
      <trkpt lat="45.18972" lon="5.93156">
        <ele>1579</ele>
        <time>2019-01-11T09:42:05Z</time>
      </trkpt>
      <trkpt lat="45.18969" lon="5.93168">
        <ele>1582</ele>
        <time>2019-01-11T09:42:15Z</time>
      </trkpt>
      <trkpt lat="45.18968" lon="5.93175">
        <ele>1583</ele>
        <time>2019-01-11T09:42:19Z</time>
      </trkpt>
      <trkpt lat="45.18968" lon="5.93182">
        <ele>1584</ele>
        <time>2019-01-11T09:42:24Z</time>
      </trkpt>
      <trkpt lat="45.18966" lon="5.93189">
        <ele>1585</ele>
        <time>2019-01-11T09:42:29Z</time>
      </trkpt>
      <trkpt lat="45.18964" lon="5.93194">
        <ele>1587</ele>
        <time>2019-01-11T09:42:34Z</time>
      </trkpt>
      <trkpt lat="45.18951" lon="5.93211">
        <ele>1593</ele>
        <time>2019-01-11T09:42:59Z</time>
      </trkpt>
      <trkpt lat="45.18926" lon="5.93248">
        <ele>1601</ele>
        <time>2019-01-11T09:43:31Z</time>
      </trkpt>
      <trkpt lat="45.18923" lon="5.93254">
        <ele>1603</ele>
        <time>2019-01-11T09:43:36Z</time>
      </trkpt>
      <trkpt lat="45.1892" lon="5.9326">
        <ele>1604</ele>
        <time>2019-01-11T09:43:40Z</time>
      </trkpt>
      <trkpt lat="45.18919" lon="5.93266">
        <ele>1605</ele>
        <time>2019-01-11T09:43:44Z</time>
      </trkpt>
      <trkpt lat="45.18931" lon="5.93264">
        <ele>1607</ele>
        <time>2019-01-11T09:43:55Z</time>
      </trkpt>
      <trkpt lat="45.18934" lon="5.93258">
        <ele>1612</ele>
        <time>2019-01-11T09:44:17Z</time>
      </trkpt>
      <trkpt lat="45.18939" lon="5.93257">
        <ele>1613</ele>
        <time>2019-01-11T09:44:22Z</time>
      </trkpt>
      <trkpt lat="45.18943" lon="5.93257">
        <ele>1612</ele>
        <time>2019-01-11T09:44:26Z</time>
      </trkpt>
      <trkpt lat="45.18948" lon="5.93257">
        <ele>1614</ele>
        <time>2019-01-11T09:44:30Z</time>
      </trkpt>
      <trkpt lat="45.18958" lon="5.93262">
        <ele>1616</ele>
        <time>2019-01-11T09:44:36Z</time>
      </trkpt>
      <trkpt lat="45.19" lon="5.93257">
        <ele>1621</ele>
        <time>2019-01-11T09:45:08Z</time>
      </trkpt>
      <trkpt lat="45.19016" lon="5.93258">
        <ele>1624</ele>
        <time>2019-01-11T09:45:22Z</time>
      </trkpt>
      <trkpt lat="45.1903" lon="5.93264">
        <ele>1629</ele>
        <time>2019-01-11T09:45:36Z</time>
      </trkpt>
      <trkpt lat="45.19055" lon="5.93268">
        <ele>1635</ele>
        <time>2019-01-11T09:45:58Z</time>
      </trkpt>
      <trkpt lat="45.1906" lon="5.93271">
        <ele>1636</ele>
        <time>2019-01-11T09:46:03Z</time>
      </trkpt>
      <trkpt lat="45.19064" lon="5.93286">
        <ele>1638</ele>
        <time>2019-01-11T09:46:13Z</time>
      </trkpt>
      <trkpt lat="45.19066" lon="5.933">
        <ele>1640</ele>
        <time>2019-01-11T09:46:22Z</time>
      </trkpt>
      <trkpt lat="45.19069" lon="5.93306">
        <ele>1642</ele>
        <time>2019-01-11T09:46:27Z</time>
      </trkpt>
      <trkpt lat="45.19071" lon="5.93312">
        <ele>1643</ele>
        <time>2019-01-11T09:46:32Z</time>
      </trkpt>
      <trkpt lat="45.19069" lon="5.93318">
        <ele>1644</ele>
        <time>2019-01-11T09:46:36Z</time>
      </trkpt>
      <trkpt lat="45.19064" lon="5.9332">
        <ele>1645</ele>
        <time>2019-01-11T09:46:40Z</time>
      </trkpt>
      <trkpt lat="45.1905" lon="5.93317">
        <ele>1649</ele>
        <time>2019-01-11T09:46:54Z</time>
      </trkpt>
      <trkpt lat="45.19022" lon="5.93322">
        <ele>1655</ele>
        <time>2019-01-11T09:47:19Z</time>
      </trkpt>
      <trkpt lat="45.1901" lon="5.93336">
        <ele>1657</ele>
        <time>2019-01-11T09:47:30Z</time>
      </trkpt>
      <trkpt lat="45.18991" lon="5.93348">
        <ele>1659</ele>
        <time>2019-01-11T09:47:45Z</time>
      </trkpt>
      <trkpt lat="45.18987" lon="5.93353">
        <ele>1660</ele>
        <time>2019-01-11T09:47:49Z</time>
      </trkpt>
      <trkpt lat="45.18993" lon="5.9336">
        <ele>1662</ele>
        <time>2019-01-11T09:47:58Z</time>
      </trkpt>
      <trkpt lat="45.19018" lon="5.93369">
        <ele>1667</ele>
        <time>2019-01-11T09:48:20Z</time>
      </trkpt>
      <trkpt lat="45.19048" lon="5.93395">
        <ele>1674</ele>
        <time>2019-01-11T09:48:50Z</time>
      </trkpt>
      <trkpt lat="45.19051" lon="5.93399">
        <ele>1676</ele>
        <time>2019-01-11T09:48:54Z</time>
      </trkpt>
      <trkpt lat="45.19058" lon="5.93417">
        <ele>1678</ele>
        <time>2019-01-11T09:49:06Z</time>
      </trkpt>
      <trkpt lat="45.19059" lon="5.93431">
        <ele>1679</ele>
        <time>2019-01-11T09:49:14Z</time>
      </trkpt>
      <trkpt lat="45.19058" lon="5.93444">
        <ele>1681</ele>
        <time>2019-01-11T09:49:22Z</time>
      </trkpt>
      <trkpt lat="45.19061" lon="5.93458">
        <ele>1684</ele>
        <time>2019-01-11T09:49:31Z</time>
      </trkpt>
      <trkpt lat="45.19064" lon="5.93496">
        <ele>1689</ele>
        <time>2019-01-11T09:49:52Z</time>
      </trkpt>
      <trkpt lat="45.19072" lon="5.93536">
        <ele>1692</ele>
        <time>2019-01-11T09:50:11Z</time>
      </trkpt>
      <trkpt lat="45.1908" lon="5.93597">
        <ele>1700</ele>
        <time>2019-01-11T09:50:45Z</time>
      </trkpt>
      <trkpt lat="45.1908" lon="5.93604">
        <ele>1701</ele>
        <time>2019-01-11T09:50:49Z</time>
      </trkpt>
      <trkpt lat="45.19082" lon="5.9361">
        <ele>1702</ele>
        <time>2019-01-11T09:50:53Z</time>
      </trkpt>
      <trkpt lat="45.19083" lon="5.93625">
        <ele>1705</ele>
        <time>2019-01-11T09:51:02Z</time>
      </trkpt>
      <trkpt lat="45.19079" lon="5.93629">
        <ele>1706</ele>
        <time>2019-01-11T09:51:07Z</time>
      </trkpt>
      <trkpt lat="45.19075" lon="5.93624">
        <ele>1706</ele>
        <time>2019-01-11T09:51:11Z</time>
      </trkpt>
      <trkpt lat="45.19069" lon="5.93601">
        <ele>1708</ele>
        <time>2019-01-11T09:51:23Z</time>
      </trkpt>
      <trkpt lat="45.19064" lon="5.9359">
        <ele>1710</ele>
        <time>2019-01-11T09:51:31Z</time>
      </trkpt>
      <trkpt lat="45.19058" lon="5.93577">
        <ele>1705</ele>
        <time>2019-01-11T09:51:40Z</time>
      </trkpt>
      <trkpt lat="45.19057" lon="5.93571">
        <ele>1709</ele>
        <time>2019-01-11T09:51:45Z</time>
      </trkpt>
      <trkpt lat="45.19053" lon="5.93565">
        <ele>1722</ele>
        <time>2019-01-11T09:51:59Z</time>
      </trkpt>
      <trkpt lat="45.19047" lon="5.93555">
        <ele>1719</ele>
        <time>2019-01-11T09:52:07Z</time>
      </trkpt>
      <trkpt lat="45.19043" lon="5.93551">
        <ele>1719</ele>
        <time>2019-01-11T09:52:11Z</time>
      </trkpt>
      <trkpt lat="45.19031" lon="5.93535">
        <ele>1721</ele>
        <time>2019-01-11T09:52:26Z</time>
      </trkpt>
      <trkpt lat="45.19021" lon="5.9353">
        <ele>1724</ele>
        <time>2019-01-11T09:52:36Z</time>
      </trkpt>
      <trkpt lat="45.19015" lon="5.9353">
        <ele>1725</ele>
        <time>2019-01-11T09:52:41Z</time>
      </trkpt>
      <trkpt lat="45.19006" lon="5.93533">
        <ele>1730</ele>
        <time>2019-01-11T09:52:55Z</time>
      </trkpt>
      <trkpt lat="45.19001" lon="5.93534">
        <ele>1730</ele>
        <time>2019-01-11T09:53:00Z</time>
      </trkpt>
      <trkpt lat="45.18994" lon="5.93533">
        <ele>1730</ele>
        <time>2019-01-11T09:53:08Z</time>
      </trkpt>
      <trkpt lat="45.18982" lon="5.93533">
        <ele>1731</ele>
        <time>2019-01-11T09:53:18Z</time>
      </trkpt>
      <trkpt lat="45.18972" lon="5.93529">
        <ele>1733</ele>
        <time>2019-01-11T09:53:26Z</time>
      </trkpt>
      <trkpt lat="45.18967" lon="5.93528">
        <ele>1733</ele>
        <time>2019-01-11T09:53:30Z</time>
      </trkpt>
      <trkpt lat="45.18962" lon="5.93529">
        <ele>1733</ele>
        <time>2019-01-11T09:53:34Z</time>
      </trkpt>
      <trkpt lat="45.18958" lon="5.9353">
        <ele>1731</ele>
        <time>2019-01-11T09:53:45Z</time>
      </trkpt>
      <trkpt lat="45.18954" lon="5.93536">
        <ele>1734</ele>
        <time>2019-01-11T09:53:57Z</time>
      </trkpt>
      <trkpt lat="45.18954" lon="5.93542">
        <ele>1734</ele>
        <time>2019-01-11T09:54:03Z</time>
      </trkpt>
      <trkpt lat="45.18956" lon="5.93548">
        <ele>1735</ele>
        <time>2019-01-11T09:54:10Z</time>
      </trkpt>
      <trkpt lat="45.18973" lon="5.93567">
        <ele>1741</ele>
        <time>2019-01-11T09:54:34Z</time>
      </trkpt>
      <trkpt lat="45.18973" lon="5.93587">
        <ele>1745</ele>
        <time>2019-01-11T09:54:47Z</time>
      </trkpt>
      <trkpt lat="45.18976" lon="5.93602">
        <ele>1746</ele>
        <time>2019-01-11T09:54:55Z</time>
      </trkpt>
      <trkpt lat="45.18981" lon="5.93614">
        <ele>1747</ele>
        <time>2019-01-11T09:55:03Z</time>
      </trkpt>
      <trkpt lat="45.18985" lon="5.93626">
        <ele>1750</ele>
        <time>2019-01-11T09:55:11Z</time>
      </trkpt>
      <trkpt lat="45.18998" lon="5.93651">
        <ele>1755</ele>
        <time>2019-01-11T09:55:32Z</time>
      </trkpt>
      <trkpt lat="45.18998" lon="5.93659">
        <ele>1757</ele>
        <time>2019-01-11T09:55:37Z</time>
      </trkpt>
      <trkpt lat="45.18996" lon="5.93665">
        <ele>1758</ele>
        <time>2019-01-11T09:55:41Z</time>
      </trkpt>
      <trkpt lat="45.18993" lon="5.93704">
        <ele>1767</ele>
        <time>2019-01-11T09:56:12Z</time>
      </trkpt>
      <trkpt lat="45.1899" lon="5.93722">
        <ele>1770</ele>
        <time>2019-01-11T09:56:27Z</time>
      </trkpt>
      <trkpt lat="45.18989" lon="5.93729">
        <ele>1770</ele>
        <time>2019-01-11T09:56:32Z</time>
      </trkpt>
      <trkpt lat="45.18979" lon="5.93777">
        <ele>1775</ele>
        <time>2019-01-11T09:57:03Z</time>
      </trkpt>
      <trkpt lat="45.18978" lon="5.93783">
        <ele>1776</ele>
        <time>2019-01-11T09:57:07Z</time>
      </trkpt>
      <trkpt lat="45.18976" lon="5.93789">
        <ele>1777</ele>
        <time>2019-01-11T09:57:11Z</time>
      </trkpt>
      <trkpt lat="45.18972" lon="5.93796">
        <ele>1780</ele>
        <time>2019-01-11T09:57:19Z</time>
      </trkpt>
      <trkpt lat="45.18969" lon="5.93803">
        <ele>1781</ele>
        <time>2019-01-11T09:57:24Z</time>
      </trkpt>
      <trkpt lat="45.18971" lon="5.93809">
        <ele>1781</ele>
        <time>2019-01-11T09:57:28Z</time>
      </trkpt>
      <trkpt lat="45.18974" lon="5.93815">
        <ele>1782</ele>
        <time>2019-01-11T09:57:32Z</time>
      </trkpt>
      <trkpt lat="45.18977" lon="5.93828">
        <ele>1784</ele>
        <time>2019-01-11T09:57:41Z</time>
      </trkpt>
      <trkpt lat="45.18982" lon="5.93834">
        <ele>1784</ele>
        <time>2019-01-11T09:57:45Z</time>
      </trkpt>
      <trkpt lat="45.18993" lon="5.93849">
        <ele>1783</ele>
        <time>2019-01-11T09:57:50Z</time>
      </trkpt>
      <trkpt lat="45.18994" lon="5.93858">
        <ele>1780</ele>
        <time>2019-01-11T09:57:55Z</time>
      </trkpt>
      <trkpt lat="45.18994" lon="5.93866">
        <ele>1781</ele>
        <time>2019-01-11T09:58:00Z</time>
      </trkpt>
      <trkpt lat="45.18994" lon="5.93882">
        <ele>1783</ele>
        <time>2019-01-11T09:58:10Z</time>
      </trkpt>
      <trkpt lat="45.19" lon="5.93904">
        <ele>1786</ele>
        <time>2019-01-11T09:58:25Z</time>
      </trkpt>
      <trkpt lat="45.19002" lon="5.9391">
        <ele>1786</ele>
        <time>2019-01-11T09:58:29Z</time>
      </trkpt>
      <trkpt lat="45.19006" lon="5.93928">
        <ele>1789</ele>
        <time>2019-01-11T09:58:43Z</time>
      </trkpt>
      <trkpt lat="45.19006" lon="5.93942">
        <ele>1791</ele>
        <time>2019-01-11T09:58:52Z</time>
      </trkpt>
      <trkpt lat="45.19007" lon="5.93951">
        <ele>1792</ele>
        <time>2019-01-11T09:58:56Z</time>
      </trkpt>
      <trkpt lat="45.19007" lon="5.93958">
        <ele>1791</ele>
        <time>2019-01-11T09:58:58Z</time>
      </trkpt>
      <trkpt lat="45.19008" lon="5.93965">
        <ele>1791</ele>
        <time>2019-01-11T09:59:00Z</time>
      </trkpt>
      <trkpt lat="45.19018" lon="5.93985">
        <ele>1790</ele>
        <time>2019-01-11T09:59:09Z</time>
      </trkpt>
      <trkpt lat="45.19023" lon="5.93997">
        <ele>1790</ele>
        <time>2019-01-11T09:59:15Z</time>
      </trkpt>
      <trkpt lat="45.19027" lon="5.9401">
        <ele>1791</ele>
        <time>2019-01-11T09:59:23Z</time>
      </trkpt>
      <trkpt lat="45.1904" lon="5.94034">
        <ele>1793</ele>
        <time>2019-01-11T09:59:39Z</time>
      </trkpt>
      <trkpt lat="45.19042" lon="5.9404">
        <ele>1794</ele>
        <time>2019-01-11T09:59:42Z</time>
      </trkpt>
      <trkpt lat="45.19042" lon="5.94049">
        <ele>1794</ele>
        <time>2019-01-11T09:59:44Z</time>
      </trkpt>
      <trkpt lat="45.19045" lon="5.94057">
        <ele>1794</ele>
        <time>2019-01-11T09:59:46Z</time>
      </trkpt>
      <trkpt lat="45.1905" lon="5.94064">
        <ele>1793</ele>
        <time>2019-01-11T09:59:50Z</time>
      </trkpt>
      <trkpt lat="45.19053" lon="5.94068">
        <ele>1793</ele>
        <time>2019-01-11T09:59:53Z</time>
      </trkpt>
      <trkpt lat="45.1906" lon="5.9408">
        <ele>1793</ele>
        <time>2019-01-11T10:00:01Z</time>
      </trkpt>
      <trkpt lat="45.19062" lon="5.94094">
        <ele>1794</ele>
        <time>2019-01-11T10:00:09Z</time>
      </trkpt>
      <trkpt lat="45.19059" lon="5.94109">
        <ele>1796</ele>
        <time>2019-01-11T10:00:17Z</time>
      </trkpt>
      <trkpt lat="45.19067" lon="5.94136">
        <ele>1799</ele>
        <time>2019-01-11T10:00:34Z</time>
      </trkpt>
      <trkpt lat="45.19066" lon="5.94152">
        <ele>1798</ele>
        <time>2019-01-11T10:00:46Z</time>
      </trkpt>
      <trkpt lat="45.19067" lon="5.9416">
        <ele>1803</ele>
        <time>2019-01-11T10:00:48Z</time>
      </trkpt>
      <trkpt lat="45.19067" lon="5.94167">
        <ele>1804</ele>
        <time>2019-01-11T10:00:50Z</time>
      </trkpt>
      <trkpt lat="45.19055" lon="5.94214">
        <ele>1797</ele>
        <time>2019-01-11T10:01:09Z</time>
      </trkpt>
      <trkpt lat="45.19053" lon="5.9422">
        <ele>1797</ele>
        <time>2019-01-11T10:01:13Z</time>
      </trkpt>
      <trkpt lat="45.19048" lon="5.94232">
        <ele>1798</ele>
        <time>2019-01-11T10:01:21Z</time>
      </trkpt>
      <trkpt lat="45.19046" lon="5.9424">
        <ele>1797</ele>
        <time>2019-01-11T10:01:25Z</time>
      </trkpt>
      <trkpt lat="45.19042" lon="5.94253">
        <ele>1798</ele>
        <time>2019-01-11T10:01:31Z</time>
      </trkpt>
      <trkpt lat="45.19041" lon="5.9426">
        <ele>1798</ele>
        <time>2019-01-11T10:01:34Z</time>
      </trkpt>
      <trkpt lat="45.19038" lon="5.94266">
        <ele>1798</ele>
        <time>2019-01-11T10:01:37Z</time>
      </trkpt>
      <trkpt lat="45.19022" lon="5.94309">
        <ele>1804</ele>
        <time>2019-01-11T10:02:08Z</time>
      </trkpt>
      <trkpt lat="45.19013" lon="5.9434">
        <ele>1810</ele>
        <time>2019-01-11T10:02:34Z</time>
      </trkpt>
      <trkpt lat="45.19013" lon="5.94346">
        <ele>1811</ele>
        <time>2019-01-11T10:02:39Z</time>
      </trkpt>
      <trkpt lat="45.1901" lon="5.94356">
        <ele>1812</ele>
        <time>2019-01-11T10:02:46Z</time>
      </trkpt>
      <trkpt lat="45.19012" lon="5.94366">
        <ele>1814</ele>
        <time>2019-01-11T10:02:52Z</time>
      </trkpt>
      <trkpt lat="45.19014" lon="5.94371">
        <ele>1814</ele>
        <time>2019-01-11T10:02:55Z</time>
      </trkpt>
      <trkpt lat="45.19013" lon="5.94379">
        <ele>1813</ele>
        <time>2019-01-11T10:03:00Z</time>
      </trkpt>
      <trkpt lat="45.19011" lon="5.94393">
        <ele>1814</ele>
        <time>2019-01-11T10:03:09Z</time>
      </trkpt>
      <trkpt lat="45.19004" lon="5.94421">
        <ele>1819</ele>
        <time>2019-01-11T10:03:29Z</time>
      </trkpt>
      <trkpt lat="45.19005" lon="5.94435">
        <ele>1821</ele>
        <time>2019-01-11T10:03:39Z</time>
      </trkpt>
      <trkpt lat="45.19002" lon="5.94456">
        <ele>1823</ele>
        <time>2019-01-11T10:03:54Z</time>
      </trkpt>
      <trkpt lat="45.19002" lon="5.94463">
        <ele>1824</ele>
        <time>2019-01-11T10:03:59Z</time>
      </trkpt>
      <trkpt lat="45.18999" lon="5.94473">
        <ele>1826</ele>
        <time>2019-01-11T10:04:06Z</time>
      </trkpt>
      <trkpt lat="45.18997" lon="5.94481">
        <ele>1829</ele>
        <time>2019-01-11T10:04:14Z</time>
      </trkpt>
      <trkpt lat="45.18999" lon="5.94487">
        <ele>1830</ele>
        <time>2019-01-11T10:04:20Z</time>
      </trkpt>
      <trkpt lat="45.19" lon="5.94493">
        <ele>1831</ele>
        <time>2019-01-11T10:04:25Z</time>
      </trkpt>
      <trkpt lat="45.18998" lon="5.945">
        <ele>1833</ele>
        <time>2019-01-11T10:04:30Z</time>
      </trkpt>
      <trkpt lat="45.18998" lon="5.94521">
        <ele>1839</ele>
        <time>2019-01-11T10:05:05Z</time>
      </trkpt>
      <trkpt lat="45.18999" lon="5.94531">
        <ele>1840</ele>
        <time>2019-01-11T10:05:13Z</time>
      </trkpt>
      <trkpt lat="45.18999" lon="5.94538">
        <ele>1841</ele>
        <time>2019-01-11T10:05:18Z</time>
      </trkpt>
      <trkpt lat="45.19001" lon="5.94547">
        <ele>1844</ele>
        <time>2019-01-11T10:05:26Z</time>
      </trkpt>
      <trkpt lat="45.19004" lon="5.94559">
        <ele>1846</ele>
        <time>2019-01-11T10:05:37Z</time>
      </trkpt>
      <trkpt lat="45.19007" lon="5.94565">
        <ele>1848</ele>
        <time>2019-01-11T10:05:42Z</time>
      </trkpt>
      <trkpt lat="45.19012" lon="5.94574">
        <ele>1851</ele>
        <time>2019-01-11T10:05:57Z</time>
      </trkpt>
      <trkpt lat="45.19016" lon="5.94584">
        <ele>1855</ele>
        <time>2019-01-11T10:06:09Z</time>
      </trkpt>
      <trkpt lat="45.19014" lon="5.94591">
        <ele>1856</ele>
        <time>2019-01-11T10:06:15Z</time>
      </trkpt>
      <trkpt lat="45.19014" lon="5.94599">
        <ele>1860</ele>
        <time>2019-01-11T10:06:27Z</time>
      </trkpt>
      <trkpt lat="45.19019" lon="5.94605">
        <ele>1864</ele>
        <time>2019-01-11T10:06:45Z</time>
      </trkpt>
      <trkpt lat="45.19015" lon="5.9461">
        <ele>1866</ele>
        <time>2019-01-11T10:06:57Z</time>
      </trkpt>
      <trkpt lat="45.19008" lon="5.94615">
        <ele>1869</ele>
        <time>2019-01-11T10:08:44Z</time>
      </trkpt>
      <trkpt lat="45.19003" lon="5.94613">
        <ele>1869</ele>
        <time>2019-01-11T10:08:48Z</time>
      </trkpt>
      <trkpt lat="45.18996" lon="5.94608">
        <ele>1869</ele>
        <time>2019-01-11T10:08:56Z</time>
      </trkpt>
      <trkpt lat="45.18963" lon="5.94609">
        <ele>1876</ele>
        <time>2019-01-11T10:09:27Z</time>
      </trkpt>
      <trkpt lat="45.18958" lon="5.94608">
        <ele>1877</ele>
        <time>2019-01-11T10:09:32Z</time>
      </trkpt>
      <trkpt lat="45.18952" lon="5.94609">
        <ele>1879</ele>
        <time>2019-01-11T10:09:40Z</time>
      </trkpt>
      <trkpt lat="45.18946" lon="5.94604">
        <ele>1880</ele>
        <time>2019-01-11T10:09:52Z</time>
      </trkpt>
      <trkpt lat="45.18938" lon="5.94609">
        <ele>1884</ele>
        <time>2019-01-11T10:10:04Z</time>
      </trkpt>
      <trkpt lat="45.18921" lon="5.94636">
        <ele>1890</ele>
        <time>2019-01-11T10:10:33Z</time>
      </trkpt>
      <trkpt lat="45.18916" lon="5.94635">
        <ele>1891</ele>
        <time>2019-01-11T10:10:41Z</time>
      </trkpt>
      <trkpt lat="45.18916" lon="5.9462">
        <ele>1893</ele>
        <time>2019-01-11T10:10:50Z</time>
      </trkpt>
      <trkpt lat="45.18915" lon="5.94614">
        <ele>1894</ele>
        <time>2019-01-11T10:10:55Z</time>
      </trkpt>
      <trkpt lat="45.18912" lon="5.94606">
        <ele>1895</ele>
        <time>2019-01-11T10:11:02Z</time>
      </trkpt>
      <trkpt lat="45.1891" lon="5.94588">
        <ele>1900</ele>
        <time>2019-01-11T10:11:18Z</time>
      </trkpt>
      <trkpt lat="45.18889" lon="5.94611">
        <ele>1906</ele>
        <time>2019-01-11T10:11:48Z</time>
      </trkpt>
      <trkpt lat="45.18885" lon="5.94615">
        <ele>1907</ele>
        <time>2019-01-11T10:11:52Z</time>
      </trkpt>
      <trkpt lat="45.18881" lon="5.94619">
        <ele>1907</ele>
        <time>2019-01-11T10:11:57Z</time>
      </trkpt>
      <trkpt lat="45.1887" lon="5.94621">
        <ele>1909</ele>
        <time>2019-01-11T10:12:08Z</time>
      </trkpt>
      <trkpt lat="45.18856" lon="5.9463">
        <ele>1912</ele>
        <time>2019-01-11T10:12:21Z</time>
      </trkpt>
      <trkpt lat="45.18852" lon="5.94635">
        <ele>1914</ele>
        <time>2019-01-11T10:12:26Z</time>
      </trkpt>
      <trkpt lat="45.18847" lon="5.94637">
        <ele>1915</ele>
        <time>2019-01-11T10:12:31Z</time>
      </trkpt>
      <trkpt lat="45.18842" lon="5.94638">
        <ele>1916</ele>
        <time>2019-01-11T10:12:36Z</time>
      </trkpt>
      <trkpt lat="45.18838" lon="5.94632">
        <ele>1917</ele>
        <time>2019-01-11T10:12:41Z</time>
      </trkpt>
      <trkpt lat="45.18838" lon="5.94624">
        <ele>1917</ele>
        <time>2019-01-11T10:12:46Z</time>
      </trkpt>
      <trkpt lat="45.18834" lon="5.94611">
        <ele>1919</ele>
        <time>2019-01-11T10:12:54Z</time>
      </trkpt>
      <trkpt lat="45.18829" lon="5.94599">
        <ele>1922</ele>
        <time>2019-01-11T10:13:04Z</time>
      </trkpt>
      <trkpt lat="45.18815" lon="5.94588">
        <ele>1925</ele>
        <time>2019-01-11T10:13:19Z</time>
      </trkpt>
      <trkpt lat="45.18809" lon="5.94584">
        <ele>1926</ele>
        <time>2019-01-11T10:13:26Z</time>
      </trkpt>
      <trkpt lat="45.18804" lon="5.94584">
        <ele>1927</ele>
        <time>2019-01-11T10:13:30Z</time>
      </trkpt>
      <trkpt lat="45.18799" lon="5.94585">
        <ele>1928</ele>
        <time>2019-01-11T10:13:35Z</time>
      </trkpt>
      <trkpt lat="45.18794" lon="5.94583">
        <ele>1929</ele>
        <time>2019-01-11T10:13:40Z</time>
      </trkpt>
      <trkpt lat="45.18791" lon="5.94578">
        <ele>1930</ele>
        <time>2019-01-11T10:13:44Z</time>
      </trkpt>
      <trkpt lat="45.18786" lon="5.94565">
        <ele>1932</ele>
        <time>2019-01-11T10:13:54Z</time>
      </trkpt>
      <trkpt lat="45.18772" lon="5.94552">
        <ele>1937</ele>
        <time>2019-01-11T10:14:14Z</time>
      </trkpt>
      <trkpt lat="45.18751" lon="5.94548">
        <ele>1941</ele>
        <time>2019-01-11T10:14:37Z</time>
      </trkpt>
      <trkpt lat="45.18779" lon="5.94519">
        <ele>1951</ele>
        <time>2019-01-11T10:15:17Z</time>
      </trkpt>
      <trkpt lat="45.18787" lon="5.94519">
        <ele>1955</ele>
        <time>2019-01-11T10:15:29Z</time>
      </trkpt>
      <trkpt lat="45.18801" lon="5.94484">
        <ele>1963</ele>
        <time>2019-01-11T10:16:05Z</time>
      </trkpt>
      <trkpt lat="45.18803" lon="5.94477">
        <ele>1966</ele>
        <time>2019-01-11T10:16:47Z</time>
      </trkpt>
      <trkpt lat="45.18805" lon="5.94471">
        <ele>1967</ele>
        <time>2019-01-11T10:16:53Z</time>
      </trkpt>
      <trkpt lat="45.188" lon="5.94453">
        <ele>1973</ele>
        <time>2019-01-11T10:17:11Z</time>
      </trkpt>
      <trkpt lat="45.18796" lon="5.94445">
        <ele>1976</ele>
        <time>2019-01-11T10:17:23Z</time>
      </trkpt>
      <trkpt lat="45.18795" lon="5.94438">
        <ele>1977</ele>
        <time>2019-01-11T10:17:29Z</time>
      </trkpt>
      <trkpt lat="45.18795" lon="5.94431">
        <ele>1979</ele>
        <time>2019-01-11T10:17:34Z</time>
      </trkpt>
      <trkpt lat="45.18794" lon="5.94425">
        <ele>1979</ele>
        <time>2019-01-11T10:17:38Z</time>
      </trkpt>
      <trkpt lat="45.18792" lon="5.94419">
        <ele>1981</ele>
        <time>2019-01-11T10:17:43Z</time>
      </trkpt>
      <trkpt lat="45.18788" lon="5.94414">
        <ele>1982</ele>
        <time>2019-01-11T10:17:48Z</time>
      </trkpt>
      <trkpt lat="45.18779" lon="5.94408">
        <ele>1985</ele>
        <time>2019-01-11T10:17:58Z</time>
      </trkpt>
      <trkpt lat="45.18771" lon="5.94425">
        <ele>1989</ele>
        <time>2019-01-11T10:18:19Z</time>
      </trkpt>
      <trkpt lat="45.18766" lon="5.94435">
        <ele>1992</ele>
        <time>2019-01-11T10:18:29Z</time>
      </trkpt>
      <trkpt lat="45.1876" lon="5.94438">
        <ele>1996</ele>
        <time>2019-01-11T10:18:38Z</time>
      </trkpt>
      <trkpt lat="45.18744" lon="5.9444">
        <ele>1999</ele>
        <time>2019-01-11T10:18:55Z</time>
      </trkpt>
      <trkpt lat="45.18734" lon="5.94436">
        <ele>2001</ele>
        <time>2019-01-11T10:19:06Z</time>
      </trkpt>
      <trkpt lat="45.18724" lon="5.94429">
        <ele>2003</ele>
        <time>2019-01-11T10:19:15Z</time>
      </trkpt>
      <trkpt lat="45.1872" lon="5.94425">
        <ele>2003</ele>
        <time>2019-01-11T10:19:19Z</time>
      </trkpt>
      <trkpt lat="45.18715" lon="5.94424">
        <ele>2003</ele>
        <time>2019-01-11T10:19:23Z</time>
      </trkpt>
      <trkpt lat="45.1871" lon="5.94423">
        <ele>2004</ele>
        <time>2019-01-11T10:19:28Z</time>
      </trkpt>
      <trkpt lat="45.18706" lon="5.94419">
        <ele>2007</ele>
        <time>2019-01-11T10:19:33Z</time>
      </trkpt>
      <trkpt lat="45.18701" lon="5.94427">
        <ele>2009</ele>
        <time>2019-01-11T10:19:46Z</time>
      </trkpt>
      <trkpt lat="45.18697" lon="5.94434">
        <ele>2009</ele>
        <time>2019-01-11T10:19:51Z</time>
      </trkpt>
      <trkpt lat="45.18695" lon="5.94441">
        <ele>2009</ele>
        <time>2019-01-11T10:19:56Z</time>
      </trkpt>
      <trkpt lat="45.18692" lon="5.94448">
        <ele>2012</ele>
        <time>2019-01-11T10:20:10Z</time>
      </trkpt>
      <trkpt lat="45.1869" lon="5.94454">
        <ele>2012</ele>
        <time>2019-01-11T10:20:14Z</time>
      </trkpt>
      <trkpt lat="45.18686" lon="5.94461">
        <ele>2012</ele>
        <time>2019-01-11T10:20:22Z</time>
      </trkpt>
      <trkpt lat="45.18684" lon="5.94473">
        <ele>2012</ele>
        <time>2019-01-11T10:21:58Z</time>
      </trkpt>
      <trkpt lat="45.18682" lon="5.94487">
        <ele>2009</ele>
        <time>2019-01-11T10:22:08Z</time>
      </trkpt>
      <trkpt lat="45.18677" lon="5.94498">
        <ele>2010</ele>
        <time>2019-01-11T10:22:22Z</time>
      </trkpt>
      <trkpt lat="45.18672" lon="5.94498">
        <ele>2013</ele>
        <time>2019-01-11T10:23:18Z</time>
      </trkpt>
      <trkpt lat="45.18666" lon="5.945">
        <ele>2014</ele>
        <time>2019-01-11T10:23:30Z</time>
      </trkpt>
      <trkpt lat="45.18662" lon="5.94503">
        <ele>2018</ele>
        <time>2019-01-11T10:23:48Z</time>
      </trkpt>
      <trkpt lat="45.18656" lon="5.94502">
        <ele>2016</ele>
        <time>2019-01-11T10:24:47Z</time>
      </trkpt>
      <trkpt lat="45.18651" lon="5.94502">
        <ele>2018</ele>
        <time>2019-01-11T10:24:52Z</time>
      </trkpt>
      <trkpt lat="45.18646" lon="5.94505">
        <ele>2018</ele>
        <time>2019-01-11T10:24:56Z</time>
      </trkpt>
      <trkpt lat="45.18643" lon="5.9451">
        <ele>2016</ele>
        <time>2019-01-11T10:25:00Z</time>
      </trkpt>
      <trkpt lat="45.18639" lon="5.94518">
        <ele>2015</ele>
        <time>2019-01-11T10:25:07Z</time>
      </trkpt>
      <trkpt lat="45.18636" lon="5.94524">
        <ele>2014</ele>
        <time>2019-01-11T10:25:11Z</time>
      </trkpt>
      <trkpt lat="45.18633" lon="5.94528">
        <ele>2014</ele>
        <time>2019-01-11T10:25:15Z</time>
      </trkpt>
      <trkpt lat="45.18627" lon="5.94536">
        <ele>2014</ele>
        <time>2019-01-11T10:25:22Z</time>
      </trkpt>
      <trkpt lat="45.18625" lon="5.94543">
        <ele>2014</ele>
        <time>2019-01-11T10:25:26Z</time>
      </trkpt>
      <trkpt lat="45.18624" lon="5.9455">
        <ele>2014</ele>
        <time>2019-01-11T10:25:30Z</time>
      </trkpt>
      <trkpt lat="45.18622" lon="5.94557">
        <ele>2014</ele>
        <time>2019-01-11T10:25:34Z</time>
      </trkpt>
      <trkpt lat="45.1862" lon="5.94563">
        <ele>2014</ele>
        <time>2019-01-11T10:25:37Z</time>
      </trkpt>
      <trkpt lat="45.18616" lon="5.94575">
        <ele>2012</ele>
        <time>2019-01-11T10:25:45Z</time>
      </trkpt>
      <trkpt lat="45.18612" lon="5.94581">
        <ele>2026</ele>
        <time>2019-01-11T10:26:11Z</time>
      </trkpt>
      <trkpt lat="45.18604" lon="5.94609">
        <ele>2013</ele>
        <time>2019-01-11T10:26:31Z</time>
      </trkpt>
      <trkpt lat="45.18602" lon="5.94625">
        <ele>2012</ele>
        <time>2019-01-11T10:26:43Z</time>
      </trkpt>
      <trkpt lat="45.18598" lon="5.94633">
        <ele>2013</ele>
        <time>2019-01-11T10:27:16Z</time>
      </trkpt>
      <trkpt lat="45.18595" lon="5.94639">
        <ele>2012</ele>
        <time>2019-01-11T10:27:21Z</time>
      </trkpt>
      <trkpt lat="45.18593" lon="5.94652">
        <ele>2014</ele>
        <time>2019-01-11T10:27:31Z</time>
      </trkpt>
      <trkpt lat="45.18589" lon="5.94657">
        <ele>2015</ele>
        <time>2019-01-11T10:27:39Z</time>
      </trkpt>
      <trkpt lat="45.18586" lon="5.94672">
        <ele>2018</ele>
        <time>2019-01-11T10:27:53Z</time>
      </trkpt>
      <trkpt lat="45.18584" lon="5.94681">
        <ele>2019</ele>
        <time>2019-01-11T10:28:15Z</time>
      </trkpt>
      <trkpt lat="45.18584" lon="5.94687">
        <ele>2019</ele>
        <time>2019-01-11T10:28:19Z</time>
      </trkpt>
      <trkpt lat="45.1858" lon="5.94693">
        <ele>2019</ele>
        <time>2019-01-11T10:28:23Z</time>
      </trkpt>
      <trkpt lat="45.18577" lon="5.94702">
        <ele>2019</ele>
        <time>2019-01-11T10:28:32Z</time>
      </trkpt>
      <trkpt lat="45.18579" lon="5.94708">
        <ele>2018</ele>
        <time>2019-01-11T10:28:38Z</time>
      </trkpt>
      <trkpt lat="45.18575" lon="5.94711">
        <ele>2022</ele>
        <time>2019-01-11T10:28:50Z</time>
      </trkpt>
      <trkpt lat="45.18569" lon="5.9472">
        <ele>2023</ele>
        <time>2019-01-11T10:29:02Z</time>
      </trkpt>
      <trkpt lat="45.18565" lon="5.94724">
        <ele>2024</ele>
        <time>2019-01-11T10:29:09Z</time>
      </trkpt>
      <trkpt lat="45.18561" lon="5.94733">
        <ele>2026</ele>
        <time>2019-01-11T10:29:20Z</time>
      </trkpt>
      <trkpt lat="45.18558" lon="5.9474">
        <ele>2026</ele>
        <time>2019-01-11T10:29:25Z</time>
      </trkpt>
      <trkpt lat="45.18551" lon="5.94749">
        <ele>2029</ele>
        <time>2019-01-11T10:29:40Z</time>
      </trkpt>
      <trkpt lat="45.1855" lon="5.94756">
        <ele>2029</ele>
        <time>2019-01-11T10:29:44Z</time>
      </trkpt>
      <trkpt lat="45.18548" lon="5.94762">
        <ele>2029</ele>
        <time>2019-01-11T10:29:49Z</time>
      </trkpt>
      <trkpt lat="45.18546" lon="5.94781">
        <ele>2034</ele>
        <time>2019-01-11T10:30:11Z</time>
      </trkpt>
      <trkpt lat="45.18543" lon="5.94789">
        <ele>2036</ele>
        <time>2019-01-11T10:30:23Z</time>
      </trkpt>
      <trkpt lat="45.18539" lon="5.94804">
        <ele>2041</ele>
        <time>2019-01-11T10:30:47Z</time>
      </trkpt>
      <trkpt lat="45.18531" lon="5.9482">
        <ele>2046</ele>
        <time>2019-01-11T10:31:11Z</time>
      </trkpt>
      <trkpt lat="45.18525" lon="5.94827">
        <ele>2048</ele>
        <time>2019-01-11T10:31:22Z</time>
      </trkpt>
      <trkpt lat="45.18519" lon="5.94843">
        <ele>2052</ele>
        <time>2019-01-11T10:31:42Z</time>
      </trkpt>
      <trkpt lat="45.18514" lon="5.94858">
        <ele>2057</ele>
        <time>2019-01-11T10:32:06Z</time>
      </trkpt>
      <trkpt lat="45.18507" lon="5.94871">
        <ele>2068</ele>
        <time>2019-01-11T10:32:36Z</time>
      </trkpt>
      <trkpt lat="45.18502" lon="5.9488">
        <ele>2068</ele>
        <time>2019-01-11T10:32:48Z</time>
      </trkpt>
      <trkpt lat="45.18498" lon="5.94888">
        <ele>2070</ele>
        <time>2019-01-11T10:32:59Z</time>
      </trkpt>
      <trkpt lat="45.18497" lon="5.94895">
        <ele>2075</ele>
        <time>2019-01-11T10:33:34Z</time>
      </trkpt>
      <trkpt lat="45.18493" lon="5.94901">
        <ele>2077</ele>
        <time>2019-01-11T10:33:44Z</time>
      </trkpt>
      <trkpt lat="45.1849" lon="5.94914">
        <ele>2081</ele>
        <time>2019-01-11T10:34:09Z</time>
      </trkpt>
      <trkpt lat="45.18486" lon="5.94922">
        <ele>2083</ele>
        <time>2019-01-11T10:34:19Z</time>
      </trkpt>
      <trkpt lat="45.18486" lon="5.94928">
        <ele>2085</ele>
        <time>2019-01-11T10:34:29Z</time>
      </trkpt>
      <trkpt lat="45.18482" lon="5.94937">
        <ele>2089</ele>
        <time>2019-01-11T10:34:44Z</time>
      </trkpt>
      <trkpt lat="45.18479" lon="5.94944">
        <ele>2091</ele>
        <time>2019-01-11T10:34:54Z</time>
      </trkpt>
      <trkpt lat="45.18473" lon="5.94946">
        <ele>2095</ele>
        <time>2019-01-11T10:35:09Z</time>
      </trkpt>
      <trkpt lat="45.18475" lon="5.94953">
        <ele>2098</ele>
        <time>2019-01-11T10:35:24Z</time>
      </trkpt>
      <trkpt lat="45.1847" lon="5.94956">
        <ele>2100</ele>
        <time>2019-01-11T10:35:39Z</time>
      </trkpt>
      <trkpt lat="45.18462" lon="5.94967">
        <ele>2102</ele>
        <time>2019-01-11T10:35:59Z</time>
      </trkpt>
      <trkpt lat="45.18457" lon="5.94982">
        <ele>2106</ele>
        <time>2019-01-11T10:36:17Z</time>
      </trkpt>
      <trkpt lat="45.18454" lon="5.94992">
        <ele>2114</ele>
        <time>2019-01-11T10:37:20Z</time>
      </trkpt>
      <trkpt lat="45.18448" lon="5.94997">
        <ele>2113</ele>
        <time>2019-01-11T10:37:30Z</time>
      </trkpt>
      <trkpt lat="45.18443" lon="5.94999">
        <ele>2113</ele>
        <time>2019-01-11T10:37:36Z</time>
      </trkpt>
      <trkpt lat="45.18429" lon="5.94994">
        <ele>2113</ele>
        <time>2019-01-11T10:37:54Z</time>
      </trkpt>
      <trkpt lat="45.18417" lon="5.94992">
        <ele>2115</ele>
        <time>2019-01-11T10:38:19Z</time>
      </trkpt>
      <trkpt lat="45.18412" lon="5.94994">
        <ele>2117</ele>
        <time>2019-01-11T10:38:29Z</time>
      </trkpt>
      <trkpt lat="45.18407" lon="5.94994">
        <ele>2119</ele>
        <time>2019-01-11T10:38:39Z</time>
      </trkpt>
      <trkpt lat="45.18402" lon="5.94999">
        <ele>2122</ele>
        <time>2019-01-11T10:38:54Z</time>
      </trkpt>
      <trkpt lat="45.18398" lon="5.95003">
        <ele>2125</ele>
        <time>2019-01-11T10:39:06Z</time>
      </trkpt>
      <trkpt lat="45.18396" lon="5.95011">
        <ele>2128</ele>
        <time>2019-01-11T10:39:18Z</time>
      </trkpt>
      <trkpt lat="45.18399" lon="5.95016">
        <ele>2132</ele>
        <time>2019-01-11T10:39:42Z</time>
      </trkpt>
      <trkpt lat="45.18395" lon="5.95023">
        <ele>2135</ele>
        <time>2019-01-11T10:39:54Z</time>
      </trkpt>
      <trkpt lat="45.1839" lon="5.95025">
        <ele>2139</ele>
        <time>2019-01-11T10:40:20Z</time>
      </trkpt>
      <trkpt lat="45.18385" lon="5.95027">
        <ele>2144</ele>
        <time>2019-01-11T10:40:45Z</time>
      </trkpt>
      <trkpt lat="45.18381" lon="5.9503">
        <ele>2148</ele>
        <time>2019-01-11T10:41:05Z</time>
      </trkpt>
      <trkpt lat="45.18377" lon="5.95034">
        <ele>2151</ele>
        <time>2019-01-11T10:41:20Z</time>
      </trkpt>
      <trkpt lat="45.18374" lon="5.95039">
        <ele>2159</ele>
        <time>2019-01-11T10:42:00Z</time>
      </trkpt>
      <trkpt lat="45.1837" lon="5.95045">
        <ele>2163</ele>
        <time>2019-01-11T10:43:46Z</time>
      </trkpt>
      <trkpt lat="45.18368" lon="5.95047">
        <ele>2179</ele>
        <time>2019-01-11T10:46:42Z</time>
      </trkpt>
      <trkpt lat="45.18358" lon="5.95042">
        <ele>2183</ele>
        <time>2019-01-11T10:47:27Z</time>
      </trkpt>
      <trkpt lat="45.18359" lon="5.95048">
        <ele>2192</ele>
        <time>2019-01-11T10:48:37Z</time>
      </trkpt>
      <trkpt lat="45.18354" lon="5.95054">
        <ele>2194</ele>
        <time>2019-01-11T10:49:42Z</time>
      </trkpt>
      <trkpt lat="45.18347" lon="5.95061">
        <ele>2193</ele>
        <time>2019-01-11T10:49:53Z</time>
      </trkpt>
      <trkpt lat="45.18342" lon="5.9506">
        <ele>2191</ele>
        <time>2019-01-11T10:50:03Z</time>
      </trkpt>
      <trkpt lat="45.18342" lon="5.95054">
        <ele>2189</ele>
        <time>2019-01-11T10:51:13Z</time>
      </trkpt>
      <trkpt lat="45.18337" lon="5.95055">
        <ele>2187</ele>
        <time>2019-01-11T10:51:23Z</time>
      </trkpt>
      <trkpt lat="45.18332" lon="5.9506">
        <ele>2195</ele>
        <time>2019-01-11T10:57:57Z</time>
      </trkpt>
      <trkpt lat="45.18328" lon="5.95066">
        <ele>2190</ele>
        <time>2019-01-11T10:58:04Z</time>
      </trkpt>
      <trkpt lat="45.18323" lon="5.95076">
        <ele>2195</ele>
        <time>2019-01-11T10:58:12Z</time>
      </trkpt>
      <trkpt lat="45.18318" lon="5.95079">
        <ele>2190</ele>
        <time>2019-01-11T10:58:16Z</time>
      </trkpt>
      <trkpt lat="45.18313" lon="5.9508">
        <ele>2183</ele>
        <time>2019-01-11T10:58:20Z</time>
      </trkpt>
      <trkpt lat="45.1831" lon="5.95076">
        <ele>2179</ele>
        <time>2019-01-11T10:58:22Z</time>
      </trkpt>
      <trkpt lat="45.18291" lon="5.9507">
        <ele>2172</ele>
        <time>2019-01-11T10:58:29Z</time>
      </trkpt>
      <trkpt lat="45.18283" lon="5.95072">
        <ele>2166</ele>
        <time>2019-01-11T10:58:31Z</time>
      </trkpt>
      <trkpt lat="45.18278" lon="5.95077">
        <ele>2161</ele>
        <time>2019-01-11T10:58:33Z</time>
      </trkpt>
      <trkpt lat="45.18276" lon="5.95083">
        <ele>2156</ele>
        <time>2019-01-11T10:58:35Z</time>
      </trkpt>
      <trkpt lat="45.18281" lon="5.95089">
        <ele>2152</ele>
        <time>2019-01-11T10:58:39Z</time>
      </trkpt>
      <trkpt lat="45.18278" lon="5.95096">
        <ele>2147</ele>
        <time>2019-01-11T10:58:46Z</time>
      </trkpt>
      <trkpt lat="45.18275" lon="5.95102">
        <ele>2147</ele>
        <time>2019-01-11T10:58:48Z</time>
      </trkpt>
      <trkpt lat="45.18275" lon="5.95112">
        <ele>2142</ele>
        <time>2019-01-11T10:58:50Z</time>
      </trkpt>
      <trkpt lat="45.18272" lon="5.95119">
        <ele>2138</ele>
        <time>2019-01-11T10:58:52Z</time>
      </trkpt>
      <trkpt lat="45.18263" lon="5.95121">
        <ele>2133</ele>
        <time>2019-01-11T10:58:54Z</time>
      </trkpt>
      <trkpt lat="45.18256" lon="5.95124">
        <ele>2131</ele>
        <time>2019-01-11T10:58:56Z</time>
      </trkpt>
      <trkpt lat="45.18258" lon="5.95133">
        <ele>2128</ele>
        <time>2019-01-11T10:58:58Z</time>
      </trkpt>
      <trkpt lat="45.18263" lon="5.95142">
        <ele>2124</ele>
        <time>2019-01-11T10:59:00Z</time>
      </trkpt>
      <trkpt lat="45.18268" lon="5.95151">
        <ele>2118</ele>
        <time>2019-01-11T10:59:02Z</time>
      </trkpt>
      <trkpt lat="45.18273" lon="5.95155">
        <ele>2115</ele>
        <time>2019-01-11T10:59:03Z</time>
      </trkpt>
      <trkpt lat="45.1828" lon="5.95159">
        <ele>2110</ele>
        <time>2019-01-11T10:59:04Z</time>
      </trkpt>
      <trkpt lat="45.18291" lon="5.95165">
        <ele>2110</ele>
        <time>2019-01-11T10:59:06Z</time>
      </trkpt>
      <trkpt lat="45.18296" lon="5.95177">
        <ele>2110</ele>
        <time>2019-01-11T10:59:09Z</time>
      </trkpt>
      <trkpt lat="45.18288" lon="5.95219">
        <ele>2089</ele>
        <time>2019-01-11T10:59:17Z</time>
      </trkpt>
      <trkpt lat="45.1828" lon="5.95217">
        <ele>2084</ele>
        <time>2019-01-11T10:59:19Z</time>
      </trkpt>
      <trkpt lat="45.18275" lon="5.9522">
        <ele>2079</ele>
        <time>2019-01-11T10:59:22Z</time>
      </trkpt>
      <trkpt lat="45.18276" lon="5.95227">
        <ele>2076</ele>
        <time>2019-01-11T10:59:24Z</time>
      </trkpt>
      <trkpt lat="45.18279" lon="5.95234">
        <ele>2073</ele>
        <time>2019-01-11T10:59:26Z</time>
      </trkpt>
      <trkpt lat="45.18279" lon="5.95243">
        <ele>2066</ele>
        <time>2019-01-11T10:59:29Z</time>
      </trkpt>
      <trkpt lat="45.18284" lon="5.95254">
        <ele>2059</ele>
        <time>2019-01-11T10:59:33Z</time>
      </trkpt>
      <trkpt lat="45.18276" lon="5.95269">
        <ele>2044</ele>
        <time>2019-01-11T10:59:41Z</time>
      </trkpt>
      <trkpt lat="45.18269" lon="5.95283">
        <ele>2037</ele>
        <time>2019-01-11T10:59:45Z</time>
      </trkpt>
      <trkpt lat="45.18274" lon="5.95301">
        <ele>2034</ele>
        <time>2019-01-11T10:59:48Z</time>
      </trkpt>
      <trkpt lat="45.18285" lon="5.95315">
        <ele>2026</ele>
        <time>2019-01-11T10:59:50Z</time>
      </trkpt>
      <trkpt lat="45.18288" lon="5.9532">
        <ele>2026</ele>
        <time>2019-01-11T10:59:51Z</time>
      </trkpt>
      <trkpt lat="45.18295" lon="5.95336">
        <ele>2017</ele>
        <time>2019-01-11T10:59:55Z</time>
      </trkpt>
      <trkpt lat="45.18297" lon="5.95344">
        <ele>2017</ele>
        <time>2019-01-11T10:59:56Z</time>
      </trkpt>
      <trkpt lat="45.18295" lon="5.95415">
        <ele>1991</ele>
        <time>2019-01-11T11:00:04Z</time>
      </trkpt>
      <trkpt lat="45.18299" lon="5.95422">
        <ele>1989</ele>
        <time>2019-01-11T11:00:05Z</time>
      </trkpt>
      <trkpt lat="45.18296" lon="5.9544">
        <ele>1984</ele>
        <time>2019-01-11T11:00:07Z</time>
      </trkpt>
      <trkpt lat="45.18288" lon="5.95446">
        <ele>1978</ele>
        <time>2019-01-11T11:00:10Z</time>
      </trkpt>
      <trkpt lat="45.18287" lon="5.95436">
        <ele>1956</ele>
        <time>2019-01-11T11:00:17Z</time>
      </trkpt>
      <trkpt lat="45.1828" lon="5.95438">
        <ele>1971</ele>
        <time>2019-01-11T11:00:40Z</time>
      </trkpt>
      <trkpt lat="45.18273" lon="5.95449">
        <ele>1967</ele>
        <time>2019-01-11T11:00:42Z</time>
      </trkpt>
      <trkpt lat="45.18274" lon="5.95481">
        <ele>1958</ele>
        <time>2019-01-11T11:00:47Z</time>
      </trkpt>
      <trkpt lat="45.18284" lon="5.95577">
        <ele>1923</ele>
        <time>2019-01-11T11:00:59Z</time>
      </trkpt>
      <trkpt lat="45.18276" lon="5.956">
        <ele>1917</ele>
        <time>2019-01-11T11:01:01Z</time>
      </trkpt>
      <trkpt lat="45.18284" lon="5.95616">
        <ele>1910</ele>
        <time>2019-01-11T11:01:03Z</time>
      </trkpt>
      <trkpt lat="45.18286" lon="5.95649">
        <ele>1901</ele>
        <time>2019-01-11T11:01:07Z</time>
      </trkpt>
      <trkpt lat="45.18289" lon="5.95668">
        <ele>1895</ele>
        <time>2019-01-11T11:01:10Z</time>
      </trkpt>
      <trkpt lat="45.18291" lon="5.95685">
        <ele>1888</ele>
        <time>2019-01-11T11:01:13Z</time>
      </trkpt>
      <trkpt lat="45.18289" lon="5.95701">
        <ele>1881</ele>
        <time>2019-01-11T11:01:16Z</time>
      </trkpt>
      <trkpt lat="45.18277" lon="5.95695">
        <ele>1870</ele>
        <time>2019-01-11T11:01:23Z</time>
      </trkpt>
      <trkpt lat="45.18279" lon="5.95734">
        <ele>1864</ele>
        <time>2019-01-11T11:01:32Z</time>
      </trkpt>
      <trkpt lat="45.18279" lon="5.95747">
        <ele>1857</ele>
        <time>2019-01-11T11:01:35Z</time>
      </trkpt>
      <trkpt lat="45.18273" lon="5.95761">
        <ele>1852</ele>
        <time>2019-01-11T11:01:37Z</time>
      </trkpt>
      <trkpt lat="45.18272" lon="5.95778">
        <ele>1845</ele>
        <time>2019-01-11T11:01:40Z</time>
      </trkpt>
      <trkpt lat="45.1827" lon="5.95798">
        <ele>1838</ele>
        <time>2019-01-11T11:01:44Z</time>
      </trkpt>
      <trkpt lat="45.18256" lon="5.9581">
        <ele>1821</ele>
        <time>2019-01-11T11:01:45Z</time>
      </trkpt>
      <trkpt lat="45.18267" lon="5.95817">
        <ele>1820</ele>
        <time>2019-01-11T11:01:48Z</time>
      </trkpt>
      <trkpt lat="45.18281" lon="5.95828">
        <ele>1829</ele>
        <time>2019-01-11T11:01:52Z</time>
      </trkpt>
      <trkpt lat="45.18291" lon="5.95833">
        <ele>1824</ele>
        <time>2019-01-11T11:01:54Z</time>
      </trkpt>
      <trkpt lat="45.18299" lon="5.95846">
        <ele>1815</ele>
        <time>2019-01-11T11:01:57Z</time>
      </trkpt>
      <trkpt lat="45.18304" lon="5.9588">
        <ele>1798</ele>
        <time>2019-01-11T11:02:03Z</time>
      </trkpt>
      <trkpt lat="45.18317" lon="5.95885">
        <ele>1792</ele>
        <time>2019-01-11T11:02:05Z</time>
      </trkpt>
      <trkpt lat="45.18313" lon="5.9593">
        <ele>1772</ele>
        <time>2019-01-11T11:02:34Z</time>
      </trkpt>
      <trkpt lat="45.18328" lon="5.95943">
        <ele>1765</ele>
        <time>2019-01-11T11:02:37Z</time>
      </trkpt>
      <trkpt lat="45.18388" lon="5.95954">
        <ele>1733</ele>
        <time>2019-01-11T11:02:49Z</time>
      </trkpt>
      <trkpt lat="45.18427" lon="5.95943">
        <ele>1718</ele>
        <time>2019-01-11T11:02:56Z</time>
      </trkpt>
      <trkpt lat="45.18443" lon="5.95944">
        <ele>1712</ele>
        <time>2019-01-11T11:02:58Z</time>
      </trkpt>
      <trkpt lat="45.18467" lon="5.95971">
        <ele>1704</ele>
        <time>2019-01-11T11:03:02Z</time>
      </trkpt>
      <trkpt lat="45.18456" lon="5.9597">
        <ele>1714</ele>
        <time>2019-01-11T11:03:30Z</time>
      </trkpt>
      <trkpt lat="45.18445" lon="5.95979">
        <ele>1713</ele>
        <time>2019-01-11T11:03:58Z</time>
      </trkpt>
      <trkpt lat="45.18441" lon="5.95994">
        <ele>1707</ele>
        <time>2019-01-11T11:05:04Z</time>
      </trkpt>
      <trkpt lat="45.18438" lon="5.96014">
        <ele>1707</ele>
        <time>2019-01-11T11:05:20Z</time>
      </trkpt>
      <trkpt lat="45.18432" lon="5.96023">
        <ele>1708</ele>
        <time>2019-01-11T11:05:30Z</time>
      </trkpt>
      <trkpt lat="45.18411" lon="5.96048">
        <ele>1713</ele>
        <time>2019-01-11T11:06:13Z</time>
      </trkpt>
      <trkpt lat="45.18408" lon="5.96069">
        <ele>1713</ele>
        <time>2019-01-11T11:06:30Z</time>
      </trkpt>
      <trkpt lat="45.18405" lon="5.96083">
        <ele>1718</ele>
        <time>2019-01-11T11:06:44Z</time>
      </trkpt>
      <trkpt lat="45.18409" lon="5.96104">
        <ele>1718</ele>
        <time>2019-01-11T11:07:14Z</time>
      </trkpt>
      <trkpt lat="45.18417" lon="5.96111">
        <ele>1714</ele>
        <time>2019-01-11T11:07:20Z</time>
      </trkpt>
      <trkpt lat="45.1843" lon="5.96118">
        <ele>1714</ele>
        <time>2019-01-11T11:07:49Z</time>
      </trkpt>
      <trkpt lat="45.18463" lon="5.96149">
        <ele>1710</ele>
        <time>2019-01-11T11:08:05Z</time>
      </trkpt>
      <trkpt lat="45.18481" lon="5.96158">
        <ele>1708</ele>
        <time>2019-01-11T11:08:12Z</time>
      </trkpt>
      <trkpt lat="45.185" lon="5.96169">
        <ele>1703</ele>
        <time>2019-01-11T11:08:19Z</time>
      </trkpt>
      <trkpt lat="45.18514" lon="5.96177">
        <ele>1710</ele>
        <time>2019-01-11T11:09:44Z</time>
      </trkpt>
      <trkpt lat="45.18538" lon="5.96174">
        <ele>1699</ele>
        <time>2019-01-11T11:09:49Z</time>
      </trkpt>
      <trkpt lat="45.18548" lon="5.96172">
        <ele>1699</ele>
        <time>2019-01-11T11:09:51Z</time>
      </trkpt>
      <trkpt lat="45.18593" lon="5.96158">
        <ele>1684</ele>
        <time>2019-01-11T11:10:00Z</time>
      </trkpt>
      <trkpt lat="45.18604" lon="5.96155">
        <ele>1680</ele>
        <time>2019-01-11T11:10:03Z</time>
      </trkpt>
      <trkpt lat="45.18614" lon="5.96153">
        <ele>1677</ele>
        <time>2019-01-11T11:10:06Z</time>
      </trkpt>
      <trkpt lat="45.18636" lon="5.96145">
        <ele>1672</ele>
        <time>2019-01-11T11:10:12Z</time>
      </trkpt>
      <trkpt lat="45.18646" lon="5.96138">
        <ele>1669</ele>
        <time>2019-01-11T11:10:15Z</time>
      </trkpt>
      <trkpt lat="45.1866" lon="5.96137">
        <ele>1664</ele>
        <time>2019-01-11T11:10:18Z</time>
      </trkpt>
      <trkpt lat="45.18679" lon="5.96147">
        <ele>1658</ele>
        <time>2019-01-11T11:10:22Z</time>
      </trkpt>
      <trkpt lat="45.18682" lon="5.9616">
        <ele>1655</ele>
        <time>2019-01-11T11:11:00Z</time>
      </trkpt>
      <trkpt lat="45.1869" lon="5.9617">
        <ele>1655</ele>
        <time>2019-01-11T11:11:22Z</time>
      </trkpt>
      <trkpt lat="45.1869" lon="5.96188">
        <ele>1660</ele>
        <time>2019-01-11T11:11:33Z</time>
      </trkpt>
      <trkpt lat="45.18697" lon="5.96203">
        <ele>1662</ele>
        <time>2019-01-11T11:11:48Z</time>
      </trkpt>
      <trkpt lat="45.18699" lon="5.96209">
        <ele>1665</ele>
        <time>2019-01-11T11:11:54Z</time>
      </trkpt>
      <trkpt lat="45.18717" lon="5.96219">
        <ele>1671</ele>
        <time>2019-01-11T11:12:30Z</time>
      </trkpt>
      <trkpt lat="45.18721" lon="5.96223">
        <ele>1674</ele>
        <time>2019-01-11T11:12:36Z</time>
      </trkpt>
      <trkpt lat="45.18726" lon="5.96226">
        <ele>1674</ele>
        <time>2019-01-11T11:12:41Z</time>
      </trkpt>
      <trkpt lat="45.18727" lon="5.96234">
        <ele>1675</ele>
        <time>2019-01-11T11:12:46Z</time>
      </trkpt>
      <trkpt lat="45.18727" lon="5.9624">
        <ele>1676</ele>
        <time>2019-01-11T11:12:51Z</time>
      </trkpt>
      <trkpt lat="45.18733" lon="5.96243">
        <ele>1677</ele>
        <time>2019-01-11T11:13:05Z</time>
      </trkpt>
      <trkpt lat="45.18738" lon="5.96243">
        <ele>1681</ele>
        <time>2019-01-11T11:13:11Z</time>
      </trkpt>
      <trkpt lat="45.18743" lon="5.96245">
        <ele>1683</ele>
        <time>2019-01-11T11:13:16Z</time>
      </trkpt>
      <trkpt lat="45.18752" lon="5.96253">
        <ele>1684</ele>
        <time>2019-01-11T11:13:43Z</time>
      </trkpt>
      <trkpt lat="45.18761" lon="5.96256">
        <ele>1683</ele>
        <time>2019-01-11T11:13:56Z</time>
      </trkpt>
      <trkpt lat="45.18782" lon="5.96267">
        <ele>1693</ele>
        <time>2019-01-11T11:14:38Z</time>
      </trkpt>
      <trkpt lat="45.18791" lon="5.96269">
        <ele>1694</ele>
        <time>2019-01-11T11:14:47Z</time>
      </trkpt>
      <trkpt lat="45.18801" lon="5.96266">
        <ele>1694</ele>
        <time>2019-01-11T11:14:57Z</time>
      </trkpt>
      <trkpt lat="45.18812" lon="5.96266">
        <ele>1698</ele>
        <time>2019-01-11T11:15:10Z</time>
      </trkpt>
      <trkpt lat="45.18821" lon="5.96272">
        <ele>1698</ele>
        <time>2019-01-11T11:15:20Z</time>
      </trkpt>
      <trkpt lat="45.18824" lon="5.96283">
        <ele>1701</ele>
        <time>2019-01-11T11:15:30Z</time>
      </trkpt>
      <trkpt lat="45.18824" lon="5.96291">
        <ele>1700</ele>
        <time>2019-01-11T11:15:42Z</time>
      </trkpt>
      <trkpt lat="45.18828" lon="5.96296">
        <ele>1704</ele>
        <time>2019-01-11T11:15:48Z</time>
      </trkpt>
      <trkpt lat="45.18824" lon="5.96303">
        <ele>1710</ele>
        <time>2019-01-11T11:16:11Z</time>
      </trkpt>
      <trkpt lat="45.18826" lon="5.96312">
        <ele>1712</ele>
        <time>2019-01-11T11:16:35Z</time>
      </trkpt>
      <trkpt lat="45.18847" lon="5.96343">
        <ele>1721</ele>
        <time>2019-01-11T11:17:35Z</time>
      </trkpt>
      <trkpt lat="45.18848" lon="5.96356">
        <ele>1735</ele>
        <time>2019-01-11T11:18:35Z</time>
      </trkpt>
      <trkpt lat="45.18853" lon="5.9636">
        <ele>1733</ele>
        <time>2019-01-11T11:18:47Z</time>
      </trkpt>
      <trkpt lat="45.1886" lon="5.9638">
        <ele>1737</ele>
        <time>2019-01-11T11:19:11Z</time>
      </trkpt>
      <trkpt lat="45.18862" lon="5.96405">
        <ele>1742</ele>
        <time>2019-01-11T11:19:37Z</time>
      </trkpt>
      <trkpt lat="45.18865" lon="5.96414">
        <ele>1745</ele>
        <time>2019-01-11T11:19:55Z</time>
      </trkpt>
      <trkpt lat="45.18872" lon="5.96423">
        <ele>1747</ele>
        <time>2019-01-11T11:20:07Z</time>
      </trkpt>
      <trkpt lat="45.18876" lon="5.96425">
        <ele>1747</ele>
        <time>2019-01-11T11:20:11Z</time>
      </trkpt>
      <trkpt lat="45.1888" lon="5.96429">
        <ele>1744</ele>
        <time>2019-01-11T11:20:16Z</time>
      </trkpt>
      <trkpt lat="45.18886" lon="5.96437">
        <ele>1747</ele>
        <time>2019-01-11T11:20:28Z</time>
      </trkpt>
      <trkpt lat="45.18888" lon="5.96443">
        <ele>1746</ele>
        <time>2019-01-11T11:20:33Z</time>
      </trkpt>
      <trkpt lat="45.18891" lon="5.96455">
        <ele>1750</ele>
        <time>2019-01-11T11:20:44Z</time>
      </trkpt>
      <trkpt lat="45.18897" lon="5.96465">
        <ele>1749</ele>
        <time>2019-01-11T11:20:56Z</time>
      </trkpt>
      <trkpt lat="45.189" lon="5.9647">
        <ele>1754</ele>
        <time>2019-01-11T11:21:04Z</time>
      </trkpt>
      <trkpt lat="45.18905" lon="5.96478">
        <ele>1750</ele>
        <time>2019-01-11T11:21:16Z</time>
      </trkpt>
      <trkpt lat="45.189" lon="5.96477">
        <ele>1753</ele>
        <time>2019-01-11T11:21:34Z</time>
      </trkpt>
      <trkpt lat="45.18894" lon="5.96474">
        <ele>1756</ele>
        <time>2019-01-11T11:21:46Z</time>
      </trkpt>
      <trkpt lat="45.18883" lon="5.96468">
        <ele>1759</ele>
        <time>2019-01-11T11:22:10Z</time>
      </trkpt>
      <trkpt lat="45.1888" lon="5.96475">
        <ele>1762</ele>
        <time>2019-01-11T11:22:28Z</time>
      </trkpt>
      <trkpt lat="45.18886" lon="5.96493">
        <ele>1769</ele>
        <time>2019-01-11T11:22:52Z</time>
      </trkpt>
      <trkpt lat="45.1889" lon="5.96512">
        <ele>1775</ele>
        <time>2019-01-11T11:23:16Z</time>
      </trkpt>
      <trkpt lat="45.18895" lon="5.96522">
        <ele>1779</ele>
        <time>2019-01-11T11:23:29Z</time>
      </trkpt>
      <trkpt lat="45.18897" lon="5.96527">
        <ele>1779</ele>
        <time>2019-01-11T11:23:35Z</time>
      </trkpt>
      <trkpt lat="45.18901" lon="5.96532">
        <ele>1780</ele>
        <time>2019-01-11T11:23:41Z</time>
      </trkpt>
      <trkpt lat="45.18903" lon="5.9654">
        <ele>1777</ele>
        <time>2019-01-11T11:23:53Z</time>
      </trkpt>
      <trkpt lat="45.18897" lon="5.96539">
        <ele>1786</ele>
        <time>2019-01-11T11:24:05Z</time>
      </trkpt>
      <trkpt lat="45.189" lon="5.96557">
        <ele>1787</ele>
        <time>2019-01-11T11:24:41Z</time>
      </trkpt>
      <trkpt lat="45.18899" lon="5.96562">
        <ele>1792</ele>
        <time>2019-01-11T11:26:12Z</time>
      </trkpt>
      <trkpt lat="45.18895" lon="5.96577">
        <ele>1809</ele>
        <time>2019-01-11T11:28:17Z</time>
      </trkpt>
      <trkpt lat="45.18894" lon="5.96605">
        <ele>1816</ele>
        <time>2019-01-11T11:30:17Z</time>
      </trkpt>
      <trkpt lat="45.18895" lon="5.9662">
        <ele>1826</ele>
        <time>2019-01-11T11:31:05Z</time>
      </trkpt>
      <trkpt lat="45.18898" lon="5.96634">
        <ele>1829</ele>
        <time>2019-01-11T11:31:23Z</time>
      </trkpt>
      <trkpt lat="45.18907" lon="5.96641">
        <ele>1829</ele>
        <time>2019-01-11T11:31:47Z</time>
      </trkpt>
      <trkpt lat="45.18918" lon="5.96641">
        <ele>1829</ele>
        <time>2019-01-11T11:32:22Z</time>
      </trkpt>
      <trkpt lat="45.18941" lon="5.9665">
        <ele>1837</ele>
        <time>2019-01-11T11:33:10Z</time>
      </trkpt>
      <trkpt lat="45.18958" lon="5.96669">
        <ele>1844</ele>
        <time>2019-01-11T11:33:58Z</time>
      </trkpt>
      <trkpt lat="45.1896" lon="5.96684">
        <ele>1852</ele>
        <time>2019-01-11T11:34:40Z</time>
      </trkpt>
      <trkpt lat="45.18954" lon="5.96695">
        <ele>1856</ele>
        <time>2019-01-11T11:34:58Z</time>
      </trkpt>
      <trkpt lat="45.18962" lon="5.96718">
        <ele>1868</ele>
        <time>2019-01-11T11:35:52Z</time>
      </trkpt>
      <trkpt lat="45.18966" lon="5.9673">
        <ele>1871</ele>
        <time>2019-01-11T11:36:10Z</time>
      </trkpt>
      <trkpt lat="45.1897" lon="5.96742">
        <ele>1878</ele>
        <time>2019-01-11T11:36:33Z</time>
      </trkpt>
      <trkpt lat="45.18984" lon="5.9677">
        <ele>1889</ele>
        <time>2019-01-11T11:37:27Z</time>
      </trkpt>
      <trkpt lat="45.18993" lon="5.96776">
        <ele>1887</ele>
        <time>2019-01-11T11:37:51Z</time>
      </trkpt>
      <trkpt lat="45.18997" lon="5.96791">
        <ele>1899</ele>
        <time>2019-01-11T11:38:21Z</time>
      </trkpt>
      <trkpt lat="45.19005" lon="5.968">
        <ele>1904</ele>
        <time>2019-01-11T11:38:45Z</time>
      </trkpt>
      <trkpt lat="45.19006" lon="5.96813">
        <ele>1911</ele>
        <time>2019-01-11T11:39:14Z</time>
      </trkpt>
      <trkpt lat="45.19002" lon="5.96825">
        <ele>1919</ele>
        <time>2019-01-11T11:39:50Z</time>
      </trkpt>
      <trkpt lat="45.18997" lon="5.96835">
        <ele>1929</ele>
        <time>2019-01-11T11:40:26Z</time>
      </trkpt>
      <trkpt lat="45.18995" lon="5.96849">
        <ele>1937</ele>
        <time>2019-01-11T11:41:02Z</time>
      </trkpt>
      <trkpt lat="45.18987" lon="5.96862">
        <ele>1942</ele>
        <time>2019-01-11T11:41:38Z</time>
      </trkpt>
      <trkpt lat="45.18987" lon="5.96878">
        <ele>1955</ele>
        <time>2019-01-11T11:42:38Z</time>
      </trkpt>
      <trkpt lat="45.18985" lon="5.96891">
        <ele>1964</ele>
        <time>2019-01-11T11:43:20Z</time>
      </trkpt>
      <trkpt lat="45.18981" lon="5.96904">
        <ele>1968</ele>
        <time>2019-01-11T11:43:44Z</time>
      </trkpt>
      <trkpt lat="45.18978" lon="5.96916">
        <ele>1982</ele>
        <time>2019-01-11T11:44:38Z</time>
      </trkpt>
      <trkpt lat="45.18973" lon="5.96929">
        <ele>1983</ele>
        <time>2019-01-11T11:45:14Z</time>
      </trkpt>
      <trkpt lat="45.18966" lon="5.96942">
        <ele>1993</ele>
        <time>2019-01-11T11:45:44Z</time>
      </trkpt>
      <trkpt lat="45.18977" lon="5.96942">
        <ele>2002</ele>
        <time>2019-01-11T11:46:45Z</time>
      </trkpt>
      <trkpt lat="45.1897" lon="5.96955">
        <ele>1998</ele>
        <time>2019-01-11T11:48:36Z</time>
      </trkpt>
      <trkpt lat="45.18978" lon="5.96961">
        <ele>1999</ele>
        <time>2019-01-11T11:48:48Z</time>
      </trkpt>
      <trkpt lat="45.18986" lon="5.96977">
        <ele>2008</ele>
        <time>2019-01-11T11:49:35Z</time>
      </trkpt>
      <trkpt lat="45.18989" lon="5.9699">
        <ele>2010</ele>
        <time>2019-01-11T11:49:47Z</time>
      </trkpt>
      <trkpt lat="45.18996" lon="5.97002">
        <ele>2013</ele>
        <time>2019-01-11T11:50:05Z</time>
      </trkpt>
      <trkpt lat="45.18997" lon="5.97016">
        <ele>2020</ele>
        <time>2019-01-11T11:50:48Z</time>
      </trkpt>
      <trkpt lat="45.19005" lon="5.97025">
        <ele>2023</ele>
        <time>2019-01-11T11:51:06Z</time>
      </trkpt>
      <trkpt lat="45.19017" lon="5.97036">
        <ele>2031</ele>
        <time>2019-01-11T11:51:21Z</time>
      </trkpt>
      <trkpt lat="45.19035" lon="5.97044">
        <ele>2030</ele>
        <time>2019-01-11T11:51:36Z</time>
      </trkpt>
      <trkpt lat="45.1904" lon="5.97055">
        <ele>2028</ele>
        <time>2019-01-11T11:51:45Z</time>
      </trkpt>
      <trkpt lat="45.19066" lon="5.97094">
        <ele>2035</ele>
        <time>2019-01-11T11:52:18Z</time>
      </trkpt>
      <trkpt lat="45.1907" lon="5.97106">
        <ele>2036</ele>
        <time>2019-01-11T11:52:26Z</time>
      </trkpt>
      <trkpt lat="45.19076" lon="5.97118">
        <ele>2037</ele>
        <time>2019-01-11T11:52:34Z</time>
      </trkpt>
      <trkpt lat="45.19078" lon="5.97144">
        <ele>2041</ele>
        <time>2019-01-11T11:52:50Z</time>
      </trkpt>
      <trkpt lat="45.19083" lon="5.97163">
        <ele>2042</ele>
        <time>2019-01-11T11:53:04Z</time>
      </trkpt>
      <trkpt lat="45.19102" lon="5.97178">
        <ele>2038</ele>
        <time>2019-01-11T11:53:11Z</time>
      </trkpt>
      <trkpt lat="45.19118" lon="5.97187">
        <ele>2033</ele>
        <time>2019-01-11T11:53:22Z</time>
      </trkpt>
      <trkpt lat="45.19137" lon="5.97194">
        <ele>2039</ele>
        <time>2019-01-11T11:53:41Z</time>
      </trkpt>
      <trkpt lat="45.19135" lon="5.9721">
        <ele>2042</ele>
        <time>2019-01-11T11:53:52Z</time>
      </trkpt>
      <trkpt lat="45.19145" lon="5.97211">
        <ele>2049</ele>
        <time>2019-01-11T11:54:24Z</time>
      </trkpt>
      <trkpt lat="45.19153" lon="5.97202">
        <ele>2051</ele>
        <time>2019-01-11T11:54:36Z</time>
      </trkpt>
      <trkpt lat="45.19168" lon="5.97198">
        <ele>2055</ele>
        <time>2019-01-11T11:54:54Z</time>
      </trkpt>
      <trkpt lat="45.19176" lon="5.97206">
        <ele>2057</ele>
        <time>2019-01-11T11:55:03Z</time>
      </trkpt>
      <trkpt lat="45.1918" lon="5.97208">
        <ele>2057</ele>
        <time>2019-01-11T11:55:08Z</time>
      </trkpt>
      <trkpt lat="45.1919" lon="5.97213">
        <ele>2058</ele>
        <time>2019-01-11T11:55:20Z</time>
      </trkpt>
      <trkpt lat="45.19201" lon="5.97226">
        <ele>2060</ele>
        <time>2019-01-11T11:55:33Z</time>
      </trkpt>
      <trkpt lat="45.19214" lon="5.97237">
        <ele>2064</ele>
        <time>2019-01-11T11:55:48Z</time>
      </trkpt>
      <trkpt lat="45.19219" lon="5.97241">
        <ele>2064</ele>
        <time>2019-01-11T11:55:56Z</time>
      </trkpt>
      <trkpt lat="45.19225" lon="5.97243">
        <ele>2075</ele>
        <time>2019-01-11T11:56:14Z</time>
      </trkpt>
      <trkpt lat="45.19235" lon="5.97251">
        <ele>2073</ele>
        <time>2019-01-11T11:56:26Z</time>
      </trkpt>
      <trkpt lat="45.19247" lon="5.97224">
        <ele>2077</ele>
        <time>2019-01-11T11:56:50Z</time>
      </trkpt>
      <trkpt lat="45.19252" lon="5.97215">
        <ele>2080</ele>
        <time>2019-01-11T11:57:05Z</time>
      </trkpt>
      <trkpt lat="45.19255" lon="5.9723">
        <ele>2086</ele>
        <time>2019-01-11T11:57:23Z</time>
      </trkpt>
      <trkpt lat="45.19267" lon="5.97246">
        <ele>2089</ele>
        <time>2019-01-11T11:57:39Z</time>
      </trkpt>
      <trkpt lat="45.19278" lon="5.97255">
        <ele>2092</ele>
        <time>2019-01-11T11:57:53Z</time>
      </trkpt>
      <trkpt lat="45.19281" lon="5.9726">
        <ele>2093</ele>
        <time>2019-01-11T11:57:58Z</time>
      </trkpt>
      <trkpt lat="45.19284" lon="5.97268">
        <ele>2082</ele>
        <time>2019-01-11T11:58:05Z</time>
      </trkpt>
      <trkpt lat="45.19291" lon="5.97281">
        <ele>2097</ele>
        <time>2019-01-11T11:58:15Z</time>
      </trkpt>
      <trkpt lat="45.19293" lon="5.97288">
        <ele>2101</ele>
        <time>2019-01-11T11:58:19Z</time>
      </trkpt>
      <trkpt lat="45.19297" lon="5.97294">
        <ele>2099</ele>
        <time>2019-01-11T11:58:23Z</time>
      </trkpt>
      <trkpt lat="45.19299" lon="5.97302">
        <ele>2098</ele>
        <time>2019-01-11T11:58:27Z</time>
      </trkpt>
      <trkpt lat="45.19302" lon="5.97308">
        <ele>2098</ele>
        <time>2019-01-11T11:58:30Z</time>
      </trkpt>
      <trkpt lat="45.19308" lon="5.97321">
        <ele>2096</ele>
        <time>2019-01-11T11:58:36Z</time>
      </trkpt>
      <trkpt lat="45.19318" lon="5.97335">
        <ele>2095</ele>
        <time>2019-01-11T11:58:46Z</time>
      </trkpt>
      <trkpt lat="45.19325" lon="5.97346">
        <ele>2096</ele>
        <time>2019-01-11T11:58:54Z</time>
      </trkpt>
      <trkpt lat="45.19334" lon="5.97352">
        <ele>2099</ele>
        <time>2019-01-11T11:59:03Z</time>
      </trkpt>
      <trkpt lat="45.19345" lon="5.97334">
        <ele>2105</ele>
        <time>2019-01-11T11:59:26Z</time>
      </trkpt>
      <trkpt lat="45.19363" lon="5.97313">
        <ele>2112</ele>
        <time>2019-01-11T11:59:56Z</time>
      </trkpt>
      <trkpt lat="45.19368" lon="5.97301">
        <ele>2114</ele>
        <time>2019-01-11T12:00:09Z</time>
      </trkpt>
      <trkpt lat="45.19381" lon="5.97278">
        <ele>2120</ele>
        <time>2019-01-11T12:00:31Z</time>
      </trkpt>
      <trkpt lat="45.19383" lon="5.97268">
        <ele>2121</ele>
        <time>2019-01-11T12:00:39Z</time>
      </trkpt>
      <trkpt lat="45.19387" lon="5.97254">
        <ele>2126</ele>
        <time>2019-01-11T12:00:59Z</time>
      </trkpt>
      <trkpt lat="45.19397" lon="5.97249">
        <ele>2128</ele>
        <time>2019-01-11T12:01:10Z</time>
      </trkpt>
      <trkpt lat="45.19401" lon="5.97254">
        <ele>2134</ele>
        <time>2019-01-11T12:01:36Z</time>
      </trkpt>
      <trkpt lat="45.19406" lon="5.97253">
        <ele>2134</ele>
        <time>2019-01-11T12:01:41Z</time>
      </trkpt>
      <trkpt lat="45.19411" lon="5.97253">
        <ele>2136</ele>
        <time>2019-01-11T12:01:49Z</time>
      </trkpt>
      <trkpt lat="45.1942" lon="5.97258">
        <ele>2138</ele>
        <time>2019-01-11T12:01:58Z</time>
      </trkpt>
      <trkpt lat="45.19425" lon="5.97262">
        <ele>2140</ele>
        <time>2019-01-11T12:02:03Z</time>
      </trkpt>
      <trkpt lat="45.1943" lon="5.97264">
        <ele>2142</ele>
        <time>2019-01-11T12:02:10Z</time>
      </trkpt>
      <trkpt lat="45.19436" lon="5.97264">
        <ele>2142</ele>
        <time>2019-01-11T12:02:15Z</time>
      </trkpt>
      <trkpt lat="45.1944" lon="5.97264">
        <ele>2142</ele>
        <time>2019-01-11T12:02:19Z</time>
      </trkpt>
      <trkpt lat="45.19445" lon="5.97262">
        <ele>2144</ele>
        <time>2019-01-11T12:02:23Z</time>
      </trkpt>
      <trkpt lat="45.1945" lon="5.97259">
        <ele>2144</ele>
        <time>2019-01-11T12:02:28Z</time>
      </trkpt>
      <trkpt lat="45.19457" lon="5.97266">
        <ele>2143</ele>
        <time>2019-01-11T12:02:33Z</time>
      </trkpt>
      <trkpt lat="45.19461" lon="5.97271">
        <ele>2143</ele>
        <time>2019-01-11T12:02:35Z</time>
      </trkpt>
      <trkpt lat="45.19468" lon="5.9728">
        <ele>2141</ele>
        <time>2019-01-11T12:02:41Z</time>
      </trkpt>
      <trkpt lat="45.19475" lon="5.97292">
        <ele>2141</ele>
        <time>2019-01-11T12:02:49Z</time>
      </trkpt>
      <trkpt lat="45.19479" lon="5.97295">
        <ele>2140</ele>
        <time>2019-01-11T12:02:52Z</time>
      </trkpt>
      <trkpt lat="45.19482" lon="5.97302">
        <ele>2140</ele>
        <time>2019-01-11T12:02:56Z</time>
      </trkpt>
      <trkpt lat="45.19486" lon="5.97307">
        <ele>2141</ele>
        <time>2019-01-11T12:03:00Z</time>
      </trkpt>
      <trkpt lat="45.19489" lon="5.97312">
        <ele>2141</ele>
        <time>2019-01-11T12:03:03Z</time>
      </trkpt>
      <trkpt lat="45.19504" lon="5.97324">
        <ele>2139</ele>
        <time>2019-01-11T12:03:11Z</time>
      </trkpt>
      <trkpt lat="45.19508" lon="5.97327">
        <ele>2139</ele>
        <time>2019-01-11T12:03:13Z</time>
      </trkpt>
      <trkpt lat="45.19517" lon="5.97331">
        <ele>2138</ele>
        <time>2019-01-11T12:03:17Z</time>
      </trkpt>
      <trkpt lat="45.19531" lon="5.97339">
        <ele>2138</ele>
        <time>2019-01-11T12:03:23Z</time>
      </trkpt>
      <trkpt lat="45.19555" lon="5.97358">
        <ele>2134</ele>
        <time>2019-01-11T12:03:34Z</time>
      </trkpt>
      <trkpt lat="45.1956" lon="5.97362">
        <ele>2134</ele>
        <time>2019-01-11T12:03:37Z</time>
      </trkpt>
      <trkpt lat="45.19565" lon="5.9737">
        <ele>2134</ele>
        <time>2019-01-11T12:03:40Z</time>
      </trkpt>
      <trkpt lat="45.19574" lon="5.97388">
        <ele>2130</ele>
        <time>2019-01-11T12:03:46Z</time>
      </trkpt>
      <trkpt lat="45.19575" lon="5.97396">
        <ele>2129</ele>
        <time>2019-01-11T12:03:48Z</time>
      </trkpt>
      <trkpt lat="45.19575" lon="5.97406">
        <ele>2127</ele>
        <time>2019-01-11T12:03:52Z</time>
      </trkpt>
      <trkpt lat="45.19577" lon="5.97414">
        <ele>2127</ele>
        <time>2019-01-11T12:03:56Z</time>
      </trkpt>
      <trkpt lat="45.19582" lon="5.97435">
        <ele>2130</ele>
        <time>2019-01-11T12:04:06Z</time>
      </trkpt>
      <trkpt lat="45.19583" lon="5.97443">
        <ele>2130</ele>
        <time>2019-01-11T12:04:11Z</time>
      </trkpt>
      <trkpt lat="45.19586" lon="5.97456">
        <ele>2132</ele>
        <time>2019-01-11T12:04:19Z</time>
      </trkpt>
      <trkpt lat="45.19587" lon="5.97464">
        <ele>2132</ele>
        <time>2019-01-11T12:04:23Z</time>
      </trkpt>
      <trkpt lat="45.19588" lon="5.97472">
        <ele>2132</ele>
        <time>2019-01-11T12:04:27Z</time>
      </trkpt>
      <trkpt lat="45.19591" lon="5.97479">
        <ele>2131</ele>
        <time>2019-01-11T12:04:32Z</time>
      </trkpt>
      <trkpt lat="45.19595" lon="5.97484">
        <ele>2132</ele>
        <time>2019-01-11T12:04:37Z</time>
      </trkpt>
      <trkpt lat="45.19607" lon="5.97522">
        <ele>2136</ele>
        <time>2019-01-11T12:05:06Z</time>
      </trkpt>
      <trkpt lat="45.19608" lon="5.97529">
        <ele>2135</ele>
        <time>2019-01-11T12:05:11Z</time>
      </trkpt>
      <trkpt lat="45.1961" lon="5.97535">
        <ele>2137</ele>
        <time>2019-01-11T12:05:16Z</time>
      </trkpt>
      <trkpt lat="45.19613" lon="5.97543">
        <ele>2138</ele>
        <time>2019-01-11T12:05:24Z</time>
      </trkpt>
      <trkpt lat="45.19616" lon="5.9755">
        <ele>2140</ele>
        <time>2019-01-11T12:05:32Z</time>
      </trkpt>
      <trkpt lat="45.19617" lon="5.97564">
        <ele>2141</ele>
        <time>2019-01-11T12:05:42Z</time>
      </trkpt>
      <trkpt lat="45.19614" lon="5.97573">
        <ele>2140</ele>
        <time>2019-01-11T12:05:49Z</time>
      </trkpt>
      <trkpt lat="45.19612" lon="5.97578">
        <ele>2141</ele>
        <time>2019-01-11T12:05:54Z</time>
      </trkpt>
      <trkpt lat="45.19597" lon="5.97593">
        <ele>2142</ele>
        <time>2019-01-11T12:06:34Z</time>
      </trkpt>
      <trkpt lat="45.19606" lon="5.97595">
        <ele>2141</ele>
        <time>2019-01-11T12:07:23Z</time>
      </trkpt>
      <trkpt lat="45.1961" lon="5.97589">
        <ele>2138</ele>
        <time>2019-01-11T12:07:59Z</time>
      </trkpt>
      <trkpt lat="45.19615" lon="5.97595">
        <ele>2139</ele>
        <time>2019-01-11T12:08:43Z</time>
      </trkpt>
      <trkpt lat="45.19621" lon="5.97591">
        <ele>2141</ele>
        <time>2019-01-11T12:08:54Z</time>
      </trkpt>
      <trkpt lat="45.19624" lon="5.97584">
        <ele>2143</ele>
        <time>2019-01-11T12:09:02Z</time>
      </trkpt>
      <trkpt lat="45.19646" lon="5.97553">
        <ele>2151</ele>
        <time>2019-01-11T12:09:44Z</time>
      </trkpt>
      <trkpt lat="45.19653" lon="5.97547">
        <ele>2154</ele>
        <time>2019-01-11T12:09:56Z</time>
      </trkpt>
      <trkpt lat="45.19665" lon="5.97571">
        <ele>2161</ele>
        <time>2019-01-11T12:10:32Z</time>
      </trkpt>
      <trkpt lat="45.19668" lon="5.97577">
        <ele>2163</ele>
        <time>2019-01-11T12:10:38Z</time>
      </trkpt>
      <trkpt lat="45.19672" lon="5.9758">
        <ele>2164</ele>
        <time>2019-01-11T12:10:44Z</time>
      </trkpt>
      <trkpt lat="45.19675" lon="5.97592">
        <ele>2166</ele>
        <time>2019-01-11T12:10:56Z</time>
      </trkpt>
      <trkpt lat="45.19679" lon="5.97601">
        <ele>2168</ele>
        <time>2019-01-11T12:11:08Z</time>
      </trkpt>
      <trkpt lat="45.19685" lon="5.97597">
        <ele>2173</ele>
        <time>2019-01-11T12:11:26Z</time>
      </trkpt>
      <trkpt lat="45.19702" lon="5.97575">
        <ele>2180</ele>
        <time>2019-01-11T12:12:02Z</time>
      </trkpt>
      <trkpt lat="45.19707" lon="5.97572">
        <ele>2182</ele>
        <time>2019-01-11T12:12:14Z</time>
      </trkpt>
      <trkpt lat="45.19709" lon="5.97579">
        <ele>2185</ele>
        <time>2019-01-11T12:12:32Z</time>
      </trkpt>
      <trkpt lat="45.19713" lon="5.97588">
        <ele>2187</ele>
        <time>2019-01-11T12:12:44Z</time>
      </trkpt>
      <trkpt lat="45.19719" lon="5.97601">
        <ele>2191</ele>
        <time>2019-01-11T12:13:02Z</time>
      </trkpt>
      <trkpt lat="45.19724" lon="5.9761">
        <ele>2193</ele>
        <time>2019-01-11T12:13:15Z</time>
      </trkpt>
      <trkpt lat="45.19729" lon="5.97595">
        <ele>2198</ele>
        <time>2019-01-11T12:13:38Z</time>
      </trkpt>
      <trkpt lat="45.19738" lon="5.97599">
        <ele>2207</ele>
        <time>2019-01-11T12:14:32Z</time>
      </trkpt>
      <trkpt lat="45.19747" lon="5.976">
        <ele>2212</ele>
        <time>2019-01-11T12:14:56Z</time>
      </trkpt>
      <trkpt lat="45.19749" lon="5.97618">
        <ele>2218</ele>
        <time>2019-01-11T12:15:26Z</time>
      </trkpt>
      <trkpt lat="45.19753" lon="5.97632">
        <ele>2221</ele>
        <time>2019-01-11T12:15:44Z</time>
      </trkpt>
      <trkpt lat="45.1976" lon="5.97624">
        <ele>2223</ele>
        <time>2019-01-11T12:16:02Z</time>
      </trkpt>
      <trkpt lat="45.19769" lon="5.97607">
        <ele>2226</ele>
        <time>2019-01-11T12:16:17Z</time>
      </trkpt>
      <trkpt lat="45.1977" lon="5.97626">
        <ele>2232</ele>
        <time>2019-01-11T12:16:59Z</time>
      </trkpt>
      <trkpt lat="45.19774" lon="5.97629">
        <ele>2238</ele>
        <time>2019-01-11T12:17:53Z</time>
      </trkpt>
      <trkpt lat="45.19782" lon="5.97635">
        <ele>2246</ele>
        <time>2019-01-11T12:18:53Z</time>
      </trkpt>
      <trkpt lat="45.19783" lon="5.97647">
        <ele>2251</ele>
        <time>2019-01-11T12:19:42Z</time>
      </trkpt>
      <trkpt lat="45.19793" lon="5.97645">
        <ele>2254</ele>
        <time>2019-01-11T12:20:06Z</time>
      </trkpt>
      <trkpt lat="45.19799" lon="5.97654">
        <ele>2262</ele>
        <time>2019-01-11T12:21:06Z</time>
      </trkpt>
      <trkpt lat="45.19803" lon="5.97666">
        <ele>2267</ele>
        <time>2019-01-11T12:21:54Z</time>
      </trkpt>
      <trkpt lat="45.19807" lon="5.97675">
        <ele>2272</ele>
        <time>2019-01-11T12:22:42Z</time>
      </trkpt>
      <trkpt lat="45.19817" lon="5.9767">
        <ele>2274</ele>
        <time>2019-01-11T12:23:00Z</time>
      </trkpt>
      <trkpt lat="45.19826" lon="5.97679">
        <ele>2284</ele>
        <time>2019-01-11T12:24:18Z</time>
      </trkpt>
      <trkpt lat="45.19828" lon="5.97685">
        <ele>2289</ele>
        <time>2019-01-11T12:24:48Z</time>
      </trkpt>
      <trkpt lat="45.19831" lon="5.97688">
        <ele>2291</ele>
        <time>2019-01-11T12:25:07Z</time>
      </trkpt>
      <trkpt lat="45.19836" lon="5.97683">
        <ele>2293</ele>
        <time>2019-01-11T12:25:19Z</time>
      </trkpt>
      <trkpt lat="45.19835" lon="5.97691">
        <ele>2294</ele>
        <time>2019-01-11T12:25:31Z</time>
      </trkpt>
      <trkpt lat="45.19831" lon="5.97699">
        <ele>2296</ele>
        <time>2019-01-11T12:25:49Z</time>
      </trkpt>
      <trkpt lat="45.19842" lon="5.97697">
        <ele>2299</ele>
        <time>2019-01-11T12:26:13Z</time>
      </trkpt>
      <trkpt lat="45.19839" lon="5.97708">
        <ele>2303</ele>
        <time>2019-01-11T12:26:43Z</time>
      </trkpt>
      <trkpt lat="45.19837" lon="5.97713">
        <ele>2304</ele>
        <time>2019-01-11T12:26:51Z</time>
      </trkpt>
      <trkpt lat="45.19843" lon="5.97715">
        <ele>2306</ele>
        <time>2019-01-11T12:27:03Z</time>
      </trkpt>
      <trkpt lat="45.19848" lon="5.97714">
        <ele>2307</ele>
        <time>2019-01-11T12:27:09Z</time>
      </trkpt>
      <trkpt lat="45.19852" lon="5.97711">
        <ele>2309</ele>
        <time>2019-01-11T12:27:17Z</time>
      </trkpt>
      <trkpt lat="45.19854" lon="5.9772">
        <ele>2312</ele>
        <time>2019-01-11T12:27:34Z</time>
      </trkpt>
      <trkpt lat="45.19854" lon="5.9773">
        <ele>2314</ele>
        <time>2019-01-11T12:27:46Z</time>
      </trkpt>
      <trkpt lat="45.19852" lon="5.97737">
        <ele>2315</ele>
        <time>2019-01-11T12:27:58Z</time>
      </trkpt>
      <trkpt lat="45.1986" lon="5.97736">
        <ele>2317</ele>
        <time>2019-01-11T12:28:10Z</time>
      </trkpt>
      <trkpt lat="45.19864" lon="5.97733">
        <ele>2318</ele>
        <time>2019-01-11T12:28:16Z</time>
      </trkpt>
      <trkpt lat="45.1987" lon="5.97731">
        <ele>2321</ele>
        <time>2019-01-11T12:28:30Z</time>
      </trkpt>
      <trkpt lat="45.19869" lon="5.97747">
        <ele>2323</ele>
        <time>2019-01-11T12:29:12Z</time>
      </trkpt>
      <trkpt lat="45.19873" lon="5.97755">
        <ele>2325</ele>
        <time>2019-01-11T12:29:24Z</time>
      </trkpt>
      <trkpt lat="45.19883" lon="5.97773">
        <ele>2330</ele>
        <time>2019-01-11T12:30:00Z</time>
      </trkpt>
      <trkpt lat="45.19885" lon="5.97779">
        <ele>2331</ele>
        <time>2019-01-11T12:30:06Z</time>
      </trkpt>
      <trkpt lat="45.19888" lon="5.97784">
        <ele>2332</ele>
        <time>2019-01-11T12:30:12Z</time>
      </trkpt>
      <trkpt lat="45.19893" lon="5.97798">
        <ele>2336</ele>
        <time>2019-01-11T12:31:12Z</time>
      </trkpt>
      <trkpt lat="45.19891" lon="5.97807">
        <ele>2339</ele>
        <time>2019-01-11T12:31:24Z</time>
      </trkpt>
      <trkpt lat="45.19892" lon="5.97814">
        <ele>2342</ele>
        <time>2019-01-11T12:31:42Z</time>
      </trkpt>
      <trkpt lat="45.19898" lon="5.97822">
        <ele>2344</ele>
        <time>2019-01-11T12:31:54Z</time>
      </trkpt>
      <trkpt lat="45.19904" lon="5.97827">
        <ele>2346</ele>
        <time>2019-01-11T12:32:12Z</time>
      </trkpt>
      <trkpt lat="45.19898" lon="5.97834">
        <ele>2348</ele>
        <time>2019-01-11T12:32:24Z</time>
      </trkpt>
      <trkpt lat="45.19893" lon="5.9784">
        <ele>2351</ele>
        <time>2019-01-11T12:32:36Z</time>
      </trkpt>
      <trkpt lat="45.19888" lon="5.97843">
        <ele>2353</ele>
        <time>2019-01-11T12:32:48Z</time>
      </trkpt>
      <trkpt lat="45.19898" lon="5.97855">
        <ele>2357</ele>
        <time>2019-01-11T12:33:18Z</time>
      </trkpt>
      <trkpt lat="45.19908" lon="5.97865">
        <ele>2360</ele>
        <time>2019-01-11T12:33:42Z</time>
      </trkpt>
      <trkpt lat="45.1992" lon="5.97869">
        <ele>2363</ele>
        <time>2019-01-11T12:34:06Z</time>
      </trkpt>
      <trkpt lat="45.19926" lon="5.97869">
        <ele>2365</ele>
        <time>2019-01-11T12:34:18Z</time>
      </trkpt>
      <trkpt lat="45.19931" lon="5.97875">
        <ele>2367</ele>
        <time>2019-01-11T12:34:30Z</time>
      </trkpt>
      <trkpt lat="45.19932" lon="5.97892">
        <ele>2371</ele>
        <time>2019-01-11T12:34:53Z</time>
      </trkpt>
      <trkpt lat="45.19931" lon="5.97902">
        <ele>2373</ele>
        <time>2019-01-11T12:35:05Z</time>
      </trkpt>
      <trkpt lat="45.19934" lon="5.97909">
        <ele>2375</ele>
        <time>2019-01-11T12:35:17Z</time>
      </trkpt>
      <trkpt lat="45.19945" lon="5.97906">
        <ele>2380</ele>
        <time>2019-01-11T12:35:47Z</time>
      </trkpt>
      <trkpt lat="45.1995" lon="5.97901">
        <ele>2382</ele>
        <time>2019-01-11T12:35:59Z</time>
      </trkpt>
      <trkpt lat="45.19954" lon="5.97904">
        <ele>2383</ele>
        <time>2019-01-11T12:36:17Z</time>
      </trkpt>
      <trkpt lat="45.19955" lon="5.97923">
        <ele>2386</ele>
        <time>2019-01-11T12:36:41Z</time>
      </trkpt>
      <trkpt lat="45.19945" lon="5.97938">
        <ele>2391</ele>
        <time>2019-01-11T12:37:05Z</time>
      </trkpt>
      <trkpt lat="45.1995" lon="5.97942">
        <ele>2394</ele>
        <time>2019-01-11T12:37:23Z</time>
      </trkpt>
      <trkpt lat="45.19961" lon="5.97943">
        <ele>2398</ele>
        <time>2019-01-11T12:37:53Z</time>
      </trkpt>
      <trkpt lat="45.19967" lon="5.97939">
        <ele>2399</ele>
        <time>2019-01-11T12:38:05Z</time>
      </trkpt>
      <trkpt lat="45.19971" lon="5.97945">
        <ele>2402</ele>
        <time>2019-01-11T12:38:23Z</time>
      </trkpt>
      <trkpt lat="45.19969" lon="5.97955">
        <ele>2404</ele>
        <time>2019-01-11T12:38:35Z</time>
      </trkpt>
      <trkpt lat="45.19966" lon="5.97963">
        <ele>2405</ele>
        <time>2019-01-11T12:38:47Z</time>
      </trkpt>
      <trkpt lat="45.19961" lon="5.9797">
        <ele>2407</ele>
        <time>2019-01-11T12:38:59Z</time>
      </trkpt>
      <trkpt lat="45.19967" lon="5.97976">
        <ele>2410</ele>
        <time>2019-01-11T12:39:23Z</time>
      </trkpt>
      <trkpt lat="45.19972" lon="5.97976">
        <ele>2412</ele>
        <time>2019-01-11T12:39:35Z</time>
      </trkpt>
      <trkpt lat="45.1999" lon="5.97971">
        <ele>2417</ele>
        <time>2019-01-11T12:40:05Z</time>
      </trkpt>
      <trkpt lat="45.19986" lon="5.98">
        <ele>2423</ele>
        <time>2019-01-11T12:40:47Z</time>
      </trkpt>
      <trkpt lat="45.19984" lon="5.98008">
        <ele>2425</ele>
        <time>2019-01-11T12:40:59Z</time>
      </trkpt>
      <trkpt lat="45.19989" lon="5.98006">
        <ele>2428</ele>
        <time>2019-01-11T12:41:17Z</time>
      </trkpt>
      <trkpt lat="45.19997" lon="5.98001">
        <ele>2430</ele>
        <time>2019-01-11T12:41:53Z</time>
      </trkpt>
      <trkpt lat="45.20001" lon="5.97997">
        <ele>2432</ele>
        <time>2019-01-11T12:42:04Z</time>
      </trkpt>
      <trkpt lat="45.20007" lon="5.97998">
        <ele>2435</ele>
        <time>2019-01-11T12:42:16Z</time>
      </trkpt>
      <trkpt lat="45.20009" lon="5.98007">
        <ele>2437</ele>
        <time>2019-01-11T12:42:28Z</time>
      </trkpt>
      <trkpt lat="45.20008" lon="5.98031">
        <ele>2443</ele>
        <time>2019-01-11T12:43:04Z</time>
      </trkpt>
      <trkpt lat="45.20016" lon="5.98036">
        <ele>2450</ele>
        <time>2019-01-11T12:44:10Z</time>
      </trkpt>
      <trkpt lat="45.20026" lon="5.98031">
        <ele>2453</ele>
        <time>2019-01-11T12:44:28Z</time>
      </trkpt>
      <trkpt lat="45.20023" lon="5.98047">
        <ele>2457</ele>
        <time>2019-01-11T12:44:52Z</time>
      </trkpt>
      <trkpt lat="45.2002" lon="5.9806">
        <ele>2460</ele>
        <time>2019-01-11T12:45:10Z</time>
      </trkpt>
      <trkpt lat="45.20032" lon="5.98061">
        <ele>2465</ele>
        <time>2019-01-11T12:45:46Z</time>
      </trkpt>
      <trkpt lat="45.2004" lon="5.98068">
        <ele>2470</ele>
        <time>2019-01-11T12:46:16Z</time>
      </trkpt>
      <trkpt lat="45.20038" lon="5.98076">
        <ele>2473</ele>
        <time>2019-01-11T12:46:28Z</time>
      </trkpt>
      <trkpt lat="45.20045" lon="5.98075">
        <ele>2477</ele>
        <time>2019-01-11T12:46:58Z</time>
      </trkpt>
      <trkpt lat="45.20047" lon="5.98069">
        <ele>2479</ele>
        <time>2019-01-11T12:47:10Z</time>
      </trkpt>
      <trkpt lat="45.2005" lon="5.98078">
        <ele>2480</ele>
        <time>2019-01-11T12:47:22Z</time>
      </trkpt>
      <trkpt lat="45.2005" lon="5.98086">
        <ele>2483</ele>
        <time>2019-01-11T12:47:52Z</time>
      </trkpt>
      <trkpt lat="45.20044" lon="5.98095">
        <ele>2484</ele>
        <time>2019-01-11T12:48:04Z</time>
      </trkpt>
      <trkpt lat="45.20047" lon="5.98102">
        <ele>2488</ele>
        <time>2019-01-11T12:48:23Z</time>
      </trkpt>
      <trkpt lat="45.20052" lon="5.98105">
        <ele>2489</ele>
        <time>2019-01-11T12:48:29Z</time>
      </trkpt>
      <trkpt lat="45.20047" lon="5.98109">
        <ele>2491</ele>
        <time>2019-01-11T12:48:45Z</time>
      </trkpt>
      <trkpt lat="45.20034" lon="5.98119">
        <ele>2494</ele>
        <time>2019-01-11T12:49:03Z</time>
      </trkpt>
      <trkpt lat="45.20027" lon="5.98127">
        <ele>2496</ele>
        <time>2019-01-11T12:49:14Z</time>
      </trkpt>
      <trkpt lat="45.20028" lon="5.98133">
        <ele>2498</ele>
        <time>2019-01-11T12:49:26Z</time>
      </trkpt>
      <trkpt lat="45.20023" lon="5.98129">
        <ele>2500</ele>
        <time>2019-01-11T12:50:43Z</time>
      </trkpt>
      <trkpt lat="45.20018" lon="5.98134">
        <ele>2499</ele>
        <time>2019-01-11T12:50:48Z</time>
      </trkpt>
      <trkpt lat="45.20014" lon="5.98139">
        <ele>2499</ele>
        <time>2019-01-11T12:50:53Z</time>
      </trkpt>
      <trkpt lat="45.2001" lon="5.98143">
        <ele>2503</ele>
        <time>2019-01-11T12:50:58Z</time>
      </trkpt>
      <trkpt lat="45.20008" lon="5.9815">
        <ele>2505</ele>
        <time>2019-01-11T12:51:07Z</time>
      </trkpt>
      <trkpt lat="45.2" lon="5.98143">
        <ele>2501</ele>
        <time>2019-01-11T12:53:22Z</time>
      </trkpt>
      <trkpt lat="45.19995" lon="5.98143">
        <ele>2500</ele>
        <time>2019-01-11T12:53:24Z</time>
      </trkpt>
      <trkpt lat="45.1999" lon="5.98145">
        <ele>2498</ele>
        <time>2019-01-11T12:53:27Z</time>
      </trkpt>
      <trkpt lat="45.19984" lon="5.98131">
        <ele>2495</ele>
        <time>2019-01-11T12:53:30Z</time>
      </trkpt>
      <trkpt lat="45.19981" lon="5.98125">
        <ele>2494</ele>
        <time>2019-01-11T12:53:32Z</time>
      </trkpt>
      <trkpt lat="45.19973" lon="5.98138">
        <ele>2489</ele>
        <time>2019-01-11T12:54:00Z</time>
      </trkpt>
      <trkpt lat="45.19971" lon="5.98148">
        <ele>2489</ele>
        <time>2019-01-11T12:54:02Z</time>
      </trkpt>
      <trkpt lat="45.19973" lon="5.982">
        <ele>2480</ele>
        <time>2019-01-11T12:54:12Z</time>
      </trkpt>
      <trkpt lat="45.19975" lon="5.98217">
        <ele>2475</ele>
        <time>2019-01-11T12:54:18Z</time>
      </trkpt>
      <trkpt lat="45.19974" lon="5.98224">
        <ele>2470</ele>
        <time>2019-01-11T12:54:25Z</time>
      </trkpt>
      <trkpt lat="45.1997" lon="5.98223">
        <ele>2467</ele>
        <time>2019-01-11T12:54:27Z</time>
      </trkpt>
      <trkpt lat="45.19966" lon="5.98227">
        <ele>2464</ele>
        <time>2019-01-11T12:54:30Z</time>
      </trkpt>
      <trkpt lat="45.19955" lon="5.98238">
        <ele>2452</ele>
        <time>2019-01-11T12:54:46Z</time>
      </trkpt>
      <trkpt lat="45.19948" lon="5.98243">
        <ele>2452</ele>
        <time>2019-01-11T12:54:49Z</time>
      </trkpt>
      <trkpt lat="45.19941" lon="5.98246">
        <ele>2450</ele>
        <time>2019-01-11T12:54:51Z</time>
      </trkpt>
      <trkpt lat="45.1992" lon="5.98243">
        <ele>2437</ele>
        <time>2019-01-11T12:54:56Z</time>
      </trkpt>
      <trkpt lat="45.19822" lon="5.98202">
        <ele>2369</ele>
        <time>2019-01-11T12:55:21Z</time>
      </trkpt>
      <trkpt lat="45.19801" lon="5.9821">
        <ele>2350</ele>
        <time>2019-01-11T12:55:29Z</time>
      </trkpt>
      <trkpt lat="45.1979" lon="5.98208">
        <ele>2340</ele>
        <time>2019-01-11T12:55:32Z</time>
      </trkpt>
      <trkpt lat="45.19793" lon="5.98192">
        <ele>2329</ele>
        <time>2019-01-11T12:55:44Z</time>
      </trkpt>
      <trkpt lat="45.1978" lon="5.982">
        <ele>2323</ele>
        <time>2019-01-11T12:55:51Z</time>
      </trkpt>
      <trkpt lat="45.1976" lon="5.98184">
        <ele>2310</ele>
        <time>2019-01-11T12:55:56Z</time>
      </trkpt>
      <trkpt lat="45.19738" lon="5.98181">
        <ele>2303</ele>
        <time>2019-01-11T12:55:58Z</time>
      </trkpt>
      <trkpt lat="45.19712" lon="5.98188">
        <ele>2292</ele>
        <time>2019-01-11T12:56:01Z</time>
      </trkpt>
      <trkpt lat="45.19699" lon="5.98188">
        <ele>2285</ele>
        <time>2019-01-11T12:56:03Z</time>
      </trkpt>
      <trkpt lat="45.19688" lon="5.98179">
        <ele>2276</ele>
        <time>2019-01-11T12:56:05Z</time>
      </trkpt>
      <trkpt lat="45.19683" lon="5.98164">
        <ele>2269</ele>
        <time>2019-01-11T12:56:07Z</time>
      </trkpt>
      <trkpt lat="45.19697" lon="5.98116">
        <ele>2265</ele>
        <time>2019-01-11T12:56:09Z</time>
      </trkpt>
      <trkpt lat="45.19704" lon="5.98071">
        <ele>2250</ele>
        <time>2019-01-11T12:56:13Z</time>
      </trkpt>
      <trkpt lat="45.1969" lon="5.98034">
        <ele>2231</ele>
        <time>2019-01-11T12:56:18Z</time>
      </trkpt>
      <trkpt lat="45.19652" lon="5.97965">
        <ele>2199</ele>
        <time>2019-01-11T12:56:27Z</time>
      </trkpt>
      <trkpt lat="45.19632" lon="5.97937">
        <ele>2188</ele>
        <time>2019-01-11T12:56:29Z</time>
      </trkpt>
      <trkpt lat="45.19548" lon="5.97769">
        <ele>2136</ele>
        <time>2019-01-11T12:56:48Z</time>
      </trkpt>
      <trkpt lat="45.19561" lon="5.97757">
        <ele>2119</ele>
        <time>2019-01-11T12:57:28Z</time>
      </trkpt>
      <trkpt lat="45.1956" lon="5.9777">
        <ele>2116</ele>
        <time>2019-01-11T12:58:46Z</time>
      </trkpt>
      <trkpt lat="45.19566" lon="5.97781">
        <ele>2106</ele>
        <time>2019-01-11T12:59:40Z</time>
      </trkpt>
      <trkpt lat="45.1957" lon="5.97794">
        <ele>2116</ele>
        <time>2019-01-11T13:00:18Z</time>
      </trkpt>
      <trkpt lat="45.19573" lon="5.97806">
        <ele>2117</ele>
        <time>2019-01-11T13:01:24Z</time>
      </trkpt>
      <trkpt lat="45.19579" lon="5.97818">
        <ele>2118</ele>
        <time>2019-01-11T13:03:42Z</time>
      </trkpt>
      <trkpt lat="45.19581" lon="5.97831">
        <ele>2120</ele>
        <time>2019-01-11T13:05:47Z</time>
      </trkpt>
      <trkpt lat="45.19588" lon="5.97844">
        <ele>2125</ele>
        <time>2019-01-11T13:06:49Z</time>
      </trkpt>
      <trkpt lat="45.19587" lon="5.97858">
        <ele>2123</ele>
        <time>2019-01-11T13:06:58Z</time>
      </trkpt>
      <trkpt lat="45.19593" lon="5.97863">
        <ele>2125</ele>
        <time>2019-01-11T13:07:08Z</time>
      </trkpt>
      <trkpt lat="45.19606" lon="5.97874">
        <ele>2129</ele>
        <time>2019-01-11T13:07:32Z</time>
      </trkpt>
      <trkpt lat="45.1961" lon="5.97884">
        <ele>2132</ele>
        <time>2019-01-11T13:08:08Z</time>
      </trkpt>
      <trkpt lat="45.19597" lon="5.97911">
        <ele>2137</ele>
        <time>2019-01-11T13:08:35Z</time>
      </trkpt>
      <trkpt lat="45.19594" lon="5.9792">
        <ele>2145</ele>
        <time>2019-01-11T13:08:54Z</time>
      </trkpt>
      <trkpt lat="45.19598" lon="5.97926">
        <ele>2142</ele>
        <time>2019-01-11T13:09:07Z</time>
      </trkpt>
      <trkpt lat="45.19601" lon="5.97934">
        <ele>2145</ele>
        <time>2019-01-11T13:09:19Z</time>
      </trkpt>
      <trkpt lat="45.19596" lon="5.97935">
        <ele>2146</ele>
        <time>2019-01-11T13:09:25Z</time>
      </trkpt>
      <trkpt lat="45.19581" lon="5.97952">
        <ele>2150</ele>
        <time>2019-01-11T13:09:47Z</time>
      </trkpt>
      <trkpt lat="45.19578" lon="5.97961">
        <ele>2152</ele>
        <time>2019-01-11T13:09:56Z</time>
      </trkpt>
      <trkpt lat="45.19576" lon="5.97972">
        <ele>2155</ele>
        <time>2019-01-11T13:10:08Z</time>
      </trkpt>
      <trkpt lat="45.19581" lon="5.97996">
        <ele>2160</ele>
        <time>2019-01-11T13:10:28Z</time>
      </trkpt>
      <trkpt lat="45.19586" lon="5.98007">
        <ele>2162</ele>
        <time>2019-01-11T13:10:38Z</time>
      </trkpt>
      <trkpt lat="45.19589" lon="5.9803">
        <ele>2166</ele>
        <time>2019-01-11T13:10:56Z</time>
      </trkpt>
      <trkpt lat="45.19589" lon="5.98036">
        <ele>2168</ele>
        <time>2019-01-11T13:11:00Z</time>
      </trkpt>
      <trkpt lat="45.19594" lon="5.98042">
        <ele>2170</ele>
        <time>2019-01-11T13:11:07Z</time>
      </trkpt>
      <trkpt lat="45.19599" lon="5.98059">
        <ele>2172</ele>
        <time>2019-01-11T13:11:19Z</time>
      </trkpt>
      <trkpt lat="45.19603" lon="5.98089">
        <ele>2177</ele>
        <time>2019-01-11T13:11:43Z</time>
      </trkpt>
      <trkpt lat="45.19602" lon="5.98096">
        <ele>2178</ele>
        <time>2019-01-11T13:11:48Z</time>
      </trkpt>
      <trkpt lat="45.19601" lon="5.98102">
        <ele>2179</ele>
        <time>2019-01-11T13:11:53Z</time>
      </trkpt>
      <trkpt lat="45.19578" lon="5.98143">
        <ele>2183</ele>
        <time>2019-01-11T13:12:25Z</time>
      </trkpt>
      <trkpt lat="45.19572" lon="5.98156">
        <ele>2184</ele>
        <time>2019-01-11T13:12:33Z</time>
      </trkpt>
      <trkpt lat="45.19565" lon="5.98191">
        <ele>2188</ele>
        <time>2019-01-11T13:12:59Z</time>
      </trkpt>
      <trkpt lat="45.19563" lon="5.98199">
        <ele>2190</ele>
        <time>2019-01-11T13:13:09Z</time>
      </trkpt>
      <trkpt lat="45.19559" lon="5.98228">
        <ele>2195</ele>
        <time>2019-01-11T13:13:36Z</time>
      </trkpt>
      <trkpt lat="45.19557" lon="5.98255">
        <ele>2199</ele>
        <time>2019-01-11T13:14:00Z</time>
      </trkpt>
      <trkpt lat="45.19551" lon="5.98266">
        <ele>2198</ele>
        <time>2019-01-11T13:14:18Z</time>
      </trkpt>
      <trkpt lat="45.19544" lon="5.98275">
        <ele>2209</ele>
        <time>2019-01-11T13:14:34Z</time>
      </trkpt>
      <trkpt lat="45.19542" lon="5.98284">
        <ele>2206</ele>
        <time>2019-01-11T13:14:52Z</time>
      </trkpt>
      <trkpt lat="45.19537" lon="5.98288">
        <ele>2204</ele>
        <time>2019-01-11T13:15:04Z</time>
      </trkpt>
      <trkpt lat="45.19533" lon="5.98293">
        <ele>2203</ele>
        <time>2019-01-11T13:15:17Z</time>
      </trkpt>
      <trkpt lat="45.19527" lon="5.98295">
        <ele>2202</ele>
        <time>2019-01-11T13:15:53Z</time>
      </trkpt>
      <trkpt lat="45.19521" lon="5.983">
        <ele>2209</ele>
        <time>2019-01-11T13:17:23Z</time>
      </trkpt>
      <trkpt lat="45.19516" lon="5.98304">
        <ele>2210</ele>
        <time>2019-01-11T13:17:35Z</time>
      </trkpt>
      <trkpt lat="45.19507" lon="5.98309">
        <ele>2209</ele>
        <time>2019-01-11T13:17:49Z</time>
      </trkpt>
      <trkpt lat="45.19503" lon="5.98313">
        <ele>2210</ele>
        <time>2019-01-11T13:17:54Z</time>
      </trkpt>
      <trkpt lat="45.19495" lon="5.98322">
        <ele>2210</ele>
        <time>2019-01-11T13:18:04Z</time>
      </trkpt>
      <trkpt lat="45.19482" lon="5.98338">
        <ele>2216</ele>
        <time>2019-01-11T13:18:59Z</time>
      </trkpt>
      <trkpt lat="45.19473" lon="5.98345">
        <ele>2215</ele>
        <time>2019-01-11T13:19:17Z</time>
      </trkpt>
      <trkpt lat="45.19466" lon="5.98351">
        <ele>2219</ele>
        <time>2019-01-11T13:19:41Z</time>
      </trkpt>
      <trkpt lat="45.1946" lon="5.98352">
        <ele>2221</ele>
        <time>2019-01-11T13:19:53Z</time>
      </trkpt>
      <trkpt lat="45.19447" lon="5.9836">
        <ele>2223</ele>
        <time>2019-01-11T13:20:10Z</time>
      </trkpt>
      <trkpt lat="45.19442" lon="5.98359">
        <ele>2224</ele>
        <time>2019-01-11T13:20:18Z</time>
      </trkpt>
      <trkpt lat="45.19427" lon="5.98363">
        <ele>2227</ele>
        <time>2019-01-11T13:20:42Z</time>
      </trkpt>
      <trkpt lat="45.19428" lon="5.98374">
        <ele>2228</ele>
        <time>2019-01-11T13:20:54Z</time>
      </trkpt>
      <trkpt lat="45.1943" lon="5.98381">
        <ele>2231</ele>
        <time>2019-01-11T13:21:06Z</time>
      </trkpt>
      <trkpt lat="45.19434" lon="5.98407">
        <ele>2237</ele>
        <time>2019-01-11T13:21:42Z</time>
      </trkpt>
      <trkpt lat="45.19437" lon="5.98423">
        <ele>2241</ele>
        <time>2019-01-11T13:22:06Z</time>
      </trkpt>
      <trkpt lat="45.19435" lon="5.98431">
        <ele>2242</ele>
        <time>2019-01-11T13:22:18Z</time>
      </trkpt>
      <trkpt lat="45.1942" lon="5.98443">
        <ele>2248</ele>
        <time>2019-01-11T13:22:54Z</time>
      </trkpt>
      <trkpt lat="45.19413" lon="5.98445">
        <ele>2248</ele>
        <time>2019-01-11T13:23:06Z</time>
      </trkpt>
      <trkpt lat="45.194" lon="5.98444">
        <ele>2252</ele>
        <time>2019-01-11T13:23:30Z</time>
      </trkpt>
      <trkpt lat="45.19395" lon="5.98445">
        <ele>2253</ele>
        <time>2019-01-11T13:23:36Z</time>
      </trkpt>
      <trkpt lat="45.19393" lon="5.98453">
        <ele>2256</ele>
        <time>2019-01-11T13:23:48Z</time>
      </trkpt>
      <trkpt lat="45.19394" lon="5.98464">
        <ele>2257</ele>
        <time>2019-01-11T13:24:06Z</time>
      </trkpt>
      <trkpt lat="45.19391" lon="5.98483">
        <ele>2262</ele>
        <time>2019-01-11T13:24:30Z</time>
      </trkpt>
      <trkpt lat="45.19391" lon="5.98491">
        <ele>2263</ele>
        <time>2019-01-11T13:24:42Z</time>
      </trkpt>
      <trkpt lat="45.19391" lon="5.98502">
        <ele>2265</ele>
        <time>2019-01-11T13:24:54Z</time>
      </trkpt>
      <trkpt lat="45.1939" lon="5.98509">
        <ele>2266</ele>
        <time>2019-01-11T13:25:06Z</time>
      </trkpt>
      <trkpt lat="45.19391" lon="5.98521">
        <ele>2268</ele>
        <time>2019-01-11T13:25:18Z</time>
      </trkpt>
      <trkpt lat="45.19391" lon="5.98529">
        <ele>2270</ele>
        <time>2019-01-11T13:25:29Z</time>
      </trkpt>
      <trkpt lat="45.1939" lon="5.98546">
        <ele>2274</ele>
        <time>2019-01-11T13:25:53Z</time>
      </trkpt>
      <trkpt lat="45.19386" lon="5.9855">
        <ele>2276</ele>
        <time>2019-01-11T13:26:11Z</time>
      </trkpt>
      <trkpt lat="45.1938" lon="5.98549">
        <ele>2278</ele>
        <time>2019-01-11T13:26:23Z</time>
      </trkpt>
      <trkpt lat="45.19365" lon="5.98548">
        <ele>2281</ele>
        <time>2019-01-11T13:26:47Z</time>
      </trkpt>
      <trkpt lat="45.19361" lon="5.98547">
        <ele>2283</ele>
        <time>2019-01-11T13:26:59Z</time>
      </trkpt>
      <trkpt lat="45.19354" lon="5.98542">
        <ele>2285</ele>
        <time>2019-01-11T13:27:11Z</time>
      </trkpt>
      <trkpt lat="45.19353" lon="5.98552">
        <ele>2287</ele>
        <time>2019-01-11T13:27:29Z</time>
      </trkpt>
      <trkpt lat="45.19354" lon="5.9856">
        <ele>2290</ele>
        <time>2019-01-11T13:27:47Z</time>
      </trkpt>
      <trkpt lat="45.19351" lon="5.9857">
        <ele>2292</ele>
        <time>2019-01-11T13:27:59Z</time>
      </trkpt>
      <trkpt lat="45.19351" lon="5.98577">
        <ele>2293</ele>
        <time>2019-01-11T13:28:11Z</time>
      </trkpt>
      <trkpt lat="45.19346" lon="5.98578">
        <ele>2296</ele>
        <time>2019-01-11T13:28:29Z</time>
      </trkpt>
      <trkpt lat="45.1934" lon="5.98576">
        <ele>2297</ele>
        <time>2019-01-11T13:28:41Z</time>
      </trkpt>
      <trkpt lat="45.19324" lon="5.98559">
        <ele>2303</ele>
        <time>2019-01-11T13:29:17Z</time>
      </trkpt>
      <trkpt lat="45.19315" lon="5.98548">
        <ele>2307</ele>
        <time>2019-01-11T13:29:41Z</time>
      </trkpt>
      <trkpt lat="45.19308" lon="5.98543">
        <ele>2309</ele>
        <time>2019-01-11T13:29:53Z</time>
      </trkpt>
      <trkpt lat="45.19303" lon="5.98558">
        <ele>2315</ele>
        <time>2019-01-11T13:30:29Z</time>
      </trkpt>
      <trkpt lat="45.19302" lon="5.98567">
        <ele>2317</ele>
        <time>2019-01-11T13:30:41Z</time>
      </trkpt>
      <trkpt lat="45.19291" lon="5.98558">
        <ele>2320</ele>
        <time>2019-01-11T13:31:05Z</time>
      </trkpt>
      <trkpt lat="45.19287" lon="5.98551">
        <ele>2322</ele>
        <time>2019-01-11T13:31:17Z</time>
      </trkpt>
      <trkpt lat="45.19283" lon="5.98548">
        <ele>2323</ele>
        <time>2019-01-11T13:31:29Z</time>
      </trkpt>
      <trkpt lat="45.19266" lon="5.98529">
        <ele>2329</ele>
        <time>2019-01-11T13:32:11Z</time>
      </trkpt>
      <trkpt lat="45.19258" lon="5.98516">
        <ele>2333</ele>
        <time>2019-01-11T13:32:34Z</time>
      </trkpt>
      <trkpt lat="45.19244" lon="5.98496">
        <ele>2338</ele>
        <time>2019-01-11T13:33:10Z</time>
      </trkpt>
      <trkpt lat="45.19228" lon="5.98485">
        <ele>2343</ele>
        <time>2019-01-11T13:33:46Z</time>
      </trkpt>
      <trkpt lat="45.19204" lon="5.98472">
        <ele>2347</ele>
        <time>2019-01-11T13:34:22Z</time>
      </trkpt>
      <trkpt lat="45.19199" lon="5.9847">
        <ele>2347</ele>
        <time>2019-01-11T13:34:28Z</time>
      </trkpt>
      <trkpt lat="45.19179" lon="5.98452">
        <ele>2351</ele>
        <time>2019-01-11T13:35:04Z</time>
      </trkpt>
      <trkpt lat="45.19172" lon="5.98446">
        <ele>2351</ele>
        <time>2019-01-11T13:35:16Z</time>
      </trkpt>
      <trkpt lat="45.19165" lon="5.98442">
        <ele>2353</ele>
        <time>2019-01-11T13:35:28Z</time>
      </trkpt>
      <trkpt lat="45.19157" lon="5.98438">
        <ele>2355</ele>
        <time>2019-01-11T13:35:40Z</time>
      </trkpt>
      <trkpt lat="45.19155" lon="5.9843">
        <ele>2357</ele>
        <time>2019-01-11T13:35:52Z</time>
      </trkpt>
      <trkpt lat="45.19155" lon="5.98423">
        <ele>2359</ele>
        <time>2019-01-11T13:36:04Z</time>
      </trkpt>
      <trkpt lat="45.19155" lon="5.98416">
        <ele>2361</ele>
        <time>2019-01-11T13:36:52Z</time>
      </trkpt>
      <trkpt lat="45.19155" lon="5.98409">
        <ele>2362</ele>
        <time>2019-01-11T13:36:58Z</time>
      </trkpt>
      <trkpt lat="45.19149" lon="5.98393">
        <ele>2365</ele>
        <time>2019-01-11T13:37:22Z</time>
      </trkpt>
      <trkpt lat="45.19143" lon="5.98391">
        <ele>2369</ele>
        <time>2019-01-11T13:38:04Z</time>
      </trkpt>
      <trkpt lat="45.19138" lon="5.98394">
        <ele>2371</ele>
        <time>2019-01-11T13:38:16Z</time>
      </trkpt>
      <trkpt lat="45.1913" lon="5.98397">
        <ele>2373</ele>
        <time>2019-01-11T13:38:28Z</time>
      </trkpt>
      <trkpt lat="45.19125" lon="5.98388">
        <ele>2389</ele>
        <time>2019-01-11T13:39:28Z</time>
      </trkpt>
      <trkpt lat="45.19121" lon="5.98379">
        <ele>2384</ele>
        <time>2019-01-11T13:39:39Z</time>
      </trkpt>
      <trkpt lat="45.19117" lon="5.98385">
        <ele>2382</ele>
        <time>2019-01-11T13:39:51Z</time>
      </trkpt>
      <trkpt lat="45.19109" lon="5.98401">
        <ele>2385</ele>
        <time>2019-01-11T13:40:15Z</time>
      </trkpt>
      <trkpt lat="45.19105" lon="5.98408">
        <ele>2387</ele>
        <time>2019-01-11T13:40:27Z</time>
      </trkpt>
      <trkpt lat="45.19095" lon="5.98401">
        <ele>2391</ele>
        <time>2019-01-11T13:41:03Z</time>
      </trkpt>
      <trkpt lat="45.19084" lon="5.9838">
        <ele>2398</ele>
        <time>2019-01-11T13:41:39Z</time>
      </trkpt>
      <trkpt lat="45.19078" lon="5.98366">
        <ele>2405</ele>
        <time>2019-01-11T13:42:33Z</time>
      </trkpt>
      <trkpt lat="45.19072" lon="5.98362">
        <ele>2406</ele>
        <time>2019-01-11T13:42:45Z</time>
      </trkpt>
      <trkpt lat="45.1907" lon="5.98369">
        <ele>2407</ele>
        <time>2019-01-11T13:43:09Z</time>
      </trkpt>
      <trkpt lat="45.1907" lon="5.98376">
        <ele>2411</ele>
        <time>2019-01-11T13:43:21Z</time>
      </trkpt>
      <trkpt lat="45.19065" lon="5.98376">
        <ele>2412</ele>
        <time>2019-01-11T13:43:33Z</time>
      </trkpt>
      <trkpt lat="45.1906" lon="5.98371">
        <ele>2414</ele>
        <time>2019-01-11T13:43:45Z</time>
      </trkpt>
      <trkpt lat="45.19056" lon="5.98367">
        <ele>2416</ele>
        <time>2019-01-11T13:43:57Z</time>
      </trkpt>
      <trkpt lat="45.19048" lon="5.98355">
        <ele>2420</ele>
        <time>2019-01-11T13:44:21Z</time>
      </trkpt>
      <trkpt lat="45.19047" lon="5.98364">
        <ele>2423</ele>
        <time>2019-01-11T13:44:45Z</time>
      </trkpt>
      <trkpt lat="45.19045" lon="5.98371">
        <ele>2424</ele>
        <time>2019-01-11T13:44:57Z</time>
      </trkpt>
      <trkpt lat="45.19042" lon="5.98366">
        <ele>2430</ele>
        <time>2019-01-11T13:45:51Z</time>
      </trkpt>
      <trkpt lat="45.19037" lon="5.9836">
        <ele>2432</ele>
        <time>2019-01-11T13:46:03Z</time>
      </trkpt>
      <trkpt lat="45.19035" lon="5.98368">
        <ele>2433</ele>
        <time>2019-01-11T13:46:21Z</time>
      </trkpt>
      <trkpt lat="45.19033" lon="5.98376">
        <ele>2434</ele>
        <time>2019-01-11T13:46:33Z</time>
      </trkpt>
      <trkpt lat="45.19031" lon="5.98385">
        <ele>2436</ele>
        <time>2019-01-11T13:46:45Z</time>
      </trkpt>
      <trkpt lat="45.19026" lon="5.98383">
        <ele>2440</ele>
        <time>2019-01-11T13:47:08Z</time>
      </trkpt>
      <trkpt lat="45.19022" lon="5.98376">
        <ele>2442</ele>
        <time>2019-01-11T13:47:20Z</time>
      </trkpt>
      <trkpt lat="45.19018" lon="5.98371">
        <ele>2443</ele>
        <time>2019-01-11T13:47:32Z</time>
      </trkpt>
      <trkpt lat="45.19013" lon="5.98378">
        <ele>2447</ele>
        <time>2019-01-11T13:48:02Z</time>
      </trkpt>
      <trkpt lat="45.19013" lon="5.98373">
        <ele>2498</ele>
        <time>2019-01-11T13:50:56Z</time>
      </trkpt>
      <trkpt lat="45.19008" lon="5.98372">
        <ele>2467</ele>
        <time>2019-01-11T13:51:25Z</time>
      </trkpt>
      <trkpt lat="45.19004" lon="5.98379">
        <ele>2459</ele>
        <time>2019-01-11T13:52:01Z</time>
      </trkpt>
      <trkpt lat="45.18993" lon="5.98377">
        <ele>2464</ele>
        <time>2019-01-11T13:52:43Z</time>
      </trkpt>
      <trkpt lat="45.18984" lon="5.98378">
        <ele>2471</ele>
        <time>2019-01-11T13:53:44Z</time>
      </trkpt>
      <trkpt lat="45.18976" lon="5.98385">
        <ele>2476</ele>
        <time>2019-01-11T13:54:31Z</time>
      </trkpt>
      <trkpt lat="45.18967" lon="5.98389">
        <ele>2483</ele>
        <time>2019-01-11T13:55:22Z</time>
      </trkpt>
      <trkpt lat="45.18966" lon="5.98403">
        <ele>2488</ele>
        <time>2019-01-11T13:55:58Z</time>
      </trkpt>
      <trkpt lat="45.18961" lon="5.98407">
        <ele>2493</ele>
        <time>2019-01-11T13:56:59Z</time>
      </trkpt>
      <trkpt lat="45.18959" lon="5.98414">
        <ele>2495</ele>
        <time>2019-01-11T13:57:11Z</time>
      </trkpt>
      <trkpt lat="45.18959" lon="5.98418">
        <ele>2499</ele>
        <time>2019-01-11T13:57:36Z</time>
      </trkpt>
      <trkpt lat="45.18956" lon="5.98418">
        <ele>2504</ele>
        <time>2019-01-11T13:58:12Z</time>
      </trkpt>
      <trkpt lat="45.18947" lon="5.98422">
        <ele>2506</ele>
        <time>2019-01-11T13:58:37Z</time>
      </trkpt>
      <trkpt lat="45.18945" lon="5.98429">
        <ele>2510</ele>
        <time>2019-01-11T13:59:07Z</time>
      </trkpt>
      <trkpt lat="45.18941" lon="5.98433">
        <ele>2513</ele>
        <time>2019-01-11T13:59:37Z</time>
      </trkpt>
      <trkpt lat="45.18946" lon="5.98439">
        <ele>2512</ele>
        <time>2019-01-11T14:00:07Z</time>
      </trkpt>
      <trkpt lat="45.18943" lon="5.98444">
        <ele>2519</ele>
        <time>2019-01-11T14:00:37Z</time>
      </trkpt>
      <trkpt lat="45.18937" lon="5.98445">
        <ele>2520</ele>
        <time>2019-01-11T14:00:50Z</time>
      </trkpt>
      <trkpt lat="45.18932" lon="5.98451">
        <ele>2525</ele>
        <time>2019-01-11T14:01:31Z</time>
      </trkpt>
      <trkpt lat="45.18927" lon="5.98454">
        <ele>2527</ele>
        <time>2019-01-11T14:01:43Z</time>
      </trkpt>
      <trkpt lat="45.18919" lon="5.98463">
        <ele>2538</ele>
        <time>2019-01-11T14:02:55Z</time>
      </trkpt>
      <trkpt lat="45.18907" lon="5.98471">
        <ele>2543</ele>
        <time>2019-01-11T14:03:37Z</time>
      </trkpt>
      <trkpt lat="45.18904" lon="5.98475">
        <ele>2547</ele>
        <time>2019-01-11T14:03:55Z</time>
      </trkpt>
      <trkpt lat="45.18904" lon="5.98482">
        <ele>2552</ele>
        <time>2019-01-11T14:04:13Z</time>
      </trkpt>
      <trkpt lat="45.18899" lon="5.98479">
        <ele>2557</ele>
        <time>2019-01-11T14:04:49Z</time>
      </trkpt>
      <trkpt lat="45.18889" lon="5.98483">
        <ele>2563</ele>
        <time>2019-01-11T14:05:11Z</time>
      </trkpt>
      <trkpt lat="45.18882" lon="5.98488">
        <ele>2572</ele>
        <time>2019-01-11T14:06:02Z</time>
      </trkpt>
      <trkpt lat="45.18873" lon="5.98496">
        <ele>2584</ele>
        <time>2019-01-11T14:07:15Z</time>
      </trkpt>
      <trkpt lat="45.18865" lon="5.98506">
        <ele>2591</ele>
        <time>2019-01-11T14:08:41Z</time>
      </trkpt>
      <trkpt lat="45.18855" lon="5.9851">
        <ele>2605</ele>
        <time>2019-01-11T14:09:53Z</time>
      </trkpt>
      <trkpt lat="45.18847" lon="5.98514">
        <ele>2613</ele>
        <time>2019-01-11T14:10:29Z</time>
      </trkpt>
      <trkpt lat="45.18838" lon="5.9852">
        <ele>2622</ele>
        <time>2019-01-11T14:11:17Z</time>
      </trkpt>
      <trkpt lat="45.18829" lon="5.9852">
        <ele>2635</ele>
        <time>2019-01-11T14:12:42Z</time>
      </trkpt>
      <trkpt lat="45.18819" lon="5.98521">
        <ele>2644</ele>
        <time>2019-01-11T14:13:24Z</time>
      </trkpt>
      <trkpt lat="45.18815" lon="5.98514">
        <ele>2650</ele>
        <time>2019-01-11T14:13:42Z</time>
      </trkpt>
      <trkpt lat="45.18814" lon="5.98512">
        <ele>2651</ele>
        <time>2019-01-11T14:16:47Z</time>
      </trkpt>
      <trkpt lat="45.18814" lon="5.9851">
        <ele>2636</ele>
        <time>2019-01-11T14:18:13Z</time>
      </trkpt>
      <trkpt lat="45.18811" lon="5.98505">
        <ele>2611</ele>
        <time>2019-01-11T14:18:50Z</time>
      </trkpt>
      <trkpt lat="45.18801" lon="5.98517">
        <ele>2660</ele>
        <time>2019-01-11T14:19:33Z</time>
      </trkpt>
      <trkpt lat="45.18791" lon="5.98523">
        <ele>2660</ele>
        <time>2019-01-11T14:19:36Z</time>
      </trkpt>
      <trkpt lat="45.18757" lon="5.98536">
        <ele>2641</ele>
        <time>2019-01-11T14:19:42Z</time>
      </trkpt>
      <trkpt lat="45.18689" lon="5.98536">
        <ele>2599</ele>
        <time>2019-01-11T14:19:54Z</time>
      </trkpt>
      <trkpt lat="45.18681" lon="5.9854">
        <ele>2592</ele>
        <time>2019-01-11T14:19:58Z</time>
      </trkpt>
      <trkpt lat="45.18672" lon="5.98531">
        <ele>2590</ele>
        <time>2019-01-11T14:20:03Z</time>
      </trkpt>
      <trkpt lat="45.18657" lon="5.98506">
        <ele>2582</ele>
        <time>2019-01-11T14:20:08Z</time>
      </trkpt>
      <trkpt lat="45.1865" lon="5.98509">
        <ele>2575</ele>
        <time>2019-01-11T14:20:35Z</time>
      </trkpt>
      <trkpt lat="45.18655" lon="5.98501">
        <ele>2575</ele>
        <time>2019-01-11T14:22:18Z</time>
      </trkpt>
      <trkpt lat="45.18652" lon="5.98503">
        <ele>2570</ele>
        <time>2019-01-11T14:23:30Z</time>
      </trkpt>
      <trkpt lat="45.18642" lon="5.98503">
        <ele>2574</ele>
        <time>2019-01-11T14:27:36Z</time>
      </trkpt>
      <trkpt lat="45.18633" lon="5.98502">
        <ele>2573</ele>
        <time>2019-01-11T14:27:38Z</time>
      </trkpt>
      <trkpt lat="45.18622" lon="5.98501">
        <ele>2575</ele>
        <time>2019-01-11T14:27:40Z</time>
      </trkpt>
      <trkpt lat="45.18552" lon="5.98492">
        <ele>2539</ele>
        <time>2019-01-11T14:27:54Z</time>
      </trkpt>
      <trkpt lat="45.18466" lon="5.98443">
        <ele>2483</ele>
        <time>2019-01-11T14:28:10Z</time>
      </trkpt>
      <trkpt lat="45.18439" lon="5.98448">
        <ele>2470</ele>
        <time>2019-01-11T14:28:13Z</time>
      </trkpt>
      <trkpt lat="45.18397" lon="5.98424">
        <ele>2448</ele>
        <time>2019-01-11T14:28:20Z</time>
      </trkpt>
      <trkpt lat="45.18374" lon="5.98399">
        <ele>2438</ele>
        <time>2019-01-11T14:28:24Z</time>
      </trkpt>
      <trkpt lat="45.18385" lon="5.98391">
        <ele>2407</ele>
        <time>2019-01-11T14:28:49Z</time>
      </trkpt>
      <trkpt lat="45.18374" lon="5.98385">
        <ele>2438</ele>
        <time>2019-01-11T14:29:29Z</time>
      </trkpt>
      <trkpt lat="45.18356" lon="5.98347">
        <ele>2421</ele>
        <time>2019-01-11T14:29:35Z</time>
      </trkpt>
      <trkpt lat="45.18314" lon="5.98275">
        <ele>2404</ele>
        <time>2019-01-11T14:29:42Z</time>
      </trkpt>
      <trkpt lat="45.18314" lon="5.98261">
        <ele>2400</ele>
        <time>2019-01-11T14:29:43Z</time>
      </trkpt>
      <trkpt lat="45.18318" lon="5.9824">
        <ele>2389</ele>
        <time>2019-01-11T14:29:45Z</time>
      </trkpt>
      <trkpt lat="45.18315" lon="5.98226">
        <ele>2388</ele>
        <time>2019-01-11T14:29:47Z</time>
      </trkpt>
      <trkpt lat="45.1831" lon="5.98211">
        <ele>2389</ele>
        <time>2019-01-11T14:29:49Z</time>
      </trkpt>
      <trkpt lat="45.18289" lon="5.98194">
        <ele>2388</ele>
        <time>2019-01-11T14:29:52Z</time>
      </trkpt>
      <trkpt lat="45.18264" lon="5.98138">
        <ele>2356</ele>
        <time>2019-01-11T14:30:00Z</time>
      </trkpt>
      <trkpt lat="45.18257" lon="5.98126">
        <ele>2354</ele>
        <time>2019-01-11T14:30:02Z</time>
      </trkpt>
      <trkpt lat="45.1825" lon="5.98117">
        <ele>2354</ele>
        <time>2019-01-11T14:30:04Z</time>
      </trkpt>
      <trkpt lat="45.18258" lon="5.98105">
        <ele>2340</ele>
        <time>2019-01-11T14:30:27Z</time>
      </trkpt>
      <trkpt lat="45.18271" lon="5.98101">
        <ele>2335</ele>
        <time>2019-01-11T14:31:32Z</time>
      </trkpt>
      <trkpt lat="45.18267" lon="5.98116">
        <ele>2330</ele>
        <time>2019-01-11T14:31:42Z</time>
      </trkpt>
      <trkpt lat="45.17756" lon="5.96706">
        <ele>2194</ele>
        <time>2019-01-11T14:59:09Z</time>
      </trkpt>
      <trkpt lat="45.17761" lon="5.96698">
        <ele>2194</ele>
        <time>2019-01-11T15:00:38Z</time>
      </trkpt>
      <trkpt lat="45.17766" lon="5.96662">
        <ele>2199</ele>
        <time>2019-01-11T15:01:11Z</time>
      </trkpt>
      <trkpt lat="45.17765" lon="5.96656">
        <ele>2200</ele>
        <time>2019-01-11T15:01:16Z</time>
      </trkpt>
      <trkpt lat="45.1776" lon="5.96654">
        <ele>2201</ele>
        <time>2019-01-11T15:01:24Z</time>
      </trkpt>
      <trkpt lat="45.17755" lon="5.96655">
        <ele>2202</ele>
        <time>2019-01-11T15:01:30Z</time>
      </trkpt>
      <trkpt lat="45.17752" lon="5.96645">
        <ele>2207</ele>
        <time>2019-01-11T15:01:54Z</time>
      </trkpt>
      <trkpt lat="45.17745" lon="5.96618">
        <ele>2214</ele>
        <time>2019-01-11T15:02:31Z</time>
      </trkpt>
      <trkpt lat="45.17747" lon="5.96605">
        <ele>2218</ele>
        <time>2019-01-11T15:02:51Z</time>
      </trkpt>
      <trkpt lat="45.17743" lon="5.96591">
        <ele>2224</ele>
        <time>2019-01-11T15:03:15Z</time>
      </trkpt>
      <trkpt lat="45.1774" lon="5.96585">
        <ele>2226</ele>
        <time>2019-01-11T15:03:27Z</time>
      </trkpt>
      <trkpt lat="45.17734" lon="5.96587">
        <ele>2230</ele>
        <time>2019-01-11T15:03:39Z</time>
      </trkpt>
      <trkpt lat="45.17726" lon="5.96592">
        <ele>2230</ele>
        <time>2019-01-11T15:03:51Z</time>
      </trkpt>
      <trkpt lat="45.17714" lon="5.96598">
        <ele>2233</ele>
        <time>2019-01-11T15:04:09Z</time>
      </trkpt>
      <trkpt lat="45.17709" lon="5.96594">
        <ele>2236</ele>
        <time>2019-01-11T15:04:23Z</time>
      </trkpt>
      <trkpt lat="45.17706" lon="5.96584">
        <ele>2238</ele>
        <time>2019-01-11T15:04:35Z</time>
      </trkpt>
      <trkpt lat="45.17702" lon="5.96579">
        <ele>2240</ele>
        <time>2019-01-11T15:04:40Z</time>
      </trkpt>
      <trkpt lat="45.17697" lon="5.96571">
        <ele>2241</ele>
        <time>2019-01-11T15:04:49Z</time>
      </trkpt>
      <trkpt lat="45.17695" lon="5.96565">
        <ele>2243</ele>
        <time>2019-01-11T15:04:55Z</time>
      </trkpt>
      <trkpt lat="45.1769" lon="5.96565">
        <ele>2245</ele>
        <time>2019-01-11T15:05:05Z</time>
      </trkpt>
      <trkpt lat="45.17683" lon="5.9657">
        <ele>2248</ele>
        <time>2019-01-11T15:05:17Z</time>
      </trkpt>
      <trkpt lat="45.17674" lon="5.96575">
        <ele>2251</ele>
        <time>2019-01-11T15:05:29Z</time>
      </trkpt>
      <trkpt lat="45.17661" lon="5.96549">
        <ele>2256</ele>
        <time>2019-01-11T15:05:57Z</time>
      </trkpt>
      <trkpt lat="45.17658" lon="5.9654">
        <ele>2258</ele>
        <time>2019-01-11T15:06:06Z</time>
      </trkpt>
      <trkpt lat="45.17659" lon="5.96514">
        <ele>2265</ele>
        <time>2019-01-11T15:06:42Z</time>
      </trkpt>
      <trkpt lat="45.17656" lon="5.96504">
        <ele>2266</ele>
        <time>2019-01-11T15:06:54Z</time>
      </trkpt>
      <trkpt lat="45.17651" lon="5.96497">
        <ele>2268</ele>
        <time>2019-01-11T15:07:06Z</time>
      </trkpt>
      <trkpt lat="45.1765" lon="5.9649">
        <ele>2271</ele>
        <time>2019-01-11T15:07:17Z</time>
      </trkpt>
      <trkpt lat="45.17647" lon="5.96482">
        <ele>2274</ele>
        <time>2019-01-11T15:07:29Z</time>
      </trkpt>
      <trkpt lat="45.17641" lon="5.96481">
        <ele>2276</ele>
        <time>2019-01-11T15:07:41Z</time>
      </trkpt>
      <trkpt lat="45.17636" lon="5.96487">
        <ele>2278</ele>
        <time>2019-01-11T15:07:53Z</time>
      </trkpt>
      <trkpt lat="45.17627" lon="5.96503">
        <ele>2283</ele>
        <time>2019-01-11T15:08:17Z</time>
      </trkpt>
      <trkpt lat="45.17622" lon="5.96495">
        <ele>2286</ele>
        <time>2019-01-11T15:08:35Z</time>
      </trkpt>
      <trkpt lat="45.1762" lon="5.96489">
        <ele>2289</ele>
        <time>2019-01-11T15:08:47Z</time>
      </trkpt>
      <trkpt lat="45.17608" lon="5.96468">
        <ele>2294</ele>
        <time>2019-01-11T15:09:12Z</time>
      </trkpt>
      <trkpt lat="45.17601" lon="5.9647">
        <ele>2296</ele>
        <time>2019-01-11T15:09:27Z</time>
      </trkpt>
      <trkpt lat="45.17599" lon="5.96477">
        <ele>2298</ele>
        <time>2019-01-11T15:09:39Z</time>
      </trkpt>
      <trkpt lat="45.17605" lon="5.96475">
        <ele>2298</ele>
        <time>2019-01-11T15:10:06Z</time>
      </trkpt>
      <trkpt lat="45.17605" lon="5.96483">
        <ele>2303</ele>
        <time>2019-01-11T15:10:23Z</time>
      </trkpt>
      <trkpt lat="45.17602" lon="5.96487">
        <ele>2301</ele>
        <time>2019-01-11T15:10:29Z</time>
      </trkpt>
      <trkpt lat="45.17596" lon="5.9649">
        <ele>2302</ele>
        <time>2019-01-11T15:10:41Z</time>
      </trkpt>
      <trkpt lat="45.1759" lon="5.96479">
        <ele>2305</ele>
        <time>2019-01-11T15:10:55Z</time>
      </trkpt>
      <trkpt lat="45.17587" lon="5.9647">
        <ele>2307</ele>
        <time>2019-01-11T15:11:07Z</time>
      </trkpt>
      <trkpt lat="45.17584" lon="5.96462">
        <ele>2309</ele>
        <time>2019-01-11T15:11:19Z</time>
      </trkpt>
      <trkpt lat="45.17571" lon="5.96429">
        <ele>2317</ele>
        <time>2019-01-11T15:11:57Z</time>
      </trkpt>
      <trkpt lat="45.17571" lon="5.96421">
        <ele>2329</ele>
        <time>2019-01-11T15:12:51Z</time>
      </trkpt>
      <trkpt lat="45.17571" lon="5.96411">
        <ele>2323</ele>
        <time>2019-01-11T15:13:03Z</time>
      </trkpt>
      <trkpt lat="45.17568" lon="5.96404">
        <ele>2324</ele>
        <time>2019-01-11T15:13:09Z</time>
      </trkpt>
      <trkpt lat="45.17565" lon="5.96397">
        <ele>2323</ele>
        <time>2019-01-11T15:13:16Z</time>
      </trkpt>
      <trkpt lat="45.17562" lon="5.96391">
        <ele>2323</ele>
        <time>2019-01-11T15:13:20Z</time>
      </trkpt>
      <trkpt lat="45.17562" lon="5.96382">
        <ele>2325</ele>
        <time>2019-01-11T15:13:28Z</time>
      </trkpt>
      <trkpt lat="45.17559" lon="5.96376">
        <ele>2325</ele>
        <time>2019-01-11T15:13:42Z</time>
      </trkpt>
      <trkpt lat="45.17559" lon="5.96367">
        <ele>2329</ele>
        <time>2019-01-11T15:14:00Z</time>
      </trkpt>
      <trkpt lat="45.17556" lon="5.96357">
        <ele>2331</ele>
        <time>2019-01-11T15:14:12Z</time>
      </trkpt>
      <trkpt lat="45.17559" lon="5.96352">
        <ele>2336</ele>
        <time>2019-01-11T15:15:23Z</time>
      </trkpt>
      <trkpt lat="45.17555" lon="5.96346">
        <ele>2334</ele>
        <time>2019-01-11T15:15:29Z</time>
      </trkpt>
      <trkpt lat="45.17534" lon="5.96314">
        <ele>2340</ele>
        <time>2019-01-11T15:16:04Z</time>
      </trkpt>
      <trkpt lat="45.1753" lon="5.96318">
        <ele>2344</ele>
        <time>2019-01-11T15:16:22Z</time>
      </trkpt>
      <trkpt lat="45.17526" lon="5.96326">
        <ele>2347</ele>
        <time>2019-01-11T15:16:34Z</time>
      </trkpt>
      <trkpt lat="45.17519" lon="5.9632">
        <ele>2349</ele>
        <time>2019-01-11T15:16:51Z</time>
      </trkpt>
      <trkpt lat="45.17516" lon="5.96303">
        <ele>2352</ele>
        <time>2019-01-11T15:17:08Z</time>
      </trkpt>
      <trkpt lat="45.1751" lon="5.96284">
        <ele>2354</ele>
        <time>2019-01-11T15:17:24Z</time>
      </trkpt>
      <trkpt lat="45.1751" lon="5.96277">
        <ele>2356</ele>
        <time>2019-01-11T15:17:32Z</time>
      </trkpt>
      <trkpt lat="45.17509" lon="5.96265">
        <ele>2357</ele>
        <time>2019-01-11T15:17:44Z</time>
      </trkpt>
      <trkpt lat="45.17511" lon="5.96256">
        <ele>2360</ele>
        <time>2019-01-11T15:17:55Z</time>
      </trkpt>
      <trkpt lat="45.17511" lon="5.96245">
        <ele>2361</ele>
        <time>2019-01-11T15:18:07Z</time>
      </trkpt>
      <trkpt lat="45.17514" lon="5.96222">
        <ele>2365</ele>
        <time>2019-01-11T15:18:31Z</time>
      </trkpt>
      <trkpt lat="45.17513" lon="5.96216">
        <ele>2366</ele>
        <time>2019-01-11T15:18:37Z</time>
      </trkpt>
      <trkpt lat="45.17513" lon="5.96209">
        <ele>2367</ele>
        <time>2019-01-11T15:18:43Z</time>
      </trkpt>
      <trkpt lat="45.1751" lon="5.96193">
        <ele>2370</ele>
        <time>2019-01-11T15:18:58Z</time>
      </trkpt>
      <trkpt lat="45.17508" lon="5.96188">
        <ele>2369</ele>
        <time>2019-01-11T15:19:09Z</time>
      </trkpt>
      <trkpt lat="45.17507" lon="5.9618">
        <ele>2375</ele>
        <time>2019-01-11T15:20:09Z</time>
      </trkpt>
      <trkpt lat="45.1751" lon="5.96173">
        <ele>2372</ele>
        <time>2019-01-11T15:20:35Z</time>
      </trkpt>
      <trkpt lat="45.17508" lon="5.96164">
        <ele>2372</ele>
        <time>2019-01-11T15:20:47Z</time>
      </trkpt>
      <trkpt lat="45.17508" lon="5.96153">
        <ele>2374</ele>
        <time>2019-01-11T15:20:59Z</time>
      </trkpt>
      <trkpt lat="45.17509" lon="5.96144">
        <ele>2377</ele>
        <time>2019-01-11T15:21:11Z</time>
      </trkpt>
      <trkpt lat="45.17509" lon="5.96133">
        <ele>2378</ele>
        <time>2019-01-11T15:21:23Z</time>
      </trkpt>
      <trkpt lat="45.17506" lon="5.9612">
        <ele>2380</ele>
        <time>2019-01-11T15:21:34Z</time>
      </trkpt>
      <trkpt lat="45.17504" lon="5.96112">
        <ele>2381</ele>
        <time>2019-01-11T15:21:42Z</time>
      </trkpt>
      <trkpt lat="45.17502" lon="5.96101">
        <ele>2383</ele>
        <time>2019-01-11T15:21:54Z</time>
      </trkpt>
      <trkpt lat="45.17501" lon="5.9608">
        <ele>2388</ele>
        <time>2019-01-11T15:22:18Z</time>
      </trkpt>
      <trkpt lat="45.17498" lon="5.96069">
        <ele>2390</ele>
        <time>2019-01-11T15:22:30Z</time>
      </trkpt>
      <trkpt lat="45.17494" lon="5.96061">
        <ele>2392</ele>
        <time>2019-01-11T15:22:42Z</time>
      </trkpt>
      <trkpt lat="45.17489" lon="5.96032">
        <ele>2397</ele>
        <time>2019-01-11T15:23:18Z</time>
      </trkpt>
      <trkpt lat="45.1749" lon="5.96004">
        <ele>2403</ele>
        <time>2019-01-11T15:23:54Z</time>
      </trkpt>
      <trkpt lat="45.17492" lon="5.95986">
        <ele>2408</ele>
        <time>2019-01-11T15:24:18Z</time>
      </trkpt>
      <trkpt lat="45.17496" lon="5.95978">
        <ele>2410</ele>
        <time>2019-01-11T15:25:18Z</time>
      </trkpt>
      <trkpt lat="45.17501" lon="5.95961">
        <ele>2413</ele>
        <time>2019-01-11T15:25:36Z</time>
      </trkpt>
      <trkpt lat="45.175" lon="5.95955">
        <ele>2415</ele>
        <time>2019-01-11T15:25:42Z</time>
      </trkpt>
      <trkpt lat="45.17505" lon="5.95948">
        <ele>2417</ele>
        <time>2019-01-11T15:25:54Z</time>
      </trkpt>
      <trkpt lat="45.175" lon="5.95944">
        <ele>2419</ele>
        <time>2019-01-11T15:26:18Z</time>
      </trkpt>
      <trkpt lat="45.17495" lon="5.95945">
        <ele>2421</ele>
        <time>2019-01-11T15:26:30Z</time>
      </trkpt>
      <trkpt lat="45.17488" lon="5.95946">
        <ele>2423</ele>
        <time>2019-01-11T15:26:42Z</time>
      </trkpt>
      <trkpt lat="45.17494" lon="5.95929">
        <ele>2429</ele>
        <time>2019-01-11T15:27:18Z</time>
      </trkpt>
      <trkpt lat="45.17482" lon="5.95924">
        <ele>2435</ele>
        <time>2019-01-11T15:27:54Z</time>
      </trkpt>
      <trkpt lat="45.17476" lon="5.95925">
        <ele>2436</ele>
        <time>2019-01-11T15:28:06Z</time>
      </trkpt>
      <trkpt lat="45.17483" lon="5.95913">
        <ele>2441</ele>
        <time>2019-01-11T15:28:42Z</time>
      </trkpt>
      <trkpt lat="45.17485" lon="5.95905">
        <ele>2443</ele>
        <time>2019-01-11T15:28:53Z</time>
      </trkpt>
      <trkpt lat="45.17479" lon="5.95902">
        <ele>2446</ele>
        <time>2019-01-11T15:29:11Z</time>
      </trkpt>
      <trkpt lat="45.17474" lon="5.95898">
        <ele>2448</ele>
        <time>2019-01-11T15:29:23Z</time>
      </trkpt>
      <trkpt lat="45.17469" lon="5.95898">
        <ele>2450</ele>
        <time>2019-01-11T15:29:35Z</time>
      </trkpt>
      <trkpt lat="45.17471" lon="5.9589">
        <ele>2453</ele>
        <time>2019-01-11T15:29:53Z</time>
      </trkpt>
      <trkpt lat="45.17467" lon="5.95884">
        <ele>2456</ele>
        <time>2019-01-11T15:30:17Z</time>
      </trkpt>
      <trkpt lat="45.17466" lon="5.95884">
        <ele>2459</ele>
        <time>2019-01-11T15:32:59Z</time>
      </trkpt>
      <trkpt lat="45.17463" lon="5.95879">
        <ele>2461</ele>
        <time>2019-01-11T15:33:35Z</time>
      </trkpt>
      <trkpt lat="45.17461" lon="5.95868">
        <ele>2464</ele>
        <time>2019-01-11T15:34:11Z</time>
      </trkpt>
      <trkpt lat="45.17458" lon="5.95855">
        <ele>2474</ele>
        <time>2019-01-11T15:35:26Z</time>
      </trkpt>
      <trkpt lat="45.1746" lon="5.95849">
        <ele>2478</ele>
        <time>2019-01-11T15:35:55Z</time>
      </trkpt>
      <trkpt lat="45.17456" lon="5.95847">
        <ele>2481</ele>
        <time>2019-01-11T15:36:13Z</time>
      </trkpt>
      <trkpt lat="45.17454" lon="5.95839">
        <ele>2489</ele>
        <time>2019-01-11T15:37:13Z</time>
      </trkpt>
      <trkpt lat="45.17451" lon="5.95832">
        <ele>2493</ele>
        <time>2019-01-11T15:37:37Z</time>
      </trkpt>
      <trkpt lat="45.17444" lon="5.9583">
        <ele>2501</ele>
        <time>2019-01-11T15:38:43Z</time>
      </trkpt>
      <trkpt lat="45.17437" lon="5.95818">
        <ele>2511</ele>
        <time>2019-01-11T15:39:37Z</time>
      </trkpt>
      <trkpt lat="45.17435" lon="5.95812">
        <ele>2508</ele>
        <time>2019-01-11T15:40:19Z</time>
      </trkpt>
      <trkpt lat="45.17434" lon="5.95806">
        <ele>2516</ele>
        <time>2019-01-11T15:40:37Z</time>
      </trkpt>
      <trkpt lat="45.17436" lon="5.958">
        <ele>2520</ele>
        <time>2019-01-11T15:41:01Z</time>
      </trkpt>
      <trkpt lat="45.17439" lon="5.95798">
        <ele>2530</ele>
        <time>2019-01-11T15:42:09Z</time>
      </trkpt>
      <trkpt lat="45.17438" lon="5.95789">
        <ele>2534</ele>
        <time>2019-01-11T15:43:03Z</time>
      </trkpt>
      <trkpt lat="45.17437" lon="5.95783">
        <ele>2538</ele>
        <time>2019-01-11T15:43:14Z</time>
      </trkpt>
      <trkpt lat="45.17434" lon="5.95776">
        <ele>2537</ele>
        <time>2019-01-11T15:44:44Z</time>
      </trkpt>
      <trkpt lat="45.17429" lon="5.95772">
        <ele>2537</ele>
        <time>2019-01-11T15:49:40Z</time>
      </trkpt>
      <trkpt lat="45.17423" lon="5.95769">
        <ele>2526</ele>
        <time>2019-01-11T15:49:45Z</time>
      </trkpt>
      <trkpt lat="45.17415" lon="5.9576">
        <ele>2527</ele>
        <time>2019-01-11T15:49:47Z</time>
      </trkpt>
      <trkpt lat="45.17408" lon="5.95753">
        <ele>2527</ele>
        <time>2019-01-11T15:49:49Z</time>
      </trkpt>
      <trkpt lat="45.17401" lon="5.95742">
        <ele>2521</ele>
        <time>2019-01-11T15:49:51Z</time>
      </trkpt>
      <trkpt lat="45.17395" lon="5.95619">
        <ele>2485</ele>
        <time>2019-01-11T15:50:01Z</time>
      </trkpt>
      <trkpt lat="45.17404" lon="5.95607">
        <ele>2478</ele>
        <time>2019-01-11T15:50:06Z</time>
      </trkpt>
      <trkpt lat="45.1741" lon="5.95577">
        <ele>2474</ele>
        <time>2019-01-11T15:50:12Z</time>
      </trkpt>
      <trkpt lat="45.17413" lon="5.95568">
        <ele>2471</ele>
        <time>2019-01-11T15:50:16Z</time>
      </trkpt>
      <trkpt lat="45.17418" lon="5.95576">
        <ele>2466</ele>
        <time>2019-01-11T15:50:26Z</time>
      </trkpt>
      <trkpt lat="45.17422" lon="5.95578">
        <ele>2468</ele>
        <time>2019-01-11T15:50:40Z</time>
      </trkpt>
      <trkpt lat="45.17433" lon="5.95565">
        <ele>2456</ele>
        <time>2019-01-11T15:51:10Z</time>
      </trkpt>
      <trkpt lat="45.17439" lon="5.95563">
        <ele>2451</ele>
        <time>2019-01-11T15:51:17Z</time>
      </trkpt>
      <trkpt lat="45.17445" lon="5.95562">
        <ele>2452</ele>
        <time>2019-01-11T15:51:22Z</time>
      </trkpt>
      <trkpt lat="45.17453" lon="5.95553">
        <ele>2441</ele>
        <time>2019-01-11T15:51:38Z</time>
      </trkpt>
      <trkpt lat="45.17457" lon="5.95544">
        <ele>2442</ele>
        <time>2019-01-11T15:52:20Z</time>
      </trkpt>
      <trkpt lat="45.17454" lon="5.95521">
        <ele>2424</ele>
        <time>2019-01-11T15:52:44Z</time>
      </trkpt>
      <trkpt lat="45.17456" lon="5.95507">
        <ele>2421</ele>
        <time>2019-01-11T15:52:46Z</time>
      </trkpt>
      <trkpt lat="45.17454" lon="5.95445">
        <ele>2406</ele>
        <time>2019-01-11T15:52:52Z</time>
      </trkpt>
      <trkpt lat="45.17455" lon="5.95424">
        <ele>2399</ele>
        <time>2019-01-11T15:52:54Z</time>
      </trkpt>
      <trkpt lat="45.1747" lon="5.95372">
        <ele>2383</ele>
        <time>2019-01-11T15:53:01Z</time>
      </trkpt>
      <trkpt lat="45.17481" lon="5.95373">
        <ele>2372</ele>
        <time>2019-01-11T15:53:06Z</time>
      </trkpt>
      <trkpt lat="45.17493" lon="5.95379">
        <ele>2362</ele>
        <time>2019-01-11T15:53:09Z</time>
      </trkpt>
      <trkpt lat="45.17496" lon="5.95396">
        <ele>2352</ele>
        <time>2019-01-11T15:53:17Z</time>
      </trkpt>
      <trkpt lat="45.17507" lon="5.9539">
        <ele>2348</ele>
        <time>2019-01-11T15:53:45Z</time>
      </trkpt>
      <trkpt lat="45.1752" lon="5.95386">
        <ele>2322</ele>
        <time>2019-01-11T15:53:49Z</time>
      </trkpt>
      <trkpt lat="45.17531" lon="5.9538">
        <ele>2327</ele>
        <time>2019-01-11T15:53:52Z</time>
      </trkpt>
      <trkpt lat="45.17538" lon="5.9537">
        <ele>2327</ele>
        <time>2019-01-11T15:53:54Z</time>
      </trkpt>
      <trkpt lat="45.17547" lon="5.95338">
        <ele>2318</ele>
        <time>2019-01-11T15:53:58Z</time>
      </trkpt>
      <trkpt lat="45.17549" lon="5.95322">
        <ele>2312</ele>
        <time>2019-01-11T15:54:00Z</time>
      </trkpt>
      <trkpt lat="45.17558" lon="5.9531">
        <ele>2303</ele>
        <time>2019-01-11T15:54:03Z</time>
      </trkpt>
      <trkpt lat="45.17593" lon="5.95286">
        <ele>2281</ele>
        <time>2019-01-11T15:54:11Z</time>
      </trkpt>
      <trkpt lat="45.17603" lon="5.95288">
        <ele>2273</ele>
        <time>2019-01-11T15:54:14Z</time>
      </trkpt>
      <trkpt lat="45.17601" lon="5.95296">
        <ele>2261</ele>
        <time>2019-01-11T15:54:40Z</time>
      </trkpt>
      <trkpt lat="45.17597" lon="5.95303">
        <ele>2258</ele>
        <time>2019-01-11T15:56:22Z</time>
      </trkpt>
      <trkpt lat="45.1761" lon="5.95312">
        <ele>2267</ele>
        <time>2019-01-11T15:56:34Z</time>
      </trkpt>
      <trkpt lat="45.17623" lon="5.9531">
        <ele>2266</ele>
        <time>2019-01-11T15:56:37Z</time>
      </trkpt>
      <trkpt lat="45.17633" lon="5.95304">
        <ele>2263</ele>
        <time>2019-01-11T15:56:39Z</time>
      </trkpt>
      <trkpt lat="45.17642" lon="5.95316">
        <ele>2252</ele>
        <time>2019-01-11T15:56:42Z</time>
      </trkpt>
      <trkpt lat="45.17676" lon="5.95367">
        <ele>2238</ele>
        <time>2019-01-11T15:56:56Z</time>
      </trkpt>
      <trkpt lat="45.17689" lon="5.95364">
        <ele>2238</ele>
        <time>2019-01-11T15:57:02Z</time>
      </trkpt>
      <trkpt lat="45.17711" lon="5.95375">
        <ele>2221</ele>
        <time>2019-01-11T15:57:08Z</time>
      </trkpt>
      <trkpt lat="45.17717" lon="5.95358">
        <ele>2223</ele>
        <time>2019-01-11T15:57:13Z</time>
      </trkpt>
      <trkpt lat="45.17757" lon="5.95277">
        <ele>2191</ele>
        <time>2019-01-11T15:57:24Z</time>
      </trkpt>
      <trkpt lat="45.17773" lon="5.95199">
        <ele>2164</ele>
        <time>2019-01-11T15:57:31Z</time>
      </trkpt>
      <trkpt lat="45.17792" lon="5.95175">
        <ele>2155</ele>
        <time>2019-01-11T15:57:35Z</time>
      </trkpt>
      <trkpt lat="45.17795" lon="5.95156">
        <ele>2150</ele>
        <time>2019-01-11T15:57:37Z</time>
      </trkpt>
      <trkpt lat="45.17802" lon="5.95142">
        <ele>2143</ele>
        <time>2019-01-11T15:57:39Z</time>
      </trkpt>
      <trkpt lat="45.17807" lon="5.9516">
        <ele>2143</ele>
        <time>2019-01-11T15:57:40Z</time>
      </trkpt>
      <trkpt lat="45.17817" lon="5.95208">
        <ele>2139</ele>
        <time>2019-01-11T15:57:42Z</time>
      </trkpt>
      <trkpt lat="45.17838" lon="5.95212">
        <ele>2131</ele>
        <time>2019-01-11T15:57:46Z</time>
      </trkpt>
      <trkpt lat="45.17846" lon="5.95205">
        <ele>2121</ele>
        <time>2019-01-11T15:57:49Z</time>
      </trkpt>
      <trkpt lat="45.17862" lon="5.95152">
        <ele>2110</ele>
        <time>2019-01-11T15:57:55Z</time>
      </trkpt>
      <trkpt lat="45.17868" lon="5.95126">
        <ele>2109</ele>
        <time>2019-01-11T15:57:57Z</time>
      </trkpt>
      <trkpt lat="45.17871" lon="5.95114">
        <ele>2106</ele>
        <time>2019-01-11T15:57:59Z</time>
      </trkpt>
      <trkpt lat="45.17893" lon="5.9509">
        <ele>2088</ele>
        <time>2019-01-11T15:58:09Z</time>
      </trkpt>
      <trkpt lat="45.17889" lon="5.95085">
        <ele>2094</ele>
        <time>2019-01-11T15:58:27Z</time>
      </trkpt>
      <trkpt lat="45.17883" lon="5.95086">
        <ele>2099</ele>
        <time>2019-01-11T15:59:04Z</time>
      </trkpt>
      <trkpt lat="45.17879" lon="5.95082">
        <ele>2100</ele>
        <time>2019-01-11T15:59:06Z</time>
      </trkpt>
      <trkpt lat="45.1788" lon="5.95073">
        <ele>2094</ele>
        <time>2019-01-11T15:59:12Z</time>
      </trkpt>
      <trkpt lat="45.17884" lon="5.95074">
        <ele>2089</ele>
        <time>2019-01-11T15:59:16Z</time>
      </trkpt>
      <trkpt lat="45.17889" lon="5.95075">
        <ele>2080</ele>
        <time>2019-01-11T15:59:27Z</time>
      </trkpt>
      <trkpt lat="45.179" lon="5.95082">
        <ele>2074</ele>
        <time>2019-01-11T15:59:38Z</time>
      </trkpt>
      <trkpt lat="45.17906" lon="5.95066">
        <ele>2060</ele>
        <time>2019-01-11T15:59:50Z</time>
      </trkpt>
      <trkpt lat="45.17901" lon="5.95052">
        <ele>2061</ele>
        <time>2019-01-11T15:59:54Z</time>
      </trkpt>
      <trkpt lat="45.17903" lon="5.95034">
        <ele>2057</ele>
        <time>2019-01-11T15:59:58Z</time>
      </trkpt>
      <trkpt lat="45.17905" lon="5.95017">
        <ele>2050</ele>
        <time>2019-01-11T16:00:01Z</time>
      </trkpt>
      <trkpt lat="45.17902" lon="5.95004">
        <ele>2046</ele>
        <time>2019-01-11T16:00:03Z</time>
      </trkpt>
      <trkpt lat="45.17897" lon="5.9499">
        <ele>2039</ele>
        <time>2019-01-11T16:00:06Z</time>
      </trkpt>
      <trkpt lat="45.17904" lon="5.94978">
        <ele>2030</ele>
        <time>2019-01-11T16:00:10Z</time>
      </trkpt>
      <trkpt lat="45.17906" lon="5.94919">
        <ele>2015</ele>
        <time>2019-01-11T16:00:20Z</time>
      </trkpt>
      <trkpt lat="45.17934" lon="5.94847">
        <ele>1989</ele>
        <time>2019-01-11T16:00:29Z</time>
      </trkpt>
      <trkpt lat="45.1794" lon="5.94843">
        <ele>1985</ele>
        <time>2019-01-11T16:00:30Z</time>
      </trkpt>
      <trkpt lat="45.17955" lon="5.94877">
        <ele>1982</ele>
        <time>2019-01-11T16:00:31Z</time>
      </trkpt>
      <trkpt lat="45.17978" lon="5.94868">
        <ele>1973</ele>
        <time>2019-01-11T16:00:35Z</time>
      </trkpt>
      <trkpt lat="45.18008" lon="5.94842">
        <ele>1954</ele>
        <time>2019-01-11T16:00:42Z</time>
      </trkpt>
      <trkpt lat="45.18025" lon="5.94805">
        <ele>1942</ele>
        <time>2019-01-11T16:00:48Z</time>
      </trkpt>
      <trkpt lat="45.18029" lon="5.94801">
        <ele>1943</ele>
        <time>2019-01-11T16:01:40Z</time>
      </trkpt>
      <trkpt lat="45.18042" lon="5.94779">
        <ele>1941</ele>
        <time>2019-01-11T16:01:44Z</time>
      </trkpt>
      <trkpt lat="45.18061" lon="5.94748">
        <ele>1932</ele>
        <time>2019-01-11T16:01:50Z</time>
      </trkpt>
      <trkpt lat="45.18067" lon="5.94738">
        <ele>1926</ele>
        <time>2019-01-11T16:01:52Z</time>
      </trkpt>
      <trkpt lat="45.1807" lon="5.94733">
        <ele>1926</ele>
        <time>2019-01-11T16:01:53Z</time>
      </trkpt>
      <trkpt lat="45.18074" lon="5.94728">
        <ele>1925</ele>
        <time>2019-01-11T16:01:55Z</time>
      </trkpt>
      <trkpt lat="45.18074" lon="5.94719">
        <ele>1923</ele>
        <time>2019-01-11T16:03:52Z</time>
      </trkpt>
      <trkpt lat="45.18076" lon="5.94712">
        <ele>1928</ele>
        <time>2019-01-11T16:03:58Z</time>
      </trkpt>
      <trkpt lat="45.1808" lon="5.94704">
        <ele>1924</ele>
        <time>2019-01-11T16:04:04Z</time>
      </trkpt>
      <trkpt lat="45.18082" lon="5.94698">
        <ele>1926</ele>
        <time>2019-01-11T16:04:08Z</time>
      </trkpt>
      <trkpt lat="45.18085" lon="5.94689">
        <ele>1922</ele>
        <time>2019-01-11T16:04:38Z</time>
      </trkpt>
      <trkpt lat="45.18088" lon="5.94682">
        <ele>1921</ele>
        <time>2019-01-11T16:04:42Z</time>
      </trkpt>
      <trkpt lat="45.18089" lon="5.94676">
        <ele>1921</ele>
        <time>2019-01-11T16:04:46Z</time>
      </trkpt>
      <trkpt lat="45.18093" lon="5.9467">
        <ele>1920</ele>
        <time>2019-01-11T16:04:50Z</time>
      </trkpt>
      <trkpt lat="45.18099" lon="5.94658">
        <ele>1921</ele>
        <time>2019-01-11T16:04:58Z</time>
      </trkpt>
      <trkpt lat="45.18106" lon="5.9464">
        <ele>1922</ele>
        <time>2019-01-11T16:05:10Z</time>
      </trkpt>
      <trkpt lat="45.18114" lon="5.94626">
        <ele>1924</ele>
        <time>2019-01-11T16:05:25Z</time>
      </trkpt>
      <trkpt lat="45.18119" lon="5.94618">
        <ele>1927</ele>
        <time>2019-01-11T16:05:37Z</time>
      </trkpt>
      <trkpt lat="45.18125" lon="5.9461">
        <ele>1931</ele>
        <time>2019-01-11T16:05:49Z</time>
      </trkpt>
      <trkpt lat="45.18129" lon="5.94604">
        <ele>1933</ele>
        <time>2019-01-11T16:06:18Z</time>
      </trkpt>
      <trkpt lat="45.18131" lon="5.94594">
        <ele>1933</ele>
        <time>2019-01-11T16:06:27Z</time>
      </trkpt>
      <trkpt lat="45.18137" lon="5.9459">
        <ele>1934</ele>
        <time>2019-01-11T16:06:37Z</time>
      </trkpt>
      <trkpt lat="45.18147" lon="5.94582">
        <ele>1937</ele>
        <time>2019-01-11T16:06:51Z</time>
      </trkpt>
      <trkpt lat="45.18143" lon="5.94575">
        <ele>1941</ele>
        <time>2019-01-11T16:07:03Z</time>
      </trkpt>
      <trkpt lat="45.18141" lon="5.94568">
        <ele>1943</ele>
        <time>2019-01-11T16:07:15Z</time>
      </trkpt>
      <trkpt lat="45.18152" lon="5.94555">
        <ele>1946</ele>
        <time>2019-01-11T16:07:31Z</time>
      </trkpt>
      <trkpt lat="45.18158" lon="5.94545">
        <ele>1949</ele>
        <time>2019-01-11T16:07:42Z</time>
      </trkpt>
      <trkpt lat="45.18167" lon="5.94543">
        <ele>1952</ele>
        <time>2019-01-11T16:07:54Z</time>
      </trkpt>
      <trkpt lat="45.18169" lon="5.94553">
        <ele>1954</ele>
        <time>2019-01-11T16:08:06Z</time>
      </trkpt>
      <trkpt lat="45.18175" lon="5.94562">
        <ele>1958</ele>
        <time>2019-01-11T16:08:18Z</time>
      </trkpt>
      <trkpt lat="45.18182" lon="5.94559">
        <ele>1964</ele>
        <time>2019-01-11T16:09:06Z</time>
      </trkpt>
      <trkpt lat="45.18184" lon="5.94567">
        <ele>1966</ele>
        <time>2019-01-11T16:09:18Z</time>
      </trkpt>
      <trkpt lat="45.1819" lon="5.94568">
        <ele>1971</ele>
        <time>2019-01-11T16:10:23Z</time>
      </trkpt>
      <trkpt lat="45.18196" lon="5.94574">
        <ele>1972</ele>
        <time>2019-01-11T16:10:35Z</time>
      </trkpt>
      <trkpt lat="45.18199" lon="5.94582">
        <ele>1975</ele>
        <time>2019-01-11T16:10:47Z</time>
      </trkpt>
      <trkpt lat="45.18205" lon="5.94583">
        <ele>1978</ele>
        <time>2019-01-11T16:10:59Z</time>
      </trkpt>
      <trkpt lat="45.18204" lon="5.94591">
        <ele>1981</ele>
        <time>2019-01-11T16:11:11Z</time>
      </trkpt>
      <trkpt lat="45.18206" lon="5.94598">
        <ele>1982</ele>
        <time>2019-01-11T16:11:23Z</time>
      </trkpt>
      <trkpt lat="45.18211" lon="5.946">
        <ele>1986</ele>
        <time>2019-01-11T16:11:35Z</time>
      </trkpt>
      <trkpt lat="45.18216" lon="5.94598">
        <ele>1986</ele>
        <time>2019-01-11T16:11:47Z</time>
      </trkpt>
      <trkpt lat="45.18222" lon="5.94605">
        <ele>1989</ele>
        <time>2019-01-11T16:12:04Z</time>
      </trkpt>
      <trkpt lat="45.18227" lon="5.9461">
        <ele>1991</ele>
        <time>2019-01-11T16:12:16Z</time>
      </trkpt>
      <trkpt lat="45.18229" lon="5.94601">
        <ele>1998</ele>
        <time>2019-01-11T16:13:04Z</time>
      </trkpt>
      <trkpt lat="45.18237" lon="5.94605">
        <ele>1998</ele>
        <time>2019-01-11T16:13:15Z</time>
      </trkpt>
      <trkpt lat="45.18241" lon="5.94606">
        <ele>1998</ele>
        <time>2019-01-11T16:13:20Z</time>
      </trkpt>
      <trkpt lat="45.18248" lon="5.94606">
        <ele>2000</ele>
        <time>2019-01-11T16:13:28Z</time>
      </trkpt>
      <trkpt lat="45.18254" lon="5.94607">
        <ele>1999</ele>
        <time>2019-01-11T16:13:40Z</time>
      </trkpt>
      <trkpt lat="45.18257" lon="5.94612">
        <ele>2000</ele>
        <time>2019-01-11T16:13:52Z</time>
      </trkpt>
      <trkpt lat="45.18261" lon="5.94609">
        <ele>2002</ele>
        <time>2019-01-11T16:14:10Z</time>
      </trkpt>
      <trkpt lat="45.18266" lon="5.94612">
        <ele>2000</ele>
        <time>2019-01-11T16:14:15Z</time>
      </trkpt>
      <trkpt lat="45.18272" lon="5.94614">
        <ele>2001</ele>
        <time>2019-01-11T16:14:23Z</time>
      </trkpt>
      <trkpt lat="45.18269" lon="5.94626">
        <ele>2003</ele>
        <time>2019-01-11T16:14:35Z</time>
      </trkpt>
      <trkpt lat="45.18265" lon="5.94631">
        <ele>2004</ele>
        <time>2019-01-11T16:14:53Z</time>
      </trkpt>
      <trkpt lat="45.1826" lon="5.94637">
        <ele>2008</ele>
        <time>2019-01-11T16:16:29Z</time>
      </trkpt>
      <trkpt lat="45.18258" lon="5.94645">
        <ele>2008</ele>
        <time>2019-01-11T16:16:37Z</time>
      </trkpt>
      <trkpt lat="45.18257" lon="5.9466">
        <ele>2011</ele>
        <time>2019-01-11T16:16:47Z</time>
      </trkpt>
      <trkpt lat="45.18257" lon="5.94667">
        <ele>2011</ele>
        <time>2019-01-11T16:16:51Z</time>
      </trkpt>
      <trkpt lat="45.18256" lon="5.94676">
        <ele>2012</ele>
        <time>2019-01-11T16:16:59Z</time>
      </trkpt>
      <trkpt lat="45.1826" lon="5.94683">
        <ele>2014</ele>
        <time>2019-01-11T16:17:07Z</time>
      </trkpt>
      <trkpt lat="45.18263" lon="5.94688">
        <ele>2014</ele>
        <time>2019-01-11T16:17:13Z</time>
      </trkpt>
      <trkpt lat="45.18266" lon="5.94693">
        <ele>2014</ele>
        <time>2019-01-11T16:17:19Z</time>
      </trkpt>
      <trkpt lat="45.1828" lon="5.94711">
        <ele>2020</ele>
        <time>2019-01-11T16:17:42Z</time>
      </trkpt>
      <trkpt lat="45.18285" lon="5.94714">
        <ele>2020</ele>
        <time>2019-01-11T16:17:48Z</time>
      </trkpt>
      <trkpt lat="45.18302" lon="5.94739">
        <ele>2028</ele>
        <time>2019-01-11T16:18:25Z</time>
      </trkpt>
      <trkpt lat="45.18306" lon="5.94748">
        <ele>2029</ele>
        <time>2019-01-11T16:18:37Z</time>
      </trkpt>
      <trkpt lat="45.1831" lon="5.94745">
        <ele>2030</ele>
        <time>2019-01-11T16:18:42Z</time>
      </trkpt>
      <trkpt lat="45.18314" lon="5.94745">
        <ele>2033</ele>
        <time>2019-01-11T16:18:50Z</time>
      </trkpt>
      <trkpt lat="45.18316" lon="5.94748">
        <ele>2044</ele>
        <time>2019-01-11T16:22:43Z</time>
      </trkpt>
      <trkpt lat="45.18318" lon="5.94758">
        <ele>2042</ele>
        <time>2019-01-11T16:22:55Z</time>
      </trkpt>
      <trkpt lat="45.18325" lon="5.94771">
        <ele>2045</ele>
        <time>2019-01-11T16:23:19Z</time>
      </trkpt>
      <trkpt lat="45.1833" lon="5.94777">
        <ele>2047</ele>
        <time>2019-01-11T16:23:37Z</time>
      </trkpt>
      <trkpt lat="45.18341" lon="5.94781">
        <ele>2051</ele>
        <time>2019-01-11T16:24:19Z</time>
      </trkpt>
      <trkpt lat="45.18346" lon="5.94785">
        <ele>2053</ele>
        <time>2019-01-11T16:24:49Z</time>
      </trkpt>
      <trkpt lat="45.1835" lon="5.94792">
        <ele>2054</ele>
        <time>2019-01-11T16:25:01Z</time>
      </trkpt>
      <trkpt lat="45.18354" lon="5.94791">
        <ele>2056</ele>
        <time>2019-01-11T16:25:43Z</time>
      </trkpt>
      <trkpt lat="45.18354" lon="5.94799">
        <ele>2058</ele>
        <time>2019-01-11T16:26:01Z</time>
      </trkpt>
      <trkpt lat="45.18355" lon="5.94806">
        <ele>2059</ele>
        <time>2019-01-11T16:26:13Z</time>
      </trkpt>
      <trkpt lat="45.18356" lon="5.94814">
        <ele>2063</ele>
        <time>2019-01-11T16:26:36Z</time>
      </trkpt>
      <trkpt lat="45.18358" lon="5.94824">
        <ele>2063</ele>
        <time>2019-01-11T16:26:48Z</time>
      </trkpt>
      <trkpt lat="45.18358" lon="5.94831">
        <ele>2069</ele>
        <time>2019-01-11T16:28:06Z</time>
      </trkpt>
      <trkpt lat="45.18367" lon="5.9484">
        <ele>2069</ele>
        <time>2019-01-11T16:28:54Z</time>
      </trkpt>
      <trkpt lat="45.18373" lon="5.94844">
        <ele>2066</ele>
        <time>2019-01-11T16:29:12Z</time>
      </trkpt>
      <trkpt lat="45.18375" lon="5.94852">
        <ele>2064</ele>
        <time>2019-01-11T16:29:24Z</time>
      </trkpt>
      <trkpt lat="45.18376" lon="5.9486">
        <ele>2065</ele>
        <time>2019-01-11T16:29:42Z</time>
      </trkpt>
      <trkpt lat="45.18382" lon="5.94865">
        <ele>2073</ele>
        <time>2019-01-11T16:33:20Z</time>
      </trkpt>
      <trkpt lat="45.18433" lon="5.94887">
        <ele>2059</ele>
        <time>2019-01-11T16:33:38Z</time>
      </trkpt>
      <trkpt lat="45.18437" lon="5.94888">
        <ele>2058</ele>
        <time>2019-01-11T16:33:40Z</time>
      </trkpt>
      <trkpt lat="45.18442" lon="5.9488">
        <ele>2055</ele>
        <time>2019-01-11T16:34:31Z</time>
      </trkpt>
      <trkpt lat="45.18514" lon="5.94809">
        <ele>2033</ele>
        <time>2019-01-11T16:34:46Z</time>
      </trkpt>
      <trkpt lat="45.18546" lon="5.94759">
        <ele>2021</ele>
        <time>2019-01-11T16:34:54Z</time>
      </trkpt>
      <trkpt lat="45.18557" lon="5.94747">
        <ele>2020</ele>
        <time>2019-01-11T16:35:08Z</time>
      </trkpt>
      <trkpt lat="45.18558" lon="5.9474">
        <ele>2020</ele>
        <time>2019-01-11T16:35:14Z</time>
      </trkpt>
      <trkpt lat="45.18564" lon="5.94732">
        <ele>2020</ele>
        <time>2019-01-11T16:35:32Z</time>
      </trkpt>
      <trkpt lat="45.18568" lon="5.94726">
        <ele>2020</ele>
        <time>2019-01-11T16:35:34Z</time>
      </trkpt>
      <trkpt lat="45.18573" lon="5.94715">
        <ele>2018</ele>
        <time>2019-01-11T16:35:41Z</time>
      </trkpt>
      <trkpt lat="45.18578" lon="5.9471">
        <ele>2016</ele>
        <time>2019-01-11T16:35:46Z</time>
      </trkpt>
      <trkpt lat="45.18581" lon="5.94701">
        <ele>2015</ele>
        <time>2019-01-11T16:36:41Z</time>
      </trkpt>
      <trkpt lat="45.18586" lon="5.94694">
        <ele>2013</ele>
        <time>2019-01-11T16:36:48Z</time>
      </trkpt>
      <trkpt lat="45.1859" lon="5.94698">
        <ele>2008</ele>
        <time>2019-01-11T16:36:54Z</time>
      </trkpt>
      <trkpt lat="45.18597" lon="5.94698">
        <ele>1998</ele>
        <time>2019-01-11T16:37:08Z</time>
      </trkpt>
      <trkpt lat="45.18603" lon="5.94691">
        <ele>1997</ele>
        <time>2019-01-11T16:37:20Z</time>
      </trkpt>
      <trkpt lat="45.18608" lon="5.94682">
        <ele>1989</ele>
        <time>2019-01-11T16:37:26Z</time>
      </trkpt>
      <trkpt lat="45.18614" lon="5.94674">
        <ele>1982</ele>
        <time>2019-01-11T16:37:30Z</time>
      </trkpt>
      <trkpt lat="45.18619" lon="5.94677">
        <ele>1986</ele>
        <time>2019-01-11T16:37:32Z</time>
      </trkpt>
      <trkpt lat="45.18623" lon="5.94677">
        <ele>1984</ele>
        <time>2019-01-11T16:37:34Z</time>
      </trkpt>
      <trkpt lat="45.18631" lon="5.94673">
        <ele>1981</ele>
        <time>2019-01-11T16:37:37Z</time>
      </trkpt>
      <trkpt lat="45.18636" lon="5.94676">
        <ele>1977</ele>
        <time>2019-01-11T16:37:39Z</time>
      </trkpt>
      <trkpt lat="45.18638" lon="5.94682">
        <ele>1971</ele>
        <time>2019-01-11T16:37:43Z</time>
      </trkpt>
      <trkpt lat="45.18638" lon="5.94691">
        <ele>1970</ele>
        <time>2019-01-11T16:37:46Z</time>
      </trkpt>
      <trkpt lat="45.18637" lon="5.94698">
        <ele>1966</ele>
        <time>2019-01-11T16:37:49Z</time>
      </trkpt>
      <trkpt lat="45.18643" lon="5.947">
        <ele>1958</ele>
        <time>2019-01-11T16:37:53Z</time>
      </trkpt>
      <trkpt lat="45.18647" lon="5.94694">
        <ele>1957</ele>
        <time>2019-01-11T16:37:55Z</time>
      </trkpt>
      <trkpt lat="45.1865" lon="5.94688">
        <ele>1956</ele>
        <time>2019-01-11T16:37:58Z</time>
      </trkpt>
      <trkpt lat="45.18652" lon="5.94695">
        <ele>1952</ele>
        <time>2019-01-11T16:38:01Z</time>
      </trkpt>
      <trkpt lat="45.18656" lon="5.94699">
        <ele>1946</ele>
        <time>2019-01-11T16:38:03Z</time>
      </trkpt>
      <trkpt lat="45.1866" lon="5.94705">
        <ele>1943</ele>
        <time>2019-01-11T16:38:05Z</time>
      </trkpt>
      <trkpt lat="45.18661" lon="5.94716">
        <ele>1941</ele>
        <time>2019-01-11T16:38:07Z</time>
      </trkpt>
      <trkpt lat="45.18663" lon="5.94722">
        <ele>1939</ele>
        <time>2019-01-11T16:38:09Z</time>
      </trkpt>
      <trkpt lat="45.18669" lon="5.94722">
        <ele>1935</ele>
        <time>2019-01-11T16:38:11Z</time>
      </trkpt>
      <trkpt lat="45.18673" lon="5.94715">
        <ele>1933</ele>
        <time>2019-01-11T16:38:13Z</time>
      </trkpt>
      <trkpt lat="45.18669" lon="5.94709">
        <ele>1931</ele>
        <time>2019-01-11T16:38:20Z</time>
      </trkpt>
      <trkpt lat="45.18673" lon="5.94702">
        <ele>1927</ele>
        <time>2019-01-11T16:38:40Z</time>
      </trkpt>
      <trkpt lat="45.18677" lon="5.94698">
        <ele>1927</ele>
        <time>2019-01-11T16:38:41Z</time>
      </trkpt>
      <trkpt lat="45.18681" lon="5.94694">
        <ele>1926</ele>
        <time>2019-01-11T16:38:42Z</time>
      </trkpt>
      <trkpt lat="45.18696" lon="5.94666">
        <ele>1917</ele>
        <time>2019-01-11T16:38:46Z</time>
      </trkpt>
      <trkpt lat="45.187" lon="5.94655">
        <ele>1917</ele>
        <time>2019-01-11T16:38:48Z</time>
      </trkpt>
      <trkpt lat="45.18705" lon="5.94649">
        <ele>1917</ele>
        <time>2019-01-11T16:38:50Z</time>
      </trkpt>
      <trkpt lat="45.18709" lon="5.94644">
        <ele>1918</ele>
        <time>2019-01-11T16:38:52Z</time>
      </trkpt>
      <trkpt lat="45.18713" lon="5.94634">
        <ele>1917</ele>
        <time>2019-01-11T16:38:54Z</time>
      </trkpt>
      <trkpt lat="45.18725" lon="5.94616">
        <ele>1919</ele>
        <time>2019-01-11T16:39:00Z</time>
      </trkpt>
      <trkpt lat="45.1873" lon="5.9461">
        <ele>1918</ele>
        <time>2019-01-11T16:39:02Z</time>
      </trkpt>
      <trkpt lat="45.18746" lon="5.94599">
        <ele>1914</ele>
        <time>2019-01-11T16:39:10Z</time>
      </trkpt>
      <trkpt lat="45.18752" lon="5.94599">
        <ele>1914</ele>
        <time>2019-01-11T16:39:12Z</time>
      </trkpt>
      <trkpt lat="45.18758" lon="5.94599">
        <ele>1915</ele>
        <time>2019-01-11T16:39:14Z</time>
      </trkpt>
      <trkpt lat="45.18765" lon="5.94596">
        <ele>1913</ele>
        <time>2019-01-11T16:39:17Z</time>
      </trkpt>
      <trkpt lat="45.18771" lon="5.94602">
        <ele>1909</ele>
        <time>2019-01-11T16:39:27Z</time>
      </trkpt>
      <trkpt lat="45.18774" lon="5.94607">
        <ele>1909</ele>
        <time>2019-01-11T16:39:30Z</time>
      </trkpt>
      <trkpt lat="45.1878" lon="5.94609">
        <ele>1909</ele>
        <time>2019-01-11T16:39:33Z</time>
      </trkpt>
      <trkpt lat="45.18785" lon="5.94607">
        <ele>1911</ele>
        <time>2019-01-11T16:39:35Z</time>
      </trkpt>
      <trkpt lat="45.1879" lon="5.94606">
        <ele>1913</ele>
        <time>2019-01-11T16:39:37Z</time>
      </trkpt>
      <trkpt lat="45.18822" lon="5.94608">
        <ele>1908</ele>
        <time>2019-01-11T16:39:49Z</time>
      </trkpt>
      <trkpt lat="45.18833" lon="5.94616">
        <ele>1902</ele>
        <time>2019-01-11T16:39:56Z</time>
      </trkpt>
      <trkpt lat="45.18839" lon="5.94621">
        <ele>1909</ele>
        <time>2019-01-11T16:39:59Z</time>
      </trkpt>
      <trkpt lat="45.18847" lon="5.94629">
        <ele>1910</ele>
        <time>2019-01-11T16:40:04Z</time>
      </trkpt>
      <trkpt lat="45.18853" lon="5.94629">
        <ele>1909</ele>
        <time>2019-01-11T16:40:06Z</time>
      </trkpt>
      <trkpt lat="45.1886" lon="5.94627">
        <ele>1908</ele>
        <time>2019-01-11T16:40:08Z</time>
      </trkpt>
      <trkpt lat="45.18864" lon="5.94624">
        <ele>1908</ele>
        <time>2019-01-11T16:40:09Z</time>
      </trkpt>
      <trkpt lat="45.18897" lon="5.94608">
        <ele>1898</ele>
        <time>2019-01-11T16:40:15Z</time>
      </trkpt>
      <trkpt lat="45.18903" lon="5.94602">
        <ele>1896</ele>
        <time>2019-01-11T16:40:17Z</time>
      </trkpt>
      <trkpt lat="45.18912" lon="5.94605">
        <ele>1895</ele>
        <time>2019-01-11T16:40:19Z</time>
      </trkpt>
      <trkpt lat="45.18917" lon="5.94608">
        <ele>1893</ele>
        <time>2019-01-11T16:40:20Z</time>
      </trkpt>
      <trkpt lat="45.18952" lon="5.94594">
        <ele>1880</ele>
        <time>2019-01-11T16:40:27Z</time>
      </trkpt>
      <trkpt lat="45.18979" lon="5.94594">
        <ele>1872</ele>
        <time>2019-01-11T16:40:31Z</time>
      </trkpt>
      <trkpt lat="45.18984" lon="5.94596">
        <ele>1871</ele>
        <time>2019-01-11T16:40:32Z</time>
      </trkpt>
      <trkpt lat="45.18989" lon="5.94597">
        <ele>1868</ele>
        <time>2019-01-11T16:40:33Z</time>
      </trkpt>
      <trkpt lat="45.18995" lon="5.94595">
        <ele>1866</ele>
        <time>2019-01-11T16:40:34Z</time>
      </trkpt>
      <trkpt lat="45.19001" lon="5.94595">
        <ele>1864</ele>
        <time>2019-01-11T16:40:35Z</time>
      </trkpt>
      <trkpt lat="45.19007" lon="5.94597">
        <ele>1863</ele>
        <time>2019-01-11T16:40:36Z</time>
      </trkpt>
      <trkpt lat="45.19011" lon="5.94599">
        <ele>1862</ele>
        <time>2019-01-11T16:40:37Z</time>
      </trkpt>
      <trkpt lat="45.19016" lon="5.946">
        <ele>1860</ele>
        <time>2019-01-11T16:40:39Z</time>
      </trkpt>
      <trkpt lat="45.19022" lon="5.94606">
        <ele>1860</ele>
        <time>2019-01-11T16:40:42Z</time>
      </trkpt>
      <trkpt lat="45.19027" lon="5.94609">
        <ele>1862</ele>
        <time>2019-01-11T16:40:44Z</time>
      </trkpt>
      <trkpt lat="45.19031" lon="5.94606">
        <ele>1858</ele>
        <time>2019-01-11T16:40:53Z</time>
      </trkpt>
      <trkpt lat="45.19029" lon="5.94601">
        <ele>1853</ele>
        <time>2019-01-11T16:41:31Z</time>
      </trkpt>
      <trkpt lat="45.19026" lon="5.94598">
        <ele>1852</ele>
        <time>2019-01-11T16:41:33Z</time>
      </trkpt>
      <trkpt lat="45.19022" lon="5.94592">
        <ele>1843</ele>
        <time>2019-01-11T16:41:38Z</time>
      </trkpt>
      <trkpt lat="45.1902" lon="5.94583">
        <ele>1843</ele>
        <time>2019-01-11T16:41:40Z</time>
      </trkpt>
      <trkpt lat="45.1902" lon="5.94576">
        <ele>1843</ele>
        <time>2019-01-11T16:41:41Z</time>
      </trkpt>
      <trkpt lat="45.1902" lon="5.94568">
        <ele>1842</ele>
        <time>2019-01-11T16:41:42Z</time>
      </trkpt>
      <trkpt lat="45.19019" lon="5.9456">
        <ele>1839</ele>
        <time>2019-01-11T16:41:44Z</time>
      </trkpt>
      <trkpt lat="45.19016" lon="5.94552">
        <ele>1837</ele>
        <time>2019-01-11T16:41:46Z</time>
      </trkpt>
      <trkpt lat="45.19014" lon="5.94545">
        <ele>1837</ele>
        <time>2019-01-11T16:41:47Z</time>
      </trkpt>
      <trkpt lat="45.19009" lon="5.94531">
        <ele>1835</ele>
        <time>2019-01-11T16:41:49Z</time>
      </trkpt>
      <trkpt lat="45.19005" lon="5.94525">
        <ele>1835</ele>
        <time>2019-01-11T16:41:50Z</time>
      </trkpt>
      <trkpt lat="45.19004" lon="5.94519">
        <ele>1832</ele>
        <time>2019-01-11T16:41:51Z</time>
      </trkpt>
      <trkpt lat="45.19004" lon="5.94512">
        <ele>1830</ele>
        <time>2019-01-11T16:41:52Z</time>
      </trkpt>
      <trkpt lat="45.19005" lon="5.94504">
        <ele>1827</ele>
        <time>2019-01-11T16:41:53Z</time>
      </trkpt>
      <trkpt lat="45.19004" lon="5.94496">
        <ele>1827</ele>
        <time>2019-01-11T16:41:54Z</time>
      </trkpt>
      <trkpt lat="45.19004" lon="5.94488">
        <ele>1825</ele>
        <time>2019-01-11T16:41:55Z</time>
      </trkpt>
      <trkpt lat="45.19007" lon="5.9448">
        <ele>1825</ele>
        <time>2019-01-11T16:41:56Z</time>
      </trkpt>
      <trkpt lat="45.19007" lon="5.94473">
        <ele>1826</ele>
        <time>2019-01-11T16:41:57Z</time>
      </trkpt>
      <trkpt lat="45.19009" lon="5.94402">
        <ele>1813</ele>
        <time>2019-01-11T16:42:06Z</time>
      </trkpt>
      <trkpt lat="45.19015" lon="5.94387">
        <ele>1809</ele>
        <time>2019-01-11T16:42:09Z</time>
      </trkpt>
      <trkpt lat="45.19019" lon="5.94364">
        <ele>1805</ele>
        <time>2019-01-11T16:42:13Z</time>
      </trkpt>
      <trkpt lat="45.19018" lon="5.94355">
        <ele>1804</ele>
        <time>2019-01-11T16:42:15Z</time>
      </trkpt>
      <trkpt lat="45.19023" lon="5.94339">
        <ele>1801</ele>
        <time>2019-01-11T16:42:19Z</time>
      </trkpt>
      <trkpt lat="45.19023" lon="5.94329">
        <ele>1800</ele>
        <time>2019-01-11T16:42:20Z</time>
      </trkpt>
      <trkpt lat="45.19056" lon="5.94257">
        <ele>1785</ele>
        <time>2019-01-11T16:42:33Z</time>
      </trkpt>
      <trkpt lat="45.19056" lon="5.94248">
        <ele>1783</ele>
        <time>2019-01-11T16:42:35Z</time>
      </trkpt>
      <trkpt lat="45.19058" lon="5.94241">
        <ele>1784</ele>
        <time>2019-01-11T16:42:37Z</time>
      </trkpt>
      <trkpt lat="45.19061" lon="5.94234">
        <ele>1785</ele>
        <time>2019-01-11T16:42:39Z</time>
      </trkpt>
      <trkpt lat="45.19064" lon="5.94228">
        <ele>1786</ele>
        <time>2019-01-11T16:42:41Z</time>
      </trkpt>
      <trkpt lat="45.19067" lon="5.94219">
        <ele>1782</ele>
        <time>2019-01-11T16:42:44Z</time>
      </trkpt>
      <trkpt lat="45.19069" lon="5.94212">
        <ele>1782</ele>
        <time>2019-01-11T16:42:46Z</time>
      </trkpt>
      <trkpt lat="45.19071" lon="5.94203">
        <ele>1786</ele>
        <time>2019-01-11T16:42:48Z</time>
      </trkpt>
      <trkpt lat="45.19071" lon="5.94196">
        <ele>1785</ele>
        <time>2019-01-11T16:42:50Z</time>
      </trkpt>
      <trkpt lat="45.19071" lon="5.94189">
        <ele>1780</ele>
        <time>2019-01-11T16:42:53Z</time>
      </trkpt>
      <trkpt lat="45.19072" lon="5.94181">
        <ele>1779</ele>
        <time>2019-01-11T16:42:56Z</time>
      </trkpt>
      <trkpt lat="45.19073" lon="5.94171">
        <ele>1778</ele>
        <time>2019-01-11T16:43:01Z</time>
      </trkpt>
      <trkpt lat="45.19074" lon="5.94163">
        <ele>1781</ele>
        <time>2019-01-11T16:43:04Z</time>
      </trkpt>
      <trkpt lat="45.19074" lon="5.9415">
        <ele>1779</ele>
        <time>2019-01-11T16:43:09Z</time>
      </trkpt>
      <trkpt lat="45.19072" lon="5.94137">
        <ele>1788</ele>
        <time>2019-01-11T16:43:16Z</time>
      </trkpt>
      <trkpt lat="45.19072" lon="5.94122">
        <ele>1794</ele>
        <time>2019-01-11T16:43:21Z</time>
      </trkpt>
      <trkpt lat="45.1907" lon="5.94109">
        <ele>1794</ele>
        <time>2019-01-11T16:43:23Z</time>
      </trkpt>
      <trkpt lat="45.19068" lon="5.94102">
        <ele>1792</ele>
        <time>2019-01-11T16:43:24Z</time>
      </trkpt>
      <trkpt lat="45.19066" lon="5.94082">
        <ele>1786</ele>
        <time>2019-01-11T16:43:27Z</time>
      </trkpt>
      <trkpt lat="45.19064" lon="5.94074">
        <ele>1783</ele>
        <time>2019-01-11T16:43:29Z</time>
      </trkpt>
      <trkpt lat="45.19056" lon="5.94062">
        <ele>1782</ele>
        <time>2019-01-11T16:43:33Z</time>
      </trkpt>
      <trkpt lat="45.19048" lon="5.94041">
        <ele>1773</ele>
        <time>2019-01-11T16:43:42Z</time>
      </trkpt>
      <trkpt lat="45.19045" lon="5.94034">
        <ele>1777</ele>
        <time>2019-01-11T16:43:48Z</time>
      </trkpt>
      <trkpt lat="45.19043" lon="5.94027">
        <ele>1777</ele>
        <time>2019-01-11T16:43:51Z</time>
      </trkpt>
      <trkpt lat="45.1904" lon="5.94021">
        <ele>1780</ele>
        <time>2019-01-11T16:43:53Z</time>
      </trkpt>
      <trkpt lat="45.19036" lon="5.94014">
        <ele>1781</ele>
        <time>2019-01-11T16:43:55Z</time>
      </trkpt>
      <trkpt lat="45.19033" lon="5.94007">
        <ele>1781</ele>
        <time>2019-01-11T16:43:56Z</time>
      </trkpt>
      <trkpt lat="45.1902" lon="5.93982">
        <ele>1775</ele>
        <time>2019-01-11T16:44:03Z</time>
      </trkpt>
      <trkpt lat="45.19013" lon="5.93957">
        <ele>1777</ele>
        <time>2019-01-11T16:44:11Z</time>
      </trkpt>
      <trkpt lat="45.1901" lon="5.93951">
        <ele>1776</ele>
        <time>2019-01-11T16:44:16Z</time>
      </trkpt>
      <trkpt lat="45.1901" lon="5.93944">
        <ele>1777</ele>
        <time>2019-01-11T16:44:20Z</time>
      </trkpt>
      <trkpt lat="45.19009" lon="5.93935">
        <ele>1776</ele>
        <time>2019-01-11T16:44:23Z</time>
      </trkpt>
      <trkpt lat="45.19009" lon="5.93926">
        <ele>1776</ele>
        <time>2019-01-11T16:44:25Z</time>
      </trkpt>
      <trkpt lat="45.1901" lon="5.93919">
        <ele>1779</ele>
        <time>2019-01-11T16:44:26Z</time>
      </trkpt>
      <trkpt lat="45.19009" lon="5.93912">
        <ele>1779</ele>
        <time>2019-01-11T16:44:27Z</time>
      </trkpt>
      <trkpt lat="45.19007" lon="5.93906">
        <ele>1779</ele>
        <time>2019-01-11T16:44:28Z</time>
      </trkpt>
      <trkpt lat="45.19002" lon="5.93894">
        <ele>1775</ele>
        <time>2019-01-11T16:44:30Z</time>
      </trkpt>
      <trkpt lat="45.18999" lon="5.93887">
        <ele>1773</ele>
        <time>2019-01-11T16:44:32Z</time>
      </trkpt>
      <trkpt lat="45.19" lon="5.93876">
        <ele>1770</ele>
        <time>2019-01-11T16:44:35Z</time>
      </trkpt>
      <trkpt lat="45.18998" lon="5.93822">
        <ele>1764</ele>
        <time>2019-01-11T16:44:47Z</time>
      </trkpt>
      <trkpt lat="45.18997" lon="5.93803">
        <ele>1764</ele>
        <time>2019-01-11T16:44:51Z</time>
      </trkpt>
      <trkpt lat="45.18995" lon="5.93783">
        <ele>1762</ele>
        <time>2019-01-11T16:44:55Z</time>
      </trkpt>
      <trkpt lat="45.18993" lon="5.93772">
        <ele>1761</ele>
        <time>2019-01-11T16:44:57Z</time>
      </trkpt>
      <trkpt lat="45.18993" lon="5.93765">
        <ele>1760</ele>
        <time>2019-01-11T16:44:59Z</time>
      </trkpt>
      <trkpt lat="45.19003" lon="5.93754">
        <ele>1758</ele>
        <time>2019-01-11T16:45:03Z</time>
      </trkpt>
      <trkpt lat="45.19007" lon="5.93746">
        <ele>1757</ele>
        <time>2019-01-11T16:45:05Z</time>
      </trkpt>
      <trkpt lat="45.19008" lon="5.93735">
        <ele>1756</ele>
        <time>2019-01-11T16:45:07Z</time>
      </trkpt>
      <trkpt lat="45.19008" lon="5.93724">
        <ele>1754</ele>
        <time>2019-01-11T16:45:09Z</time>
      </trkpt>
      <trkpt lat="45.19013" lon="5.93717">
        <ele>1753</ele>
        <time>2019-01-11T16:45:11Z</time>
      </trkpt>
      <trkpt lat="45.19023" lon="5.93698">
        <ele>1748</ele>
        <time>2019-01-11T16:45:17Z</time>
      </trkpt>
      <trkpt lat="45.19026" lon="5.93687">
        <ele>1747</ele>
        <time>2019-01-11T16:45:19Z</time>
      </trkpt>
      <trkpt lat="45.1902" lon="5.93648">
        <ele>1741</ele>
        <time>2019-01-11T16:45:26Z</time>
      </trkpt>
      <trkpt lat="45.19021" lon="5.93637">
        <ele>1740</ele>
        <time>2019-01-11T16:45:28Z</time>
      </trkpt>
      <trkpt lat="45.19021" lon="5.93629">
        <ele>1739</ele>
        <time>2019-01-11T16:45:29Z</time>
      </trkpt>
      <trkpt lat="45.19019" lon="5.93622">
        <ele>1738</ele>
        <time>2019-01-11T16:45:30Z</time>
      </trkpt>
      <trkpt lat="45.19014" lon="5.93616">
        <ele>1736</ele>
        <time>2019-01-11T16:45:32Z</time>
      </trkpt>
      <trkpt lat="45.19012" lon="5.93609">
        <ele>1735</ele>
        <time>2019-01-11T16:45:33Z</time>
      </trkpt>
      <trkpt lat="45.1901" lon="5.936">
        <ele>1735</ele>
        <time>2019-01-11T16:45:35Z</time>
      </trkpt>
      <trkpt lat="45.19006" lon="5.93596">
        <ele>1734</ele>
        <time>2019-01-11T16:45:37Z</time>
      </trkpt>
      <trkpt lat="45.18999" lon="5.93596">
        <ele>1732</ele>
        <time>2019-01-11T16:45:40Z</time>
      </trkpt>
      <trkpt lat="45.18996" lon="5.93587">
        <ele>1732</ele>
        <time>2019-01-11T16:45:42Z</time>
      </trkpt>
      <trkpt lat="45.18997" lon="5.93577">
        <ele>1732</ele>
        <time>2019-01-11T16:45:44Z</time>
      </trkpt>
      <trkpt lat="45.18997" lon="5.93569">
        <ele>1731</ele>
        <time>2019-01-11T16:45:46Z</time>
      </trkpt>
      <trkpt lat="45.18997" lon="5.93562">
        <ele>1728</ele>
        <time>2019-01-11T16:45:49Z</time>
      </trkpt>
      <trkpt lat="45.1899" lon="5.93558">
        <ele>1727</ele>
        <time>2019-01-11T16:45:52Z</time>
      </trkpt>
      <trkpt lat="45.18986" lon="5.93557">
        <ele>1725</ele>
        <time>2019-01-11T16:45:54Z</time>
      </trkpt>
      <trkpt lat="45.18979" lon="5.93555">
        <ele>1725</ele>
        <time>2019-01-11T16:45:57Z</time>
      </trkpt>
      <trkpt lat="45.18974" lon="5.93551">
        <ele>1725</ele>
        <time>2019-01-11T16:45:59Z</time>
      </trkpt>
      <trkpt lat="45.1896" lon="5.93543">
        <ele>1723</ele>
        <time>2019-01-11T16:46:03Z</time>
      </trkpt>
      <trkpt lat="45.18955" lon="5.93535">
        <ele>1721</ele>
        <time>2019-01-11T16:46:05Z</time>
      </trkpt>
      <trkpt lat="45.18956" lon="5.93528">
        <ele>1719</ele>
        <time>2019-01-11T16:46:07Z</time>
      </trkpt>
      <trkpt lat="45.18961" lon="5.93525">
        <ele>1718</ele>
        <time>2019-01-11T16:46:09Z</time>
      </trkpt>
      <trkpt lat="45.18966" lon="5.93524">
        <ele>1719</ele>
        <time>2019-01-11T16:46:11Z</time>
      </trkpt>
      <trkpt lat="45.18971" lon="5.93523">
        <ele>1719</ele>
        <time>2019-01-11T16:46:16Z</time>
      </trkpt>
      <trkpt lat="45.18981" lon="5.93522">
        <ele>1733</ele>
        <time>2019-01-11T16:51:45Z</time>
      </trkpt>
      <trkpt lat="45.18997" lon="5.93523">
        <ele>1722</ele>
        <time>2019-01-11T16:51:49Z</time>
      </trkpt>
      <trkpt lat="45.19005" lon="5.93524">
        <ele>1721</ele>
        <time>2019-01-11T16:51:51Z</time>
      </trkpt>
      <trkpt lat="45.19026" lon="5.93519">
        <ele>1715</ele>
        <time>2019-01-11T16:51:57Z</time>
      </trkpt>
      <trkpt lat="45.19039" lon="5.93529">
        <ele>1713</ele>
        <time>2019-01-11T16:52:01Z</time>
      </trkpt>
      <trkpt lat="45.19045" lon="5.93535">
        <ele>1714</ele>
        <time>2019-01-11T16:52:03Z</time>
      </trkpt>
      <trkpt lat="45.19062" lon="5.93556">
        <ele>1707</ele>
        <time>2019-01-11T16:52:09Z</time>
      </trkpt>
      <trkpt lat="45.19071" lon="5.93577">
        <ele>1700</ele>
        <time>2019-01-11T16:52:14Z</time>
      </trkpt>
      <trkpt lat="45.19087" lon="5.9362">
        <ele>1697</ele>
        <time>2019-01-11T16:52:21Z</time>
      </trkpt>
      <trkpt lat="45.19096" lon="5.93628">
        <ele>1691</ele>
        <time>2019-01-11T16:52:23Z</time>
      </trkpt>
      <trkpt lat="45.19095" lon="5.93618">
        <ele>1691</ele>
        <time>2019-01-11T16:52:24Z</time>
      </trkpt>
      <trkpt lat="45.19091" lon="5.93589">
        <ele>1681</ele>
        <time>2019-01-11T16:52:32Z</time>
      </trkpt>
      <trkpt lat="45.1909" lon="5.93577">
        <ele>1687</ele>
        <time>2019-01-11T16:52:36Z</time>
      </trkpt>
      <trkpt lat="45.1909" lon="5.93566">
        <ele>1687</ele>
        <time>2019-01-11T16:52:38Z</time>
      </trkpt>
      <trkpt lat="45.19089" lon="5.93554">
        <ele>1685</ele>
        <time>2019-01-11T16:52:40Z</time>
      </trkpt>
      <trkpt lat="45.1909" lon="5.93545">
        <ele>1684</ele>
        <time>2019-01-11T16:52:41Z</time>
      </trkpt>
      <trkpt lat="45.19088" lon="5.93537">
        <ele>1684</ele>
        <time>2019-01-11T16:52:42Z</time>
      </trkpt>
      <trkpt lat="45.19087" lon="5.9353">
        <ele>1683</ele>
        <time>2019-01-11T16:52:43Z</time>
      </trkpt>
      <trkpt lat="45.1908" lon="5.93513">
        <ele>1684</ele>
        <time>2019-01-11T16:52:46Z</time>
      </trkpt>
      <trkpt lat="45.19079" lon="5.93504">
        <ele>1679</ele>
        <time>2019-01-11T16:52:48Z</time>
      </trkpt>
      <trkpt lat="45.19077" lon="5.93491">
        <ele>1678</ele>
        <time>2019-01-11T16:52:56Z</time>
      </trkpt>
      <trkpt lat="45.19074" lon="5.93464">
        <ele>1669</ele>
        <time>2019-01-11T16:53:08Z</time>
      </trkpt>
      <trkpt lat="45.19072" lon="5.93454">
        <ele>1671</ele>
        <time>2019-01-11T16:53:14Z</time>
      </trkpt>
      <trkpt lat="45.19066" lon="5.93453">
        <ele>1663</ele>
        <time>2019-01-11T16:53:22Z</time>
      </trkpt>
      <trkpt lat="45.19069" lon="5.93448">
        <ele>1684</ele>
        <time>2019-01-11T16:53:40Z</time>
      </trkpt>
      <trkpt lat="45.19066" lon="5.93435">
        <ele>1675</ele>
        <time>2019-01-11T16:54:13Z</time>
      </trkpt>
      <trkpt lat="45.19062" lon="5.93418">
        <ele>1667</ele>
        <time>2019-01-11T16:54:23Z</time>
      </trkpt>
      <trkpt lat="45.19058" lon="5.93404">
        <ele>1670</ele>
        <time>2019-01-11T16:54:28Z</time>
      </trkpt>
      <trkpt lat="45.19056" lon="5.93396">
        <ele>1675</ele>
        <time>2019-01-11T16:54:31Z</time>
      </trkpt>
      <trkpt lat="45.19048" lon="5.93383">
        <ele>1654</ele>
        <time>2019-01-11T16:54:39Z</time>
      </trkpt>
      <trkpt lat="45.19043" lon="5.93379">
        <ele>1660</ele>
        <time>2019-01-11T16:54:42Z</time>
      </trkpt>
      <trkpt lat="45.1904" lon="5.93374">
        <ele>1662</ele>
        <time>2019-01-11T16:54:46Z</time>
      </trkpt>
      <trkpt lat="45.19039" lon="5.93367">
        <ele>1659</ele>
        <time>2019-01-11T16:54:50Z</time>
      </trkpt>
      <trkpt lat="45.19037" lon="5.9336">
        <ele>1659</ele>
        <time>2019-01-11T16:54:53Z</time>
      </trkpt>
      <trkpt lat="45.19037" lon="5.93351">
        <ele>1664</ele>
        <time>2019-01-11T16:54:56Z</time>
      </trkpt>
      <trkpt lat="45.19048" lon="5.93333">
        <ele>1656</ele>
        <time>2019-01-11T16:55:38Z</time>
      </trkpt>
      <trkpt lat="45.1905" lon="5.93327">
        <ele>1665</ele>
        <time>2019-01-11T16:55:49Z</time>
      </trkpt>
      <trkpt lat="45.19048" lon="5.93313">
        <ele>1653</ele>
        <time>2019-01-11T16:55:57Z</time>
      </trkpt>
      <trkpt lat="45.1905" lon="5.93304">
        <ele>1652</ele>
        <time>2019-01-11T16:56:03Z</time>
      </trkpt>
      <trkpt lat="45.19052" lon="5.93287">
        <ele>1642</ele>
        <time>2019-01-11T16:56:11Z</time>
      </trkpt>
      <trkpt lat="45.19054" lon="5.9327">
        <ele>1632</ele>
        <time>2019-01-11T16:56:19Z</time>
      </trkpt>
      <trkpt lat="45.19057" lon="5.93263">
        <ele>1629</ele>
        <time>2019-01-11T16:56:23Z</time>
      </trkpt>
      <trkpt lat="45.19054" lon="5.93253">
        <ele>1622</ele>
        <time>2019-01-11T16:56:31Z</time>
      </trkpt>
      <trkpt lat="45.19048" lon="5.93251">
        <ele>1622</ele>
        <time>2019-01-11T16:56:34Z</time>
      </trkpt>
      <trkpt lat="45.19042" lon="5.9325">
        <ele>1624</ele>
        <time>2019-01-11T16:56:37Z</time>
      </trkpt>
      <trkpt lat="45.19036" lon="5.93249">
        <ele>1622</ele>
        <time>2019-01-11T16:56:40Z</time>
      </trkpt>
      <trkpt lat="45.18991" lon="5.93233">
        <ele>1611</ele>
        <time>2019-01-11T16:57:01Z</time>
      </trkpt>
      <trkpt lat="45.18985" lon="5.93233">
        <ele>1610</ele>
        <time>2019-01-11T16:57:04Z</time>
      </trkpt>
      <trkpt lat="45.18914" lon="5.93231">
        <ele>1596</ele>
        <time>2019-01-11T16:57:36Z</time>
      </trkpt>
      <trkpt lat="45.18919" lon="5.93229">
        <ele>1591</ele>
        <time>2019-01-11T16:57:48Z</time>
      </trkpt>
      <trkpt lat="45.18962" lon="5.93177">
        <ele>1581</ele>
        <time>2019-01-11T16:58:10Z</time>
      </trkpt>
      <trkpt lat="45.18969" lon="5.93161">
        <ele>1576</ele>
        <time>2019-01-11T16:58:19Z</time>
      </trkpt>
      <trkpt lat="45.18969" lon="5.93147">
        <ele>1573</ele>
        <time>2019-01-11T16:58:23Z</time>
      </trkpt>
      <trkpt lat="45.18967" lon="5.93124">
        <ele>1571</ele>
        <time>2019-01-11T16:58:29Z</time>
      </trkpt>
      <trkpt lat="45.18967" lon="5.93118">
        <ele>1570</ele>
        <time>2019-01-11T16:58:31Z</time>
      </trkpt>
      <trkpt lat="45.18972" lon="5.93111">
        <ele>1567</ele>
        <time>2019-01-11T16:58:35Z</time>
      </trkpt>
      <trkpt lat="45.18975" lon="5.93105">
        <ele>1565</ele>
        <time>2019-01-11T16:58:38Z</time>
      </trkpt>
      <trkpt lat="45.18988" lon="5.93089">
        <ele>1560</ele>
        <time>2019-01-11T16:58:47Z</time>
      </trkpt>
      <trkpt lat="45.18992" lon="5.93083">
        <ele>1559</ele>
        <time>2019-01-11T16:58:50Z</time>
      </trkpt>
      <trkpt lat="45.19009" lon="5.93065">
        <ele>1552</ele>
        <time>2019-01-11T16:59:04Z</time>
      </trkpt>
      <trkpt lat="45.19014" lon="5.93059">
        <ele>1551</ele>
        <time>2019-01-11T16:59:07Z</time>
      </trkpt>
      <trkpt lat="45.19027" lon="5.93049">
        <ele>1549</ele>
        <time>2019-01-11T16:59:15Z</time>
      </trkpt>
      <trkpt lat="45.19037" lon="5.93044">
        <ele>1549</ele>
        <time>2019-01-11T16:59:21Z</time>
      </trkpt>
      <trkpt lat="45.19044" lon="5.93042">
        <ele>1548</ele>
        <time>2019-01-11T16:59:24Z</time>
      </trkpt>
      <trkpt lat="45.19049" lon="5.93041">
        <ele>1547</ele>
        <time>2019-01-11T16:59:26Z</time>
      </trkpt>
      <trkpt lat="45.19055" lon="5.93037">
        <ele>1548</ele>
        <time>2019-01-11T16:59:29Z</time>
      </trkpt>
      <trkpt lat="45.19086" lon="5.93032">
        <ele>1543</ele>
        <time>2019-01-11T16:59:44Z</time>
      </trkpt>
      <trkpt lat="45.19157" lon="5.93032">
        <ele>1529</ele>
        <time>2019-01-11T17:00:17Z</time>
      </trkpt>
      <trkpt lat="45.19187" lon="5.93031">
        <ele>1522</ele>
        <time>2019-01-11T17:00:35Z</time>
      </trkpt>
      <trkpt lat="45.19197" lon="5.93036">
        <ele>1516</ele>
        <time>2019-01-11T17:00:43Z</time>
      </trkpt>
      <trkpt lat="45.19238" lon="5.93046">
        <ele>1502</ele>
        <time>2019-01-11T17:01:14Z</time>
      </trkpt>
      <trkpt lat="45.19249" lon="5.93045">
        <ele>1499</ele>
        <time>2019-01-11T17:01:22Z</time>
      </trkpt>
      <trkpt lat="45.19257" lon="5.9304">
        <ele>1498</ele>
        <time>2019-01-11T17:01:28Z</time>
      </trkpt>
      <trkpt lat="45.19266" lon="5.93034">
        <ele>1496</ele>
        <time>2019-01-11T17:01:34Z</time>
      </trkpt>
      <trkpt lat="45.19285" lon="5.93028">
        <ele>1491</ele>
        <time>2019-01-11T17:01:43Z</time>
      </trkpt>
      <trkpt lat="45.19303" lon="5.93023">
        <ele>1490</ele>
        <time>2019-01-11T17:01:51Z</time>
      </trkpt>
      <trkpt lat="45.19314" lon="5.93021">
        <ele>1487</ele>
        <time>2019-01-11T17:01:56Z</time>
      </trkpt>
      <trkpt lat="45.19323" lon="5.9302">
        <ele>1487</ele>
        <time>2019-01-11T17:02:00Z</time>
      </trkpt>
      <trkpt lat="45.19344" lon="5.93016">
        <ele>1485</ele>
        <time>2019-01-11T17:02:09Z</time>
      </trkpt>
      <trkpt lat="45.19355" lon="5.93012">
        <ele>1484</ele>
        <time>2019-01-11T17:02:14Z</time>
      </trkpt>
      <trkpt lat="45.19366" lon="5.93012">
        <ele>1482</ele>
        <time>2019-01-11T17:02:19Z</time>
      </trkpt>
      <trkpt lat="45.19385" lon="5.93014">
        <ele>1480</ele>
        <time>2019-01-11T17:02:27Z</time>
      </trkpt>
      <trkpt lat="45.19402" lon="5.93022">
        <ele>1476</ele>
        <time>2019-01-11T17:02:36Z</time>
      </trkpt>
      <trkpt lat="45.19409" lon="5.93033">
        <ele>1474</ele>
        <time>2019-01-11T17:02:40Z</time>
      </trkpt>
      <trkpt lat="45.19415" lon="5.9305">
        <ele>1473</ele>
        <time>2019-01-11T17:02:46Z</time>
      </trkpt>
      <trkpt lat="45.19419" lon="5.93062">
        <ele>1472</ele>
        <time>2019-01-11T17:02:50Z</time>
      </trkpt>
      <trkpt lat="45.19417" lon="5.93078">
        <ele>1466</ele>
        <time>2019-01-11T17:03:00Z</time>
      </trkpt>
      <trkpt lat="45.19425" lon="5.93086">
        <ele>1465</ele>
        <time>2019-01-11T17:03:05Z</time>
      </trkpt>
      <trkpt lat="45.19434" lon="5.93091">
        <ele>1464</ele>
        <time>2019-01-11T17:03:09Z</time>
      </trkpt>
      <trkpt lat="45.19444" lon="5.93089">
        <ele>1463</ele>
        <time>2019-01-11T17:03:13Z</time>
      </trkpt>
      <trkpt lat="45.19452" lon="5.93085">
        <ele>1463</ele>
        <time>2019-01-11T17:03:17Z</time>
      </trkpt>
      <trkpt lat="45.19463" lon="5.93081">
        <ele>1461</ele>
        <time>2019-01-11T17:03:23Z</time>
      </trkpt>
      <trkpt lat="45.19472" lon="5.93078">
        <ele>1462</ele>
        <time>2019-01-11T17:03:30Z</time>
      </trkpt>
      <trkpt lat="45.19495" lon="5.93069">
        <ele>1459</ele>
        <time>2019-01-11T17:03:43Z</time>
      </trkpt>
      <trkpt lat="45.19506" lon="5.93063">
        <ele>1459</ele>
        <time>2019-01-11T17:03:48Z</time>
      </trkpt>
      <trkpt lat="45.19505" lon="5.93065">
        <ele>1461</ele>
        <time>2019-01-11T17:04:20Z</time>
      </trkpt>
      <trkpt lat="45.19504" lon="5.93065">
        <ele>1454</ele>
        <time>2019-01-11T17:05:16Z</time>
      </trkpt>
      <trkpt lat="45.19501" lon="5.93067">
        <ele>1465</ele>
        <time>2019-01-11T17:07:29Z</time>
      </trkpt>
      <trkpt lat="45.19498" lon="5.93054">
        <ele>1459</ele>
        <time>2019-01-11T17:08:04Z</time>
      </trkpt>
      <trkpt lat="45.19507" lon="5.93055">
        <ele>1460</ele>
        <time>2019-01-11T17:09:04Z</time>
      </trkpt>
      <trkpt lat="45.19507" lon="5.93063">
        <ele>1464</ele>
        <time>2019-01-11T17:09:32Z</time>
      </trkpt>
    </trkseg>
  </trk>
</gpx>